Wetterdaten: Sonntag, 06.08.2017
Datum Zeit Temp. A. Pool Temp. Feuchte A. Luftdruck Regen Wind Richtung Richtung Sonnenschein ET UV Solar Taupunkt Windchill Windben Empfang
06.08.2017 00:00 23,2 C 27,8 C 81 % 1012,4 hPa 0,0 l/m 7,6 km/h (2 Bft) S-SW 196 0 min 0,000 mm 0,0 UV-I 0 W/m 19,8 C 22,8 C 9,7 km/h (2 Bft) 95,83 %
06.08.2017 00:02 23,2 C 27,8 C 81 % 1012,4 hPa 0,0 l/m 7,7 km/h (2 Bft) S-SW 192 0 min 0,000 mm 0,0 UV-I 0 W/m 19,8 C 22,8 C 9,7 km/h (2 Bft) 97,62 %
06.08.2017 00:04 23,2 C 27,8 C 81 % 1012,4 hPa 0,0 l/m 5,5 km/h (1 Bft) S-SW 211 0 min 0,000 mm 0,0 UV-I 0 W/m 19,8 C 23,2 C 11,3 km/h (2 Bft) 95,74 %
06.08.2017 00:06 23,1 C 27,8 C 82 % 1012,3 hPa 0,0 l/m 7,8 km/h (2 Bft) SW 219 0 min 0,000 mm 0,0 UV-I 0 W/m 19,9 C 22,7 C 12,9 km/h (3 Bft) 98,00 %
06.08.2017 00:08 23,1 C 27,8 C 82 % 1012,3 hPa 0,0 l/m 5,7 km/h (1 Bft) S-SW 211 0 min 0,000 mm 0,0 UV-I 0 W/m 19,9 C 23,1 C 9,7 km/h (2 Bft) 97,87 %
06.08.2017 00:10 23,1 C 27,8 C 82 % 1012,2 hPa 0,0 l/m 6,2 km/h (2 Bft) S-SO 162 0 min 0,000 mm 0,0 UV-I 0 W/m 19,9 C 23,1 C 11,3 km/h (2 Bft) 97,87 %
06.08.2017 00:12 23,0 C 27,8 C 82 % 1012,2 hPa 0,0 l/m 6,6 km/h (2 Bft) S-SO 164 0 min 0,000 mm 0,0 UV-I 0 W/m 19,8 C 22,9 C 11,3 km/h (2 Bft) 97,87 %
06.08.2017 00:14 23,0 C 27,8 C 82 % 1012,2 hPa 0,0 l/m 6,6 km/h (2 Bft) S-SW 194 0 min 0,000 mm 0,0 UV-I 0 W/m 19,8 C 22,9 C 12,9 km/h (3 Bft) 95,74 %
06.08.2017 00:16 23,0 C 27,8 C 82 % 1012,2 hPa 0,0 l/m 6,5 km/h (2 Bft) S-SO 160 0 min 0,000 mm 0,0 UV-I 0 W/m 19,8 C 23,0 C 9,7 km/h (2 Bft) 97,87 %
06.08.2017 00:18 22,9 C 27,8 C 83 % 1012,1 hPa 0,0 l/m 6,9 km/h (2 Bft) S-SW 206 0 min 0,000 mm 0,0 UV-I 0 W/m 19,9 C 22,7 C 11,3 km/h (2 Bft) 97,37 %
06.08.2017 00:20 22,9 C 27,8 C 83 % 1012,1 hPa 0,0 l/m 8,9 km/h (2 Bft) S-SW 201 0 min 0,000 mm 0,0 UV-I 0 W/m 19,9 C 22,1 C 16,1 km/h (3 Bft) 96,00 %
06.08.2017 00:22 22,9 C 27,8 C 84 % 1012,2 hPa 0,0 l/m 6,1 km/h (2 Bft) S-SW 205 0 min 0,000 mm 0,0 UV-I 0 W/m 20,0 C 22,9 C 9,7 km/h (2 Bft) 98,00 %
06.08.2017 00:24 22,9 C 27,8 C 84 % 1012,2 hPa 0,0 l/m 6,5 km/h (2 Bft) S 178 0 min 0,000 mm 0,0 UV-I 0 W/m 20,0 C 22,9 C 11,3 km/h (2 Bft) 97,87 %
06.08.2017 00:26 22,9 C 27,8 C 84 % 1012,3 hPa 0,0 l/m 6,5 km/h (2 Bft) S 173 0 min 0,000 mm 0,0 UV-I 0 W/m 20,0 C 22,9 C 11,3 km/h (2 Bft) 97,87 %
06.08.2017 00:28 22,8 C 27,8 C 84 % 1012,3 hPa 0,0 l/m 7,0 km/h (2 Bft) S-SW 194 0 min 0,000 mm 0,0 UV-I 0 W/m 19,9 C 22,6 C 14,5 km/h (3 Bft) 95,74 %
06.08.2017 00:30 22,8 C 27,8 C 84 % 1012,2 hPa 0,0 l/m 7,9 km/h (2 Bft) S 184 0 min 0,000 mm 0,0 UV-I 0 W/m 19,9 C 22,3 C 14,5 km/h (3 Bft) 98,00 %
06.08.2017 00:32 22,8 C 27,8 C 84 % 1012,2 hPa 0,0 l/m 6,7 km/h (2 Bft) S-SO 162 0 min 0,000 mm 0,0 UV-I 0 W/m 19,9 C 22,7 C 12,9 km/h (3 Bft) 97,37 %
06.08.2017 00:34 22,8 C 27,8 C 84 % 1012,2 hPa 0,0 l/m 6,0 km/h (2 Bft) S 179 0 min 0,000 mm 0,0 UV-I 0 W/m 19,9 C 22,8 C 11,3 km/h (2 Bft) 100,00 %
06.08.2017 00:36 22,8 C 27,8 C 84 % 1012,3 hPa 0,2 l/m 6,5 km/h (2 Bft) S-SW 197 0 min 0,000 mm 0,0 UV-I 0 W/m 19,9 C 22,8 C 12,9 km/h (3 Bft) 100,00 %
06.08.2017 00:38 22,8 C 27,8 C 85 % 1012,4 hPa 0,0 l/m 5,6 km/h (1 Bft) S-SW 196 0 min 0,000 mm 0,0 UV-I 0 W/m 20,1 C 22,8 C 8,0 km/h (2 Bft) 98,00 %
06.08.2017 00:40 22,8 C 27,8 C 85 % 1012,3 hPa 0,0 l/m 5,3 km/h (1 Bft) S-SW 194 0 min 0,000 mm 0,0 UV-I 0 W/m 20,1 C 22,8 C 8,0 km/h (2 Bft) 100,00 %
06.08.2017 00:42 22,7 C 27,8 C 85 % 1012,3 hPa 0,0 l/m 4,8 km/h (1 Bft) S-SO 163 0 min 0,000 mm 0,0 UV-I 0 W/m 20,0 C 22,7 C 8,0 km/h (2 Bft) 97,87 %
06.08.2017 00:44 22,7 C 27,8 C 85 % 1012,3 hPa 0,0 l/m 4,9 km/h (1 Bft) S-SO 158 0 min 0,000 mm 0,0 UV-I 0 W/m 20,0 C 22,7 C 9,7 km/h (2 Bft) 97,92 %
06.08.2017 00:46 22,6 C 27,8 C 85 % 1012,3 hPa 0,0 l/m 5,0 km/h (1 Bft) S-SO 163 0 min 0,000 mm 0,0 UV-I 0 W/m 19,9 C 22,6 C 8,0 km/h (2 Bft) 97,14 %
06.08.2017 00:48 22,6 C 27,8 C 85 % 1012,3 hPa 0,2 l/m 6,8 km/h (2 Bft) S 175 0 min 0,000 mm 0,0 UV-I 0 W/m 19,9 C 22,5 C 12,9 km/h (3 Bft) 100,00 %
06.08.2017 00:50 22,5 C 27,8 C 84 % 1012,4 hPa 0,0 l/m 6,6 km/h (2 Bft) S 169 0 min 0,000 mm 0,0 UV-I 0 W/m 19,7 C 22,4 C 11,3 km/h (2 Bft) 100,00 %
06.08.2017 00:52 22,4 C 27,8 C 85 % 1012,5 hPa 0,0 l/m 5,8 km/h (2 Bft) S 185 0 min 0,000 mm 0,0 UV-I 0 W/m 19,7 C 22,4 C 9,7 km/h (2 Bft) 97,87 %
06.08.2017 00:54 22,4 C 27,8 C 85 % 1012,5 hPa 0,0 l/m 5,0 km/h (1 Bft) SW 224 0 min 0,000 mm 0,0 UV-I 0 W/m 19,7 C 22,4 C 8,0 km/h (2 Bft) 100,00 %
06.08.2017 00:56 22,4 C 27,8 C 86 % 1012,6 hPa 0,0 l/m 6,1 km/h (2 Bft) W-SW 245 0 min 0,000 mm 0,0 UV-I 0 W/m 19,9 C 22,4 C 11,3 km/h (2 Bft) 98,11 %
06.08.2017 00:58 22,4 C 27,8 C 87 % 1013,5 hPa 0,0 l/m 15,9 km/h (3 Bft) W-SW 250 0 min 0,000 mm 0,0 UV-I 0 W/m 20,1 C 20,0 C 20,9 km/h (4 Bft) 100,00 %
06.08.2017 01:00 22,3 C 27,8 C 87 % 1013,7 hPa 0,0 l/m 23,1 km/h (4 Bft) W 264 0 min 0,025 mm 0,0 UV-I 0 W/m 20,0 C 18,7 C 30,6 km/h (5 Bft) 100,00 %
06.08.2017 01:02 22,3 C 27,8 C 84 % 1013,6 hPa 0,0 l/m 19,8 km/h (3 Bft) W-SW 239 0 min 0,000 mm 0,0 UV-I 0 W/m 19,5 C 19,2 C 33,8 km/h (5 Bft) 100,00 %
06.08.2017 01:04 22,2 C 27,8 C 83 % 1013,9 hPa 0,0 l/m 13,9 km/h (3 Bft) S-SW 209 0 min 0,000 mm 0,0 UV-I 0 W/m 19,2 C 20,1 C 25,7 km/h (4 Bft) 100,00 %
06.08.2017 01:06 22,0 C 27,8 C 81 % 1013,9 hPa 0,0 l/m 16,4 km/h (3 Bft) S-SW 213 0 min 0,000 mm 0,0 UV-I 0 W/m 18,6 C 19,4 C 40,2 km/h (6 Bft) 100,00 %
06.08.2017 01:08 21,8 C 27,8 C 81 % 1014,0 hPa 0,2 l/m 18,5 km/h (3 Bft) W-SW 237 0 min 0,000 mm 0,0 UV-I 0 W/m 18,4 C 18,8 C 37,0 km/h (5 Bft) 97,87 %
06.08.2017 01:10 21,6 C 27,8 C 82 % 1014,4 hPa 0,2 l/m 19,4 km/h (3 Bft) W-SW 245 0 min 0,000 mm 0,0 UV-I 0 W/m 18,4 C 18,4 C 37,0 km/h (5 Bft) 95,74 %
06.08.2017 01:12 21,2 C 27,8 C 82 % 1014,4 hPa 1,2 l/m 12,6 km/h (3 Bft) W 263 0 min 0,000 mm 0,0 UV-I 0 W/m 18,0 C 19,3 C 25,7 km/h (4 Bft) 93,62 %
06.08.2017 01:14 20,7 C 27,8 C 84 % 1014,3 hPa 3,0 l/m 16,2 km/h (3 Bft) W 279 0 min 0,000 mm 0,0 UV-I 0 W/m 17,9 C 17,8 C 33,8 km/h (5 Bft) 97,37 %
06.08.2017 01:16 20,2 C 27,8 C 85 % 1014,2 hPa 2,0 l/m 13,9 km/h (3 Bft) N-NW 334 0 min 0,000 mm 0,0 UV-I 0 W/m 17,6 C 17,8 C 29,0 km/h (5 Bft) 97,87 %
06.08.2017 01:18 19,8 C 27,8 C 87 % 1014,1 hPa 1,2 l/m 7,0 km/h (2 Bft) W-NW 296 0 min 0,000 mm 0,0 UV-I 0 W/m 17,6 C 19,6 C 17,7 km/h (3 Bft) 96,00 %
06.08.2017 01:20 19,6 C 27,8 C 88 % 1014,3 hPa 1,2 l/m 7,2 km/h (2 Bft) W-NW 298 0 min 0,000 mm 0,0 UV-I 0 W/m 17,6 C 19,3 C 16,1 km/h (3 Bft) 97,92 %
06.08.2017 01:22 19,3 C 27,8 C 89 % 1014,3 hPa 1,0 l/m 3,2 km/h (1 Bft) NW 310 0 min 0,000 mm 0,0 UV-I 0 W/m 17,4 C 19,3 C 4,8 km/h (1 Bft) 97,87 %
06.08.2017 01:24 19,2 C 27,8 C 90 % 1014,5 hPa 1,4 l/m 4,0 km/h (1 Bft) W-SW 245 0 min 0,000 mm 0,0 UV-I 0 W/m 17,5 C 19,2 C 8,0 km/h (2 Bft) 93,62 %
06.08.2017 01:26 19,1 C 27,8 C 91 % 1014,7 hPa 0,6 l/m 5,4 km/h (1 Bft) W-SW 252 0 min 0,000 mm 0,0 UV-I 0 W/m 17,6 C 19,1 C 9,7 km/h (2 Bft) 95,74 %
06.08.2017 01:28 18,9 C 27,8 C 91 % 1014,6 hPa 1,0 l/m 9,7 km/h (2 Bft) W 261 0 min 0,000 mm 0,0 UV-I 0 W/m 17,4 C 17,5 C 19,3 km/h (3 Bft) 93,62 %
06.08.2017 01:30 18,8 C 27,8 C 91 % 1014,6 hPa 0,4 l/m 4,7 km/h (1 Bft) SW 221 0 min 0,000 mm 0,0 UV-I 0 W/m 17,3 C 18,8 C 9,7 km/h (2 Bft) 97,87 %
06.08.2017 01:32 18,7 C 27,2 C 92 % 1014,6 hPa 0,2 l/m 7,4 km/h (2 Bft) SW 232 0 min 0,000 mm 0,0 UV-I 0 W/m 17,4 C 18,2 C 12,9 km/h (3 Bft) 95,74 %
06.08.2017 01:34 18,7 C 27,2 C 92 % 1014,6 hPa 0,2 l/m 5,8 km/h (2 Bft) W-SW 244 0 min 0,000 mm 0,0 UV-I 0 W/m 17,4 C 18,7 C 9,7 km/h (2 Bft) 97,87 %
06.08.2017 01:36 18,7 C 27,2 C 92 % 1014,5 hPa 0,2 l/m 1,3 km/h (1 Bft) NW 317 0 min 0,000 mm 0,0 UV-I 0 W/m 17,4 C 18,7 C 4,8 km/h (1 Bft) 98,00 %
06.08.2017 01:38 18,7 C 27,2 C 92 % 1014,6 hPa 0,2 l/m 4,6 km/h (1 Bft) W-SW 240 0 min 0,000 mm 0,0 UV-I 0 W/m 17,4 C 18,7 C 8,0 km/h (2 Bft) 97,87 %
06.08.2017 01:40 18,7 C 27,2 C 92 % 1014,6 hPa 0,4 l/m 4,5 km/h (1 Bft) SW 232 0 min 0,000 mm 0,0 UV-I 0 W/m 17,4 C 18,7 C 12,9 km/h (3 Bft) 97,87 %
06.08.2017 01:42 18,7 C 27,2 C 93 % 1014,7 hPa 0,4 l/m 5,7 km/h (1 Bft) W-SW 240 0 min 0,000 mm 0,0 UV-I 0 W/m 17,5 C 18,7 C 9,7 km/h (2 Bft) 97,87 %
06.08.2017 01:44 18,7 C 27,2 C 93 % 1015,0 hPa 0,0 l/m 9,2 km/h (2 Bft) W-SW 252 0 min 0,000 mm 0,0 UV-I 0 W/m 17,5 C 17,5 C 14,5 km/h (3 Bft) 97,87 %
06.08.2017 01:46 18,7 C 27,2 C 93 % 1015,0 hPa 0,2 l/m 12,6 km/h (3 Bft) W-SW 256 0 min 0,000 mm 0,0 UV-I 0 W/m 17,5 C 16,3 C 17,7 km/h (3 Bft) 100,00 %
06.08.2017 01:48 18,7 C 27,2 C 93 % 1014,9 hPa 0,6 l/m 11,5 km/h (2 Bft) W 268 0 min 0,000 mm 0,0 UV-I 0 W/m 17,5 C 16,7 C 19,3 km/h (3 Bft) 96,00 %
06.08.2017 01:50 18,8 C 27,2 C 93 % 1015,0 hPa 1,2 l/m 11,0 km/h (2 Bft) W-SW 258 0 min 0,000 mm 0,0 UV-I 0 W/m 17,6 C 17,0 C 19,3 km/h (3 Bft) 100,00 %
06.08.2017 01:52 18,8 C 27,2 C 93 % 1015,0 hPa 0,8 l/m 7,5 km/h (2 Bft) W-SW 258 0 min 0,000 mm 0,0 UV-I 0 W/m 17,6 C 18,3 C 11,3 km/h (2 Bft) 100,00 %
06.08.2017 01:54 18,8 C 27,2 C 94 % 1015,2 hPa 0,8 l/m 10,9 km/h (2 Bft) W-SW 244 0 min 0,000 mm 0,0 UV-I 0 W/m 17,8 C 17,0 C 20,9 km/h (4 Bft) 100,00 %
06.08.2017 01:56 18,8 C 27,2 C 94 % 1015,3 hPa 0,8 l/m 10,1 km/h (2 Bft) SW 227 0 min 0,000 mm 0,0 UV-I 0 W/m 17,8 C 17,3 C 20,9 km/h (4 Bft) 100,00 %
06.08.2017 01:58 18,8 C 27,2 C 94 % 1015,3 hPa 0,2 l/m 9,2 km/h (2 Bft) SW 231 0 min 0,000 mm 0,0 UV-I 0 W/m 17,8 C 17,6 C 16,1 km/h (3 Bft) 100,00 %
06.08.2017 02:00 18,8 C 27,2 C 94 % 1015,4 hPa 0,2 l/m 9,5 km/h (2 Bft) S-SW 200 0 min 0,026 mm 0,0 UV-I 0 W/m 17,8 C 17,5 C 12,9 km/h (3 Bft) 100,00 %
06.08.2017 02:02 18,8 C 27,2 C 94 % 1015,4 hPa 0,4 l/m 10,7 km/h (2 Bft) SW 232 0 min 0,000 mm 0,0 UV-I 0 W/m 17,8 C 17,1 C 14,5 km/h (3 Bft) 100,00 %
06.08.2017 02:04 18,8 C 27,2 C 94 % 1015,4 hPa 0,2 l/m 9,4 km/h (2 Bft) S-SW 213 0 min 0,000 mm 0,0 UV-I 0 W/m 17,8 C 17,5 C 14,5 km/h (3 Bft) 100,00 %
06.08.2017 02:06 18,9 C 27,2 C 94 % 1015,4 hPa 0,2 l/m 8,0 km/h (2 Bft) S-SW 213 0 min 0,000 mm 0,0 UV-I 0 W/m 17,9 C 18,2 C 14,5 km/h (3 Bft) 100,00 %
06.08.2017 02:08 18,9 C 27,2 C 94 % 1015,5 hPa 0,2 l/m 8,9 km/h (2 Bft) SW 220 0 min 0,000 mm 0,0 UV-I 0 W/m 17,9 C 17,8 C 12,9 km/h (3 Bft) 100,00 %
06.08.2017 02:10 18,9 C 27,2 C 94 % 1015,5 hPa 0,4 l/m 10,1 km/h (2 Bft) W-SW 242 0 min 0,000 mm 0,0 UV-I 0 W/m 17,9 C 17,4 C 17,7 km/h (3 Bft) 97,87 %
06.08.2017 02:12 18,9 C 27,2 C 94 % 1015,6 hPa 0,2 l/m 8,8 km/h (2 Bft) SW 215 0 min 0,000 mm 0,0 UV-I 0 W/m 17,9 C 17,9 C 12,9 km/h (3 Bft) 95,74 %
06.08.2017 02:14 18,8 C 27,2 C 94 % 1015,6 hPa 0,2 l/m 10,1 km/h (2 Bft) S-SW 193 0 min 0,000 mm 0,0 UV-I 0 W/m 17,8 C 17,3 C 14,5 km/h (3 Bft) 98,00 %
06.08.2017 02:16 18,8 C 27,2 C 94 % 1015,6 hPa 0,2 l/m 7,8 km/h (2 Bft) SW 216 0 min 0,000 mm 0,0 UV-I 0 W/m 17,8 C 18,2 C 11,3 km/h (2 Bft) 100,00 %
06.08.2017 02:18 18,9 C 27,2 C 94 % 1015,5 hPa 0,0 l/m 9,4 km/h (2 Bft) S-SW 203 0 min 0,000 mm 0,0 UV-I 0 W/m 17,9 C 17,6 C 16,1 km/h (3 Bft) 95,74 %
06.08.2017 02:20 18,9 C 27,2 C 94 % 1015,5 hPa 0,2 l/m 10,9 km/h (2 Bft) S 189 0 min 0,000 mm 0,0 UV-I 0 W/m 17,9 C 17,1 C 16,1 km/h (3 Bft) 100,00 %
06.08.2017 02:22 18,9 C 27,2 C 94 % 1015,4 hPa 0,0 l/m 8,0 km/h (2 Bft) S-SW 200 0 min 0,000 mm 0,0 UV-I 0 W/m 17,9 C 18,2 C 14,5 km/h (3 Bft) 100,00 %
06.08.2017 02:24 18,9 C 27,2 C 94 % 1015,5 hPa 0,2 l/m 5,7 km/h (1 Bft) SW 229 0 min 0,000 mm 0,0 UV-I 0 W/m 17,9 C 18,9 C 11,3 km/h (2 Bft) 100,00 %
06.08.2017 02:26 18,9 C 27,2 C 94 % 1015,5 hPa 0,0 l/m 6,9 km/h (2 Bft) S 179 0 min 0,000 mm 0,0 UV-I 0 W/m 17,9 C 18,7 C 14,5 km/h (3 Bft) 100,00 %
06.08.2017 02:28 18,9 C 27,2 C 95 % 1015,5 hPa 0,2 l/m 9,6 km/h (2 Bft) SW 223 0 min 0,000 mm 0,0 UV-I 0 W/m 18,1 C 17,6 C 16,1 km/h (3 Bft) 100,00 %
06.08.2017 02:30 18,9 C 27,2 C 95 % 1015,6 hPa 0,2 l/m 6,7 km/h (2 Bft) S-SW 207 0 min 0,000 mm 0,0 UV-I 0 W/m 18,1 C 18,8 C 11,3 km/h (2 Bft) 97,87 %
06.08.2017 02:32 18,9 C 27,2 C 94 % 1015,7 hPa 0,2 l/m 5,7 km/h (1 Bft) S-SW 192 0 min 0,000 mm 0,0 UV-I 0 W/m 17,9 C 18,9 C 8,0 km/h (2 Bft) 100,00 %
06.08.2017 02:34 18,9 C 27,2 C 94 % 1015,7 hPa 0,2 l/m 5,8 km/h (2 Bft) S-SO 163 0 min 0,000 mm 0,0 UV-I 0 W/m 17,9 C 18,9 C 11,3 km/h (2 Bft) 100,00 %
06.08.2017 02:36 18,9 C 27,2 C 94 % 1015,7 hPa 0,2 l/m 6,5 km/h (2 Bft) S 182 0 min 0,000 mm 0,0 UV-I 0 W/m 17,9 C 18,9 C 11,3 km/h (2 Bft) 100,00 %
06.08.2017 02:38 18,9 C 27,2 C 94 % 1015,8 hPa 0,2 l/m 7,5 km/h (2 Bft) S-SO 149 0 min 0,000 mm 0,0 UV-I 0 W/m 17,9 C 18,4 C 17,7 km/h (3 Bft) 100,00 %
06.08.2017 02:40 18,8 C 27,2 C 94 % 1015,9 hPa 0,2 l/m 11,4 km/h (2 Bft) S-SO 161 0 min 0,000 mm 0,0 UV-I 0 W/m 17,8 C 16,8 C 19,3 km/h (3 Bft) 100,00 %
06.08.2017 02:42 18,7 C 27,2 C 94 % 1015,9 hPa 0,2 l/m 11,0 km/h (2 Bft) S 184 0 min 0,000 mm 0,0 UV-I 0 W/m 17,7 C 16,9 C 19,3 km/h (3 Bft) 100,00 %
06.08.2017 02:44 18,7 C 27,2 C 95 % 1015,9 hPa 0,0 l/m 10,4 km/h (2 Bft) S-SW 196 0 min 0,000 mm 0,0 UV-I 0 W/m 17,9 C 17,1 C 19,3 km/h (3 Bft) 100,00 %
06.08.2017 02:46 18,7 C 27,2 C 95 % 1016,0 hPa 0,0 l/m 10,3 km/h (2 Bft) S-SW 200 0 min 0,000 mm 0,0 UV-I 0 W/m 17,9 C 17,1 C 22,5 km/h (4 Bft) 100,00 %
06.08.2017 02:48 18,6 C 27,2 C 95 % 1016,1 hPa 0,0 l/m 12,6 km/h (3 Bft) S-SO 159 0 min 0,000 mm 0,0 UV-I 0 W/m 17,8 C 16,2 C 20,9 km/h (4 Bft) 97,87 %
06.08.2017 02:50 18,6 C 27,2 C 95 % 1016,1 hPa 0,0 l/m 9,3 km/h (2 Bft) S 174 0 min 0,000 mm 0,0 UV-I 0 W/m 17,8 C 17,4 C 22,5 km/h (4 Bft) 100,00 %
06.08.2017 02:52 18,7 C 27,2 C 95 % 1015,8 hPa 0,0 l/m 9,6 km/h (2 Bft) S 175 0 min 0,000 mm 0,0 UV-I 0 W/m 17,9 C 17,4 C 17,7 km/h (3 Bft) 100,00 %
06.08.2017 02:54 18,6 C 27,2 C 95 % 1015,6 hPa 0,2 l/m 6,6 km/h (2 Bft) S-SO 165 0 min 0,000 mm 0,0 UV-I 0 W/m 17,8 C 18,5 C 14,5 km/h (3 Bft) 100,00 %
06.08.2017 02:56 18,6 C 27,2 C 95 % 1015,6 hPa 0,0 l/m 6,0 km/h (2 Bft) S-SW 197 0 min 0,000 mm 0,0 UV-I 0 W/m 17,8 C 18,6 C 11,3 km/h (2 Bft) 100,00 %
06.08.2017 02:58 18,6 C 27,2 C 95 % 1015,7 hPa 0,2 l/m 6,9 km/h (2 Bft) S-SW 198 0 min 0,000 mm 0,0 UV-I 0 W/m 17,8 C 18,4 C 12,9 km/h (3 Bft) 100,00 %
06.08.2017 03:00 18,6 C 27,2 C 95 % 1015,6 hPa 0,0 l/m 5,5 km/h (1 Bft) SW 228 0 min 0,000 mm 0,0 UV-I 0 W/m 17,8 C 18,6 C 9,7 km/h (2 Bft) 100,00 %
06.08.2017 03:02 18,7 C 27,2 C 95 % 1015,7 hPa 0,2 l/m 5,6 km/h (1 Bft) SW 215 0 min 0,000 mm 0,0 UV-I 0 W/m 17,9 C 18,7 C 11,3 km/h (2 Bft) 100,00 %
06.08.2017 03:04 18,7 C 27,2 C 95 % 1015,6 hPa 0,0 l/m 6,1 km/h (2 Bft) S 187 0 min 0,000 mm 0,0 UV-I 0 W/m 17,9 C 18,7 C 9,7 km/h (2 Bft) 95,74 %
06.08.2017 03:06 18,7 C 27,2 C 95 % 1015,7 hPa 0,0 l/m 5,8 km/h (2 Bft) S 169 0 min 0,000 mm 0,0 UV-I 0 W/m 17,9 C 18,7 C 12,9 km/h (3 Bft) 97,87 %
06.08.2017 03:08 18,7 C 27,2 C 95 % 1015,7 hPa 0,0 l/m 6,4 km/h (2 Bft) SW 217 0 min 0,000 mm 0,0 UV-I 0 W/m 17,9 C 18,7 C 14,5 km/h (3 Bft) 97,87 %
06.08.2017 03:10 18,7 C 27,2 C 95 % 1015,8 hPa 0,0 l/m 8,8 km/h (2 Bft) S 187 0 min 0,000 mm 0,0 UV-I 0 W/m 17,9 C 17,7 C 16,1 km/h (3 Bft) 97,87 %
06.08.2017 03:12 18,6 C 27,2 C 95 % 1015,8 hPa 0,0 l/m 9,2 km/h (2 Bft) S 178 0 min 0,000 mm 0,0 UV-I 0 W/m 17,8 C 17,4 C 19,3 km/h (3 Bft) 96,00 %
06.08.2017 03:14 18,7 C 27,2 C 95 % 1015,8 hPa 0,0 l/m 7,8 km/h (2 Bft) S-SW 206 0 min 0,000 mm 0,0 UV-I 0 W/m 17,9 C 18,1 C 14,5 km/h (3 Bft) 95,74 %
06.08.2017 03:16 18,6 C 27,2 C 95 % 1015,8 hPa 0,0 l/m 6,0 km/h (2 Bft) S 171 0 min 0,000 mm 0,0 UV-I 0 W/m 17,8 C 18,6 C 12,9 km/h (3 Bft) 97,87 %
06.08.2017 03:18 18,6 C 27,2 C 95 % 1015,8 hPa 0,0 l/m 9,9 km/h (2 Bft) S-SO 158 0 min 0,000 mm 0,0 UV-I 0 W/m 17,8 C 17,1 C 17,7 km/h (3 Bft) 97,87 %
06.08.2017 03:20 18,6 C 27,2 C 95 % 1015,8 hPa 0,0 l/m 8,5 km/h (2 Bft) S 184 0 min 0,000 mm 0,0 UV-I 0 W/m 17,8 C 17,7 C 12,9 km/h (3 Bft) 95,83 %
06.08.2017 03:22 18,6 C 27,2 C 95 % 1015,7 hPa 0,0 l/m 8,3 km/h (2 Bft) S 188 0 min 0,000 mm 0,0 UV-I 0 W/m 17,8 C 17,8 C 16,1 km/h (3 Bft) 93,62 %
06.08.2017 03:24 18,6 C 27,2 C 95 % 1015,7 hPa 0,0 l/m 5,6 km/h (1 Bft) S-SO 163 0 min 0,000 mm 0,0 UV-I 0 W/m 17,8 C 18,6 C 9,7 km/h (2 Bft) 95,74 %
06.08.2017 03:26 18,6 C 27,2 C 95 % 1015,7 hPa 0,0 l/m 8,9 km/h (2 Bft) S-SW 192 0 min 0,000 mm 0,0 UV-I 0 W/m 17,8 C 17,5 C 16,1 km/h (3 Bft) 94,74 %
06.08.2017 03:28 18,6 C 27,2 C 95 % 1015,7 hPa 0,0 l/m 6,6 km/h (2 Bft) S-SO 167 0 min 0,000 mm 0,0 UV-I 0 W/m 17,8 C 18,5 C 11,3 km/h (2 Bft) 93,62 %
06.08.2017 03:30 18,6 C 27,2 C 95 % 1015,6 hPa 0,0 l/m 4,5 km/h (1 Bft) S 191 0 min 0,000 mm 0,0 UV-I 0 W/m 17,8 C 18,6 C 9,7 km/h (2 Bft) 91,49 %
06.08.2017 03:32 18,6 C 27,2 C 95 % 1015,7 hPa 0,0 l/m 7,3 km/h (2 Bft) S 173 0 min 0,000 mm 0,0 UV-I 0 W/m 17,8 C 18,2 C 14,5 km/h (3 Bft) 92,00 %
06.08.2017 03:34 18,6 C 27,2 C 95 % 1015,8 hPa 0,0 l/m 4,3 km/h (1 Bft) S-SO 167 0 min 0,000 mm 0,0 UV-I 0 W/m 17,8 C 18,6 C 8,0 km/h (2 Bft) 91,49 %
06.08.2017 03:36 18,7 C 27,2 C 95 % 1015,8 hPa 0,0 l/m 6,0 km/h (2 Bft) S 173 0 min 0,000 mm 0,0 UV-I 0 W/m 17,9 C 18,7 C 9,7 km/h (2 Bft) 95,74 %
06.08.2017 03:38 18,7 C 27,2 C 95 % 1015,8 hPa 0,0 l/m 6,3 km/h (2 Bft) S-SO 163 0 min 0,000 mm 0,0 UV-I 0 W/m 17,9 C 18,7 C 12,9 km/h (3 Bft) 95,74 %
06.08.2017 03:40 18,7 C 27,2 C 95 % 1015,7 hPa 0,0 l/m 6,2 km/h (2 Bft) S 169 0 min 0,000 mm 0,0 UV-I 0 W/m 17,9 C 18,7 C 11,3 km/h (2 Bft) 95,74 %
06.08.2017 03:42 18,7 C 27,2 C 95 % 1015,7 hPa 0,0 l/m 4,2 km/h (1 Bft) S 169 0 min 0,000 mm 0,0 UV-I 0 W/m 17,9 C 18,7 C 9,7 km/h (2 Bft) 97,92 %
06.08.2017 03:44 18,7 C 27,2 C 95 % 1015,7 hPa 0,0 l/m 3,4 km/h (1 Bft) S-SO 167 0 min 0,000 mm 0,0 UV-I 0 W/m 17,9 C 18,7 C 8,0 km/h (2 Bft) 97,87 %
06.08.2017 03:46 18,7 C 27,2 C 95 % 1015,6 hPa 0,0 l/m 5,7 km/h (1 Bft) W-SW 238 0 min 0,000 mm 0,0 UV-I 0 W/m 17,9 C 18,7 C 8,0 km/h (2 Bft) 97,87 %
06.08.2017 03:48 18,7 C 27,2 C 95 % 1015,7 hPa 0,0 l/m 8,5 km/h (2 Bft) S-SW 209 0 min 0,000 mm 0,0 UV-I 0 W/m 17,9 C 17,8 C 12,9 km/h (3 Bft) 93,62 %
06.08.2017 03:50 18,7 C 27,2 C 95 % 1015,6 hPa 0,0 l/m 7,5 km/h (2 Bft) W-SW 252 0 min 0,000 mm 0,0 UV-I 0 W/m 17,9 C 18,2 C 12,9 km/h (3 Bft) 93,62 %
06.08.2017 03:52 18,7 C 27,2 C 95 % 1015,7 hPa 0,0 l/m 7,7 km/h (2 Bft) SW 236 0 min 0,000 mm 0,0 UV-I 0 W/m 17,9 C 18,1 C 12,9 km/h (3 Bft) 95,83 %
06.08.2017 03:54 18,7 C 27,2 C 95 % 1015,7 hPa 0,0 l/m 7,5 km/h (2 Bft) SW 235 0 min 0,000 mm 0,0 UV-I 0 W/m 17,9 C 18,2 C 12,9 km/h (3 Bft) 97,87 %
06.08.2017 03:56 18,7 C 27,2 C 95 % 1015,7 hPa 0,0 l/m 4,3 km/h (1 Bft) W-SW 245 0 min 0,000 mm 0,0 UV-I 0 W/m 17,9 C 18,7 C 8,0 km/h (2 Bft) 97,87 %
06.08.2017 03:58 18,7 C 27,2 C 95 % 1015,6 hPa 0,0 l/m 8,5 km/h (2 Bft) W-SW 250 0 min 0,000 mm 0,0 UV-I 0 W/m 17,9 C 17,8 C 12,9 km/h (3 Bft) 94,87 %
06.08.2017 04:00 18,7 C 27,2 C 95 % 1015,5 hPa 0,2 l/m 7,8 km/h (2 Bft) W-SW 237 0 min 0,000 mm 0,0 UV-I 0 W/m 17,9 C 18,1 C 12,9 km/h (3 Bft) 95,74 %
06.08.2017 04:02 18,7 C 27,2 C 95 % 1015,5 hPa 0,0 l/m 7,1 km/h (2 Bft) S-SW 198 0 min 0,000 mm 0,0 UV-I 0 W/m 17,9 C 18,4 C 9,7 km/h (2 Bft) 92,31 %
06.08.2017 04:04 18,7 C 27,2 C 95 % 1015,6 hPa 0,0 l/m 10,3 km/h (2 Bft) W-SW 238 0 min 0,000 mm 0,0 UV-I 0 W/m 17,9 C 17,1 C 16,1 km/h (3 Bft) 97,87 %
06.08.2017 04:06 18,7 C 27,2 C 95 % 1015,7 hPa 0,0 l/m 9,8 km/h (2 Bft) S 191 0 min 0,000 mm 0,0 UV-I 0 W/m 17,9 C 17,3 C 16,1 km/h (3 Bft) 93,62 %
06.08.2017 04:08 18,7 C 27,2 C 95 % 1015,7 hPa 0,0 l/m 8,4 km/h (2 Bft) W-SW 240 0 min 0,000 mm 0,0 UV-I 0 W/m 17,9 C 17,8 C 12,9 km/h (3 Bft) 97,87 %
06.08.2017 04:10 18,7 C 27,2 C 95 % 1015,6 hPa 0,0 l/m 9,1 km/h (2 Bft) SW 226 0 min 0,000 mm 0,0 UV-I 0 W/m 17,9 C 17,5 C 12,9 km/h (3 Bft) 98,00 %
06.08.2017 04:12 18,7 C 27,2 C 95 % 1015,7 hPa 0,0 l/m 8,3 km/h (2 Bft) SW 216 0 min 0,000 mm 0,0 UV-I 0 W/m 17,9 C 17,9 C 17,7 km/h (3 Bft) 95,74 %
06.08.2017 04:14 18,7 C 27,2 C 95 % 1015,7 hPa 0,0 l/m 9,2 km/h (2 Bft) S-SW 197 0 min 0,000 mm 0,0 UV-I 0 W/m 17,9 C 17,5 C 16,1 km/h (3 Bft) 100,00 %
06.08.2017 04:16 18,7 C 27,2 C 95 % 1015,6 hPa 0,0 l/m 8,2 km/h (2 Bft) SW 217 0 min 0,000 mm 0,0 UV-I 0 W/m 17,9 C 17,9 C 16,1 km/h (3 Bft) 95,74 %
06.08.2017 04:18 18,7 C 27,2 C 95 % 1015,6 hPa 0,0 l/m 8,7 km/h (2 Bft) S-SW 198 0 min 0,000 mm 0,0 UV-I 0 W/m 17,9 C 17,7 C 14,5 km/h (3 Bft) 97,87 %
06.08.2017 04:20 18,7 C 27,2 C 95 % 1015,5 hPa 0,0 l/m 9,9 km/h (2 Bft) S-SW 198 0 min 0,000 mm 0,0 UV-I 0 W/m 17,9 C 17,2 C 14,5 km/h (3 Bft) 95,74 %
06.08.2017 04:22 18,7 C 27,2 C 95 % 1015,5 hPa 0,0 l/m 7,5 km/h (2 Bft) S-SW 212 0 min 0,000 mm 0,0 UV-I 0 W/m 17,9 C 18,2 C 12,9 km/h (3 Bft) 97,87 %
06.08.2017 04:24 18,7 C 27,2 C 95 % 1015,5 hPa 0,0 l/m 7,0 km/h (2 Bft) SW 219 0 min 0,000 mm 0,0 UV-I 0 W/m 17,9 C 18,4 C 12,9 km/h (3 Bft) 95,74 %
06.08.2017 04:26 18,7 C 27,2 C 95 % 1015,5 hPa 0,0 l/m 6,2 km/h (2 Bft) S-SW 207 0 min 0,000 mm 0,0 UV-I 0 W/m 17,9 C 18,7 C 9,7 km/h (2 Bft) 100,00 %
06.08.2017 04:28 18,7 C 27,2 C 95 % 1015,5 hPa 0,0 l/m 6,6 km/h (2 Bft) SW 217 0 min 0,000 mm 0,0 UV-I 0 W/m 17,9 C 18,6 C 9,7 km/h (2 Bft) 100,00 %
06.08.2017 04:30 18,7 C 27,2 C 95 % 1015,5 hPa 0,0 l/m 5,0 km/h (1 Bft) SW 232 0 min 0,000 mm 0,0 UV-I 0 W/m 17,9 C 18,7 C 8,0 km/h (2 Bft) 97,87 %
06.08.2017 04:32 18,7 C 27,2 C 95 % 1015,5 hPa 0,0 l/m 5,4 km/h (1 Bft) W-SW 238 0 min 0,000 mm 0,0 UV-I 0 W/m 17,9 C 18,7 C 8,0 km/h (2 Bft) 100,00 %
06.08.2017 04:34 18,7 C 27,2 C 95 % 1015,6 hPa 0,0 l/m 7,5 km/h (2 Bft) W-SW 242 0 min 0,000 mm 0,0 UV-I 0 W/m 17,9 C 18,2 C 11,3 km/h (2 Bft) 100,00 %
06.08.2017 04:36 18,7 C 27,2 C 95 % 1015,6 hPa 0,0 l/m 6,4 km/h (2 Bft) SW 225 0 min 0,000 mm 0,0 UV-I 0 W/m 17,9 C 18,7 C 9,7 km/h (2 Bft) 100,00 %
06.08.2017 04:38 18,7 C 27,2 C 95 % 1015,7 hPa 0,0 l/m 6,3 km/h (2 Bft) S-SW 204 0 min 0,000 mm 0,0 UV-I 0 W/m 17,9 C 18,7 C 8,0 km/h (2 Bft) 100,00 %
06.08.2017 04:40 18,7 C 27,2 C 95 % 1015,7 hPa 0,2 l/m 7,8 km/h (2 Bft) SW 236 0 min 0,000 mm 0,0 UV-I 0 W/m 17,9 C 18,1 C 11,3 km/h (2 Bft) 97,37 %
06.08.2017 04:42 18,7 C 27,2 C 95 % 1015,7 hPa 0,0 l/m 9,0 km/h (2 Bft) W-SW 248 0 min 0,000 mm 0,0 UV-I 0 W/m 17,9 C 17,6 C 14,5 km/h (3 Bft) 100,00 %
06.08.2017 04:44 18,7 C 27,2 C 95 % 1015,8 hPa 0,0 l/m 9,0 km/h (2 Bft) SW 236 0 min 0,000 mm 0,0 UV-I 0 W/m 17,9 C 17,6 C 17,7 km/h (3 Bft) 100,00 %
06.08.2017 04:46 18,7 C 27,2 C 95 % 1015,8 hPa 0,0 l/m 7,9 km/h (2 Bft) W-SW 243 0 min 0,000 mm 0,0 UV-I 0 W/m 17,9 C 18,0 C 11,3 km/h (2 Bft) 100,00 %
06.08.2017 04:48 18,7 C 27,2 C 95 % 1015,8 hPa 0,0 l/m 10,4 km/h (2 Bft) W-SW 242 0 min 0,000 mm 0,0 UV-I 0 W/m 17,9 C 17,1 C 16,1 km/h (3 Bft) 97,87 %
06.08.2017 04:50 18,7 C 27,2 C 95 % 1015,8 hPa 0,0 l/m 8,2 km/h (2 Bft) W-SW 248 0 min 0,000 mm 0,0 UV-I 0 W/m 17,9 C 17,9 C 12,9 km/h (3 Bft) 95,74 %
06.08.2017 04:52 18,7 C 27,2 C 95 % 1015,8 hPa 0,2 l/m 9,9 km/h (2 Bft) W 267 0 min 0,000 mm 0,0 UV-I 0 W/m 17,9 C 17,2 C 16,1 km/h (3 Bft) 98,00 %
06.08.2017 04:54 18,7 C 27,2 C 95 % 1015,8 hPa 0,0 l/m 10,2 km/h (2 Bft) W-SW 250 0 min 0,000 mm 0,0 UV-I 0 W/m 17,9 C 17,1 C 16,1 km/h (3 Bft) 100,00 %
06.08.2017 04:56 18,6 C 27,2 C 95 % 1015,8 hPa 0,0 l/m 8,5 km/h (2 Bft) S-SW 209 0 min 0,000 mm 0,0 UV-I 0 W/m 17,8 C 17,7 C 12,9 km/h (3 Bft) 100,00 %
06.08.2017 04:58 18,6 C 27,2 C 95 % 1015,8 hPa 0,0 l/m 11,0 km/h (2 Bft) SW 234 0 min 0,000 mm 0,0 UV-I 0 W/m 17,8 C 16,7 C 20,9 km/h (4 Bft) 100,00 %
06.08.2017 05:00 18,7 C 27,2 C 95 % 1015,9 hPa 0,0 l/m 11,3 km/h (2 Bft) SW 219 0 min 0,000 mm 0,0 UV-I 0 W/m 17,9 C 16,8 C 17,7 km/h (3 Bft) 97,87 %
06.08.2017 05:02 18,6 C 26,7 C 95 % 1015,9 hPa 0,0 l/m 13,8 km/h (3 Bft) W 272 0 min 0,000 mm 0,0 UV-I 0 W/m 17,8 C 15,9 C 24,1 km/h (4 Bft) 100,00 %
06.08.2017 05:04 18,6 C 27,2 C 95 % 1015,9 hPa 0,0 l/m 14,4 km/h (3 Bft) W 263 0 min 0,000 mm 0,0 UV-I 0 W/m 17,8 C 15,7 C 20,9 km/h (4 Bft) 95,74 %
06.08.2017 05:06 18,6 C 27,2 C 95 % 1015,9 hPa 0,0 l/m 17,0 km/h (3 Bft) W-SW 243 0 min 0,000 mm 0,0 UV-I 0 W/m 17,8 C 15,1 C 24,1 km/h (4 Bft) 97,87 %
06.08.2017 05:08 18,6 C 26,7 C 95 % 1015,9 hPa 0,0 l/m 14,7 km/h (3 Bft) W-SW 238 0 min 0,000 mm 0,0 UV-I 0 W/m 17,8 C 15,6 C 20,9 km/h (4 Bft) 94,74 %
06.08.2017 05:10 18,6 C 26,7 C 95 % 1015,9 hPa 0,2 l/m 14,6 km/h (3 Bft) W-SW 249 0 min 0,000 mm 0,0 UV-I 0 W/m 17,8 C 15,7 C 24,1 km/h (4 Bft) 97,92 %
06.08.2017 05:12 18,6 C 26,7 C 95 % 1016,0 hPa 0,0 l/m 15,1 km/h (3 Bft) W-SW 246 0 min 0,000 mm 0,0 UV-I 0 W/m 17,8 C 15,5 C 22,5 km/h (4 Bft) 97,87 %
06.08.2017 05:14 18,6 C 26,7 C 95 % 1016,3 hPa 0,0 l/m 18,9 km/h (3 Bft) W-SW 245 0 min 0,000 mm 0,0 UV-I 0 W/m 17,8 C 14,6 C 33,8 km/h (5 Bft) 97,87 %
06.08.2017 05:16 18,6 C 26,7 C 95 % 1016,2 hPa 0,0 l/m 15,4 km/h (3 Bft) SW 228 0 min 0,000 mm 0,0 UV-I 0 W/m 17,8 C 15,4 C 22,5 km/h (4 Bft) 95,74 %
06.08.2017 05:18 18,6 C 26,7 C 95 % 1016,3 hPa 0,0 l/m 17,5 km/h (3 Bft) W-SW 253 0 min 0,000 mm 0,0 UV-I 0 W/m 17,8 C 14,9 C 25,7 km/h (4 Bft) 97,87 %
06.08.2017 05:20 18,6 C 26,7 C 95 % 1016,2 hPa 0,2 l/m 18,2 km/h (3 Bft) W 262 0 min 0,000 mm 0,0 UV-I 0 W/m 17,8 C 14,8 C 24,1 km/h (4 Bft) 96,00 %
06.08.2017 05:22 18,5 C 26,7 C 95 % 1016,4 hPa 0,0 l/m 17,6 km/h (3 Bft) W-SW 245 0 min 0,000 mm 0,0 UV-I 0 W/m 17,7 C 14,8 C 24,1 km/h (4 Bft) 98,00 %
06.08.2017 05:24 18,6 C 26,7 C 95 % 1016,4 hPa 0,2 l/m 19,8 km/h (3 Bft) W-SW 256 0 min 0,000 mm 0,0 UV-I 0 W/m 17,8 C 14,4 C 29,0 km/h (5 Bft) 95,74 %
06.08.2017 05:26 18,6 C 26,7 C 95 % 1016,4 hPa 0,0 l/m 17,8 km/h (3 Bft) W-SW 248 0 min 0,000 mm 0,0 UV-I 0 W/m 17,8 C 14,9 C 25,7 km/h (4 Bft) 97,87 %
06.08.2017 05:28 18,6 C 26,7 C 95 % 1016,5 hPa 0,0 l/m 14,1 km/h (3 Bft) S-SW 207 0 min 0,000 mm 0,0 UV-I 0 W/m 17,8 C 15,8 C 22,5 km/h (4 Bft) 97,87 %
06.08.2017 05:30 18,6 C 26,7 C 95 % 1016,5 hPa 0,2 l/m 15,2 km/h (3 Bft) W 269 0 min 0,000 mm 0,0 UV-I 0 W/m 17,8 C 15,5 C 25,7 km/h (4 Bft) 94,74 %
06.08.2017 05:32 18,6 C 26,7 C 95 % 1016,3 hPa 0,0 l/m 19,1 km/h (3 Bft) W 259 0 min 0,000 mm 0,0 UV-I 0 W/m 17,8 C 14,6 C 29,0 km/h (5 Bft) 96,00 %
06.08.2017 05:34 18,6 C 26,7 C 95 % 1016,3 hPa 0,0 l/m 13,3 km/h (3 Bft) W 268 0 min 0,000 mm 0,0 UV-I 0 W/m 17,8 C 16,0 C 20,9 km/h (4 Bft) 97,87 %
06.08.2017 05:36 18,5 C 26,7 C 95 % 1016,3 hPa 0,0 l/m 14,3 km/h (3 Bft) W 260 0 min 0,000 mm 0,0 UV-I 0 W/m 17,7 C 15,6 C 19,3 km/h (3 Bft) 96,00 %
06.08.2017 05:38 18,5 C 26,7 C 95 % 1016,4 hPa 0,2 l/m 16,2 km/h (3 Bft) SW 234 0 min 0,000 mm 0,0 UV-I 0 W/m 17,7 C 15,1 C 24,1 km/h (4 Bft) 97,87 %
06.08.2017 05:40 18,5 C 26,7 C 95 % 1016,3 hPa 0,2 l/m 11,5 km/h (2 Bft) W-NW 292 0 min 0,000 mm 0,0 UV-I 0 W/m 17,7 C 16,5 C 19,3 km/h (3 Bft) 98,00 %
06.08.2017 05:42 18,5 C 26,7 C 95 % 1016,4 hPa 0,0 l/m 12,9 km/h (3 Bft) W-SW 244 0 min 0,000 mm 0,0 UV-I 0 W/m 17,7 C 16,0 C 19,3 km/h (3 Bft) 100,00 %
06.08.2017 05:44 18,4 C 26,7 C 95 % 1016,4 hPa 0,0 l/m 13,7 km/h (3 Bft) W-SW 251 0 min 0,000 mm 0,0 UV-I 0 W/m 17,6 C 15,7 C 22,5 km/h (4 Bft) 97,87 %
06.08.2017 05:46 18,4 C 26,7 C 95 % 1016,5 hPa 0,2 l/m 12,1 km/h (2 Bft) W 259 0 min 0,000 mm 0,0 UV-I 0 W/m 17,6 C 16,2 C 20,9 km/h (4 Bft) 97,87 %
06.08.2017 05:48 18,5 C 26,7 C 95 % 1016,4 hPa 0,0 l/m 9,4 km/h (2 Bft) SW 227 0 min 0,000 mm 0,0 UV-I 0 W/m 17,7 C 17,2 C 14,5 km/h (3 Bft) 100,00 %
06.08.2017 05:50 18,5 C 26,7 C 95 % 1016,6 hPa 0,0 l/m 9,1 km/h (2 Bft) SW 232 0 min 0,000 mm 0,0 UV-I 0 W/m 17,7 C 17,3 C 12,9 km/h (3 Bft) 100,00 %
06.08.2017 05:52 18,5 C 26,7 C 95 % 1016,6 hPa 0,2 l/m 12,4 km/h (3 Bft) W-SW 238 0 min 0,000 mm 0,0 UV-I 0 W/m 17,7 C 16,2 C 17,7 km/h (3 Bft) 97,87 %
06.08.2017 05:54 18,5 C 26,7 C 95 % 1016,7 hPa 0,4 l/m 11,0 km/h (2 Bft) SW 226 0 min 0,000 mm 0,0 UV-I 0 W/m 17,7 C 16,6 C 16,1 km/h (3 Bft) 100,00 %
06.08.2017 05:56 18,5 C 26,7 C 95 % 1016,8 hPa 0,2 l/m 15,6 km/h (3 Bft) S-SW 192 0 min 0,000 mm 0,0 UV-I 0 W/m 17,7 C 15,3 C 24,1 km/h (4 Bft) 100,00 %
06.08.2017 05:58 18,4 C 26,7 C 95 % 1016,8 hPa 0,2 l/m 15,5 km/h (3 Bft) SW 235 0 min 0,000 mm 0,0 UV-I 0 W/m 17,6 C 15,2 C 24,1 km/h (4 Bft) 97,87 %
06.08.2017 06:00 18,4 C 26,7 C 95 % 1016,7 hPa 0,0 l/m 14,8 km/h (3 Bft) S-SW 206 0 min 0,025 mm 0,0 UV-I 1 W/m 17,6 C 15,4 C 22,5 km/h (4 Bft) 100,00 %
06.08.2017 06:02 18,4 C 26,7 C 95 % 1016,8 hPa 0,2 l/m 12,9 km/h (3 Bft) SW 219 0 min 0,000 mm 0,0 UV-I 5 W/m 17,6 C 15,9 C 20,9 km/h (4 Bft) 100,00 %
06.08.2017 06:04 18,4 C 26,7 C 95 % 1016,8 hPa 0,0 l/m 11,8 km/h (2 Bft) W-SW 238 0 min 0,000 mm 0,0 UV-I 5 W/m 17,6 C 16,3 C 19,3 km/h (3 Bft) 100,00 %
06.08.2017 06:06 18,4 C 26,7 C 95 % 1016,7 hPa 0,0 l/m 10,3 km/h (2 Bft) S-SW 203 0 min 0,000 mm 0,0 UV-I 5 W/m 17,6 C 16,8 C 16,1 km/h (3 Bft) 100,00 %
06.08.2017 06:08 18,4 C 26,7 C 95 % 1016,6 hPa 0,2 l/m 12,9 km/h (3 Bft) W-SW 253 0 min 0,000 mm 0,0 UV-I 5 W/m 17,6 C 15,9 C 22,5 km/h (4 Bft) 100,00 %
06.08.2017 06:10 18,3 C 26,7 C 95 % 1016,7 hPa 0,0 l/m 12,9 km/h (3 Bft) W-SW 246 0 min 0,000 mm 0,0 UV-I 5 W/m 17,5 C 15,8 C 17,7 km/h (3 Bft) 100,00 %
06.08.2017 06:12 18,3 C 26,7 C 95 % 1016,8 hPa 0,0 l/m 14,1 km/h (3 Bft) SW 236 0 min 0,000 mm 0,0 UV-I 1 W/m 17,5 C 15,4 C 19,3 km/h (3 Bft) 100,00 %
06.08.2017 06:14 18,3 C 26,7 C 95 % 1016,7 hPa 0,0 l/m 14,4 km/h (3 Bft) W-SW 255 0 min 0,000 mm 0,0 UV-I 0 W/m 17,5 C 15,4 C 19,3 km/h (3 Bft) 100,00 %
06.08.2017 06:16 18,3 C 26,7 C 95 % 1016,7 hPa 0,2 l/m 9,2 km/h (2 Bft) S-SW 202 0 min 0,000 mm 0,0 UV-I 0 W/m 17,5 C 17,1 C 12,9 km/h (3 Bft) 100,00 %
06.08.2017 06:18 18,3 C 26,7 C 95 % 1016,8 hPa 0,2 l/m 11,1 km/h (2 Bft) SW 236 0 min 0,000 mm 0,0 UV-I 4 W/m 17,5 C 16,4 C 19,3 km/h (3 Bft) 100,00 %
06.08.2017 06:20 18,3 C 26,7 C 95 % 1016,8 hPa 0,0 l/m 12,8 km/h (3 Bft) S-SW 213 0 min 0,000 mm 0,0 UV-I 5 W/m 17,5 C 15,8 C 22,5 km/h (4 Bft) 100,00 %
06.08.2017 06:22 18,3 C 26,7 C 95 % 1016,8 hPa 0,0 l/m 14,5 km/h (3 Bft) W-SW 243 0 min 0,000 mm 0,0 UV-I 5 W/m 17,5 C 15,3 C 19,3 km/h (3 Bft) 97,92 %
06.08.2017 06:24 18,2 C 26,7 C 95 % 1016,8 hPa 0,2 l/m 13,2 km/h (3 Bft) W-SW 240 0 min 0,000 mm 0,0 UV-I 5 W/m 17,4 C 15,6 C 20,9 km/h (4 Bft) 100,00 %
06.08.2017 06:26 18,2 C 26,7 C 95 % 1016,7 hPa 0,0 l/m 16,8 km/h (3 Bft) W-SW 247 0 min 0,000 mm 0,0 UV-I 8 W/m 17,4 C 14,6 C 22,5 km/h (4 Bft) 98,04 %
06.08.2017 06:28 18,2 C 26,7 C 95 % 1016,7 hPa 0,0 l/m 13,1 km/h (3 Bft) W-SW 257 0 min 0,000 mm 0,0 UV-I 9 W/m 17,4 C 15,6 C 17,7 km/h (3 Bft) 95,74 %
06.08.2017 06:30 18,2 C 26,7 C 95 % 1016,7 hPa 0,0 l/m 14,1 km/h (3 Bft) W 267 0 min 0,000 mm 0,0 UV-I 9 W/m 17,4 C 15,3 C 20,9 km/h (4 Bft) 100,00 %
06.08.2017 06:32 18,2 C 26,7 C 95 % 1016,8 hPa 0,0 l/m 10,8 km/h (2 Bft) W 267 0 min 0,000 mm 0,0 UV-I 9 W/m 17,4 C 16,4 C 19,3 km/h (3 Bft) 100,00 %
06.08.2017 06:34 18,1 C 26,7 C 95 % 1016,8 hPa 0,0 l/m 8,6 km/h (2 Bft) W-SW 241 0 min 0,000 mm 0,0 UV-I 9 W/m 17,3 C 17,1 C 14,5 km/h (3 Bft) 100,00 %
06.08.2017 06:36 18,1 C 26,7 C 95 % 1017,0 hPa 0,0 l/m 13,0 km/h (3 Bft) W-SW 251 0 min 0,000 mm 0,0 UV-I 7 W/m 17,3 C 15,5 C 22,5 km/h (4 Bft) 100,00 %
06.08.2017 06:38 18,0 C 26,7 C 95 % 1017,0 hPa 0,0 l/m 9,9 km/h (2 Bft) W-SW 245 0 min 0,000 mm 0,0 UV-I 7 W/m 17,2 C 16,5 C 20,9 km/h (4 Bft) 100,00 %
06.08.2017 06:40 17,9 C 26,7 C 95 % 1017,0 hPa 0,0 l/m 9,6 km/h (2 Bft) W 275 0 min 0,000 mm 0,0 UV-I 7 W/m 17,1 C 16,5 C 17,7 km/h (3 Bft) 97,87 %
06.08.2017 06:42 17,8 C 26,7 C 95 % 1017,0 hPa 0,0 l/m 9,8 km/h (2 Bft) W-NW 284 0 min 0,000 mm 0,0 UV-I 7 W/m 17,0 C 16,3 C 19,3 km/h (3 Bft) 97,87 %
06.08.2017 06:44 17,7 C 26,7 C 95 % 1017,0 hPa 0,0 l/m 9,5 km/h (2 Bft) W 276 0 min 0,000 mm 0,0 UV-I 7 W/m 16,9 C 16,3 C 17,7 km/h (3 Bft) 100,00 %
06.08.2017 06:46 17,7 C 26,7 C 95 % 1017,0 hPa 0,0 l/m 11,1 km/h (2 Bft) SW 236 0 min 0,000 mm 0,0 UV-I 7 W/m 16,9 C 15,7 C 19,3 km/h (3 Bft) 98,00 %
06.08.2017 06:48 17,6 C 26,7 C 94 % 1017,1 hPa 0,0 l/m 10,2 km/h (2 Bft) SW 222 0 min 0,000 mm 0,0 UV-I 7 W/m 16,6 C 15,9 C 19,3 km/h (3 Bft) 100,00 %
06.08.2017 06:50 17,6 C 26,7 C 94 % 1017,3 hPa 0,0 l/m 16,2 km/h (3 Bft) W-SW 258 0 min 0,000 mm 0,0 UV-I 7 W/m 16,6 C 14,0 C 24,1 km/h (4 Bft) 100,00 %
06.08.2017 06:52 17,5 C 26,7 C 94 % 1017,4 hPa 0,0 l/m 17,0 km/h (3 Bft) SW 232 0 min 0,000 mm 0,0 UV-I 7 W/m 16,5 C 13,7 C 25,7 km/h (4 Bft) 97,87 %
06.08.2017 06:54 17,4 C 26,7 C 94 % 1017,5 hPa 0,0 l/m 11,9 km/h (2 Bft) W 281 0 min 0,000 mm 0,0 UV-I 5 W/m 16,4 C 15,1 C 19,3 km/h (3 Bft) 100,00 %
06.08.2017 06:56 17,4 C 26,7 C 94 % 1017,5 hPa 0,2 l/m 13,5 km/h (3 Bft) W 280 0 min 0,000 mm 0,0 UV-I 7 W/m 16,4 C 14,5 C 19,3 km/h (3 Bft) 97,37 %
06.08.2017 06:58 17,4 C 26,7 C 94 % 1017,5 hPa 0,0 l/m 9,1 km/h (2 Bft) SW 223 0 min 0,000 mm 0,0 UV-I 7 W/m 16,4 C 16,1 C 14,5 km/h (3 Bft) 100,00 %
06.08.2017 07:00 17,3 C 26,7 C 94 % 1017,5 hPa 0,0 l/m 10,5 km/h (2 Bft) SW 236 0 min 0,000 mm 0,0 UV-I 7 W/m 16,3 C 15,5 C 14,5 km/h (3 Bft) 100,00 %
06.08.2017 07:02 17,3 C 26,7 C 94 % 1017,5 hPa 0,0 l/m 12,4 km/h (3 Bft) W-SW 254 0 min 0,000 mm 0,0 UV-I 7 W/m 16,3 C 14,8 C 17,7 km/h (3 Bft) 97,87 %
06.08.2017 07:04 17,3 C 26,7 C 94 % 1017,5 hPa 0,2 l/m 8,2 km/h (2 Bft) W 271 0 min 0,000 mm 0,0 UV-I 7 W/m 16,3 C 16,4 C 12,9 km/h (3 Bft) 100,00 %
06.08.2017 07:06 17,2 C 26,7 C 94 % 1017,5 hPa 0,0 l/m 6,2 km/h (2 Bft) W 263 0 min 0,000 mm 0,0 UV-I 7 W/m 16,2 C 17,2 C 11,3 km/h (2 Bft) 100,00 %
06.08.2017 07:08 17,2 C 26,7 C 94 % 1017,4 hPa 0,0 l/m 6,6 km/h (2 Bft) W-SW 257 0 min 0,000 mm 0,0 UV-I 7 W/m 16,2 C 17,1 C 11,3 km/h (2 Bft) 97,87 %
06.08.2017 07:10 17,2 C 26,7 C 94 % 1017,4 hPa 0,0 l/m 8,7 km/h (2 Bft) W-SW 257 0 min 0,000 mm 0,0 UV-I 7 W/m 16,2 C 16,1 C 16,1 km/h (3 Bft) 96,00 %
06.08.2017 07:12 17,1 C 26,7 C 94 % 1017,6 hPa 0,0 l/m 8,1 km/h (2 Bft) W-SW 249 0 min 0,000 mm 0,0 UV-I 7 W/m 16,1 C 16,3 C 14,5 km/h (3 Bft) 98,00 %
06.08.2017 07:14 17,0 C 26,7 C 94 % 1017,7 hPa 0,0 l/m 8,6 km/h (2 Bft) W-SW 248 0 min 0,000 mm 0,0 UV-I 7 W/m 16,0 C 15,9 C 12,9 km/h (3 Bft) 95,74 %
06.08.2017 07:16 16,9 C 26,7 C 93 % 1017,9 hPa 0,2 l/m 11,5 km/h (2 Bft) S-SW 204 0 min 0,000 mm 0,0 UV-I 7 W/m 15,8 C 14,6 C 16,1 km/h (3 Bft) 95,74 %
06.08.2017 07:18 16,9 C 26,7 C 93 % 1018,0 hPa 0,2 l/m 10,6 km/h (2 Bft) SW 233 0 min 0,000 mm 0,0 UV-I 8 W/m 15,8 C 15,0 C 19,3 km/h (3 Bft) 96,00 %
06.08.2017 07:20 16,8 C 26,7 C 93 % 1018,1 hPa 0,4 l/m 10,8 km/h (2 Bft) W-SW 240 0 min 0,000 mm 0,0 UV-I 10 W/m 15,7 C 14,8 C 17,7 km/h (3 Bft) 94,74 %
06.08.2017 07:22 16,8 C 26,7 C 93 % 1018,0 hPa 0,2 l/m 11,9 km/h (2 Bft) W-SW 252 0 min 0,000 mm 0,0 UV-I 12 W/m 15,7 C 14,4 C 19,3 km/h (3 Bft) 96,00 %
06.08.2017 07:24 16,8 C 26,7 C 93 % 1018,0 hPa 0,4 l/m 12,4 km/h (3 Bft) SW 236 0 min 0,000 mm 0,0 UV-I 14 W/m 15,7 C 14,2 C 17,7 km/h (3 Bft) 94,00 %
06.08.2017 07:26 16,7 C 26,7 C 93 % 1017,9 hPa 0,0 l/m 10,8 km/h (2 Bft) W-SW 257 0 min 0,000 mm 0,0 UV-I 17 W/m 15,6 C 14,7 C 17,7 km/h (3 Bft) 95,74 %
06.08.2017 07:28 16,7 C 26,7 C 93 % 1017,9 hPa 0,2 l/m 9,7 km/h (2 Bft) W-SW 249 0 min 0,000 mm 0,0 UV-I 20 W/m 15,6 C 15,1 C 12,9 km/h (3 Bft) 93,62 %
06.08.2017 07:30 16,6 C 26,7 C 93 % 1017,9 hPa 0,0 l/m 10,5 km/h (2 Bft) W-SW 253 0 min 0,000 mm 0,0 UV-I 21 W/m 15,5 C 14,7 C 12,9 km/h (3 Bft) 94,74 %
06.08.2017 07:32 16,6 C 26,7 C 94 % 1017,9 hPa 0,0 l/m 6,4 km/h (2 Bft) W-SW 256 0 min 0,000 mm 0,0 UV-I 21 W/m 15,6 C 16,6 C 11,3 km/h (2 Bft) 95,74 %
06.08.2017 07:34 16,6 C 26,7 C 93 % 1017,8 hPa 0,0 l/m 2,2 km/h (1 Bft) W 270 0 min 0,000 mm 0,0 UV-I 24 W/m 15,5 C 16,6 C 4,8 km/h (1 Bft) 91,49 %
06.08.2017 07:36 16,6 C 26,7 C 94 % 1017,8 hPa 0,0 l/m 3,6 km/h (1 Bft) W 270 0 min 0,000 mm 0,0 UV-I 30 W/m 15,6 C 16,6 C 4,8 km/h (1 Bft) 96,00 %
06.08.2017 07:38 16,5 C 26,7 C 94 % 1018,1 hPa 0,0 l/m 3,8 km/h (1 Bft) W 270 0 min 0,000 mm 0,0 UV-I 31 W/m 15,5 C 16,5 C 6,4 km/h (2 Bft) 93,62 %
06.08.2017 07:40 16,5 C 26,7 C 94 % 1018,2 hPa 0,0 l/m 4,4 km/h (1 Bft) W-SW 250 0 min 0,000 mm 0,0 UV-I 25 W/m 15,5 C 16,5 C 6,4 km/h (2 Bft) 95,74 %
06.08.2017 07:42 16,5 C 26,7 C 94 % 1018,3 hPa 0,0 l/m 4,6 km/h (1 Bft) W-SW 251 0 min 0,000 mm 0,0 UV-I 20 W/m 15,5 C 16,5 C 9,7 km/h (2 Bft) 93,62 %
06.08.2017 07:44 16,6 C 26,7 C 94 % 1018,3 hPa 0,0 l/m 4,5 km/h (1 Bft) W-SW 252 0 min 0,000 mm 0,0 UV-I 16 W/m 15,6 C 16,6 C 8,0 km/h (2 Bft) 95,74 %
06.08.2017 07:46 16,6 C 26,7 C 95 % 1018,3 hPa 0,0 l/m 5,1 km/h (1 Bft) SW 228 0 min 0,000 mm 0,0 UV-I 18 W/m 15,8 C 16,6 C 8,0 km/h (2 Bft) 96,00 %
06.08.2017 07:48 16,6 C 26,7 C 94 % 1018,4 hPa 0,0 l/m 4,2 km/h (1 Bft) W-SW 245 0 min 0,000 mm 0,0 UV-I 22 W/m 15,6 C 16,6 C 8,0 km/h (2 Bft) 95,74 %
06.08.2017 07:50 16,6 C 26,7 C 95 % 1018,3 hPa 0,0 l/m 3,9 km/h (1 Bft) W 279 0 min 0,000 mm 0,0 UV-I 28 W/m 15,8 C 16,6 C 6,4 km/h (2 Bft) 97,87 %
06.08.2017 07:52 16,7 C 26,7 C 95 % 1018,4 hPa 0,0 l/m 3,0 km/h (1 Bft) W-SW 258 0 min 0,000 mm 0,0 UV-I 32 W/m 15,9 C 16,7 C 6,4 km/h (2 Bft) 97,92 %
06.08.2017 07:54 16,6 C 26,7 C 95 % 1018,3 hPa 0,0 l/m 2,7 km/h (1 Bft) W-SW 258 0 min 0,000 mm 0,0 UV-I 35 W/m 15,8 C 16,6 C 4,8 km/h (1 Bft) 95,74 %
06.08.2017 07:56 16,6 C 26,7 C 95 % 1018,3 hPa 0,0 l/m 3,5 km/h (1 Bft) W-SW 258 0 min 0,000 mm 0,0 UV-I 37 W/m 15,8 C 16,6 C 4,8 km/h (1 Bft) 95,74 %
06.08.2017 07:58 16,6 C 26,7 C 95 % 1018,3 hPa 0,0 l/m 2,5 km/h (1 Bft) W 270 0 min 0,000 mm 0,0 UV-I 38 W/m 15,8 C 16,6 C 4,8 km/h (1 Bft) 97,87 %
06.08.2017 08:00 16,6 C 26,7 C 95 % 1018,4 hPa 0,0 l/m 3,2 km/h (1 Bft) W 274 0 min 0,026 mm 0,0 UV-I 33 W/m 15,8 C 16,6 C 4,8 km/h (1 Bft) 95,74 %
06.08.2017 08:02 16,7 C 26,7 C 95 % 1018,6 hPa 0,0 l/m 4,0 km/h (1 Bft) W-SW 243 0 min 0,000 mm 0,0 UV-I 22 W/m 15,9 C 16,7 C 9,7 km/h (2 Bft) 95,74 %
06.08.2017 08:04 16,7 C 26,7 C 95 % 1018,6 hPa 0,0 l/m 6,1 km/h (2 Bft) SW 228 0 min 0,000 mm 0,0 UV-I 16 W/m 15,9 C 16,7 C 11,3 km/h (2 Bft) 97,37 %
06.08.2017 08:06 16,7 C 26,7 C 95 % 1018,7 hPa 0,0 l/m 4,8 km/h (1 Bft) SW 219 0 min 0,000 mm 0,0 UV-I 15 W/m 15,9 C 16,7 C 8,0 km/h (2 Bft) 95,74 %
06.08.2017 08:08 16,7 C 26,7 C 95 % 1018,6 hPa 0,0 l/m 2,8 km/h (1 Bft) SW 218 0 min 0,000 mm 0,0 UV-I 20 W/m 15,9 C 16,7 C 4,8 km/h (1 Bft) 97,87 %
06.08.2017 08:10 16,7 C 26,7 C 95 % 1018,6 hPa 0,0 l/m 1,7 km/h (1 Bft) SW 217 0 min 0,000 mm 0,0 UV-I 31 W/m 15,9 C 16,7 C 4,8 km/h (1 Bft) 96,00 %
06.08.2017 08:12 16,7 C 26,7 C 95 % 1018,5 hPa 0,0 l/m 3,1 km/h (1 Bft) SW 217 0 min 0,000 mm 0,0 UV-I 38 W/m 15,9 C 16,7 C 4,8 km/h (1 Bft) 96,00 %
06.08.2017 08:14 16,8 C 26,7 C 95 % 1018,5 hPa 0,0 l/m 2,7 km/h (1 Bft) S-SW 213 0 min 0,000 mm 0,0 UV-I 43 W/m 16,0 C 16,8 C 6,4 km/h (2 Bft) 94,00 %
06.08.2017 08:16 16,8 C 26,7 C 95 % 1018,4 hPa 0,0 l/m 1,1 km/h (1 Bft) S-SW 213 0 min 0,000 mm 0,0 UV-I 48 W/m 16,0 C 16,8 C 3,2 km/h (1 Bft) 97,14 %
06.08.2017 08:18 16,8 C 26,7 C 95 % 1018,3 hPa 0,0 l/m 2,4 km/h (1 Bft) S-SW 213 0 min 0,000 mm 0,0 UV-I 45 W/m 16,0 C 16,8 C 4,8 km/h (1 Bft) 98,00 %
06.08.2017 08:20 16,8 C 26,7 C 95 % 1018,2 hPa 0,2 l/m 0,2 km/h (0 Bft) S-SW 213 0 min 0,000 mm 0,0 UV-I 42 W/m 16,0 C 16,8 C 1,6 km/h (1 Bft) 97,87 %
06.08.2017 08:22 16,8 C 26,7 C 95 % 1018,1 hPa 0,0 l/m 0,0 km/h (0 Bft) S-SW 213 0 min 0,000 mm 0,0 UV-I 38 W/m 16,0 C 16,8 C 0,0 km/h (0 Bft) 97,87 %
06.08.2017 08:24 16,8 C 26,7 C 95 % 1018,0 hPa 0,0 l/m 2,3 km/h (1 Bft) SW 219 0 min 0,000 mm 0,0 UV-I 33 W/m 16,0 C 16,8 C 4,8 km/h (1 Bft) 100,00 %
06.08.2017 08:26 16,9 C 26,1 C 95 % 1018,0 hPa 0,0 l/m 1,2 km/h (1 Bft) N 10 0 min 0,000 mm 0,0 UV-I 31 W/m 16,1 C 16,9 C 4,8 km/h (1 Bft) 95,83 %
06.08.2017 08:28 16,9 C 26,1 C 95 % 1018,0 hPa 0,0 l/m 0,1 km/h (0 Bft) N 5 0 min 0,000 mm 0,0 UV-I 32 W/m 16,1 C 16,9 C 1,6 km/h (1 Bft) 100,00 %
06.08.2017 08:30 16,8 C 26,1 C 95 % 1018,2 hPa 0,0 l/m 0,0 km/h (0 Bft) N 5 0 min 0,000 mm 0,0 UV-I 34 W/m 16,0 C 16,8 C 0,0 km/h (0 Bft) 98,00 %
06.08.2017 08:32 16,8 C 26,1 C 95 % 1018,3 hPa 0,0 l/m 1,0 km/h (0 Bft) W-NW 297 0 min 0,000 mm 0,0 UV-I 39 W/m 16,0 C 16,8 C 3,2 km/h (1 Bft) 100,00 %
06.08.2017 08:34 16,9 C 26,1 C 95 % 1018,5 hPa 0,0 l/m 3,9 km/h (1 Bft) W-SW 238 0 min 0,000 mm 0,0 UV-I 44 W/m 16,1 C 16,9 C 6,4 km/h (2 Bft) 97,87 %
06.08.2017 08:36 16,9 C 26,1 C 95 % 1018,7 hPa 0,2 l/m 5,0 km/h (1 Bft) SW 215 0 min 0,000 mm 0,0 UV-I 35 W/m 16,1 C 16,9 C 6,4 km/h (2 Bft) 100,00 %
06.08.2017 08:38 17,0 C 26,1 C 95 % 1018,6 hPa 0,0 l/m 4,0 km/h (1 Bft) SW 215 0 min 0,000 mm 0,0 UV-I 34 W/m 16,2 C 17,0 C 6,4 km/h (2 Bft) 95,74 %
06.08.2017 08:40 17,0 C 26,1 C 95 % 1018,7 hPa 0,0 l/m 2,1 km/h (1 Bft) SW 215 0 min 0,000 mm 0,0 UV-I 38 W/m 16,2 C 17,0 C 4,8 km/h (1 Bft) 100,00 %
06.08.2017 08:42 17,0 C 26,1 C 95 % 1018,9 hPa 0,0 l/m 3,8 km/h (1 Bft) SW 215 0 min 0,000 mm 0,0 UV-I 28 W/m 16,2 C 17,0 C 6,4 km/h (2 Bft) 97,87 %
06.08.2017 08:44 17,1 C 26,1 C 95 % 1018,8 hPa 0,0 l/m 2,2 km/h (1 Bft) S-SW 211 0 min 0,000 mm 0,0 UV-I 31 W/m 16,3 C 17,1 C 6,4 km/h (2 Bft) 97,87 %
06.08.2017 08:46 17,1 C 26,1 C 95 % 1018,7 hPa 0,0 l/m 1,5 km/h (1 Bft) S-SW 211 0 min 0,000 mm 0,0 UV-I 58 W/m 16,3 C 17,1 C 4,8 km/h (1 Bft) 97,14 %
06.08.2017 08:48 17,1 C 26,1 C 95 % 1018,6 hPa 0,0 l/m 3,3 km/h (1 Bft) S-SW 211 0 min 0,000 mm 0,0 UV-I 79 W/m 16,3 C 17,1 C 6,4 km/h (2 Bft) 100,00 %
06.08.2017 08:50 17,1 C 26,1 C 95 % 1018,6 hPa 0,0 l/m 2,8 km/h (1 Bft) S-SW 211 0 min 0,000 mm 0,3 UV-I 87 W/m 16,3 C 17,1 C 6,4 km/h (2 Bft) 100,00 %
06.08.2017 08:52 17,2 C 26,1 C 95 % 1018,7 hPa 0,0 l/m 3,0 km/h (1 Bft) S-SW 211 0 min 0,000 mm 0,5 UV-I 89 W/m 16,4 C 17,2 C 4,8 km/h (1 Bft) 100,00 %
06.08.2017 08:54 17,2 C 26,1 C 96 % 1018,8 hPa 0,0 l/m 4,5 km/h (1 Bft) S-SW 211 0 min 0,000 mm 0,5 UV-I 80 W/m 16,6 C 17,2 C 8,0 km/h (2 Bft) 97,87 %
06.08.2017 08:56 17,2 C 26,1 C 95 % 1018,8 hPa 0,0 l/m 3,3 km/h (1 Bft) S-SW 200 0 min 0,000 mm 0,0 UV-I 73 W/m 16,4 C 17,2 C 6,4 km/h (2 Bft) 100,00 %
06.08.2017 08:58 17,2 C 26,1 C 95 % 1018,7 hPa 0,0 l/m 1,6 km/h (1 Bft) S-SW 200 0 min 0,000 mm 0,4 UV-I 83 W/m 16,4 C 17,2 C 3,2 km/h (1 Bft) 100,00 %
06.08.2017 09:00 17,2 C 26,1 C 95 % 1018,6 hPa 0,0 l/m 4,1 km/h (1 Bft) S-SW 202 0 min 0,025 mm 0,5 UV-I 93 W/m 16,4 C 17,2 C 8,0 km/h (2 Bft) 100,00 %
06.08.2017 09:02 17,3 C 26,1 C 95 % 1018,8 hPa 0,0 l/m 3,8 km/h (1 Bft) SW 224 0 min 0,000 mm 0,4 UV-I 84 W/m 16,5 C 17,3 C 4,8 km/h (1 Bft) 98,11 %
06.08.2017 09:04 17,3 C 26,1 C 95 % 1018,9 hPa 0,0 l/m 3,2 km/h (1 Bft) SW 224 0 min 0,000 mm 0,0 UV-I 71 W/m 16,5 C 17,3 C 4,8 km/h (1 Bft) 100,00 %
06.08.2017 09:06 17,4 C 26,1 C 95 % 1018,9 hPa 0,0 l/m 3,9 km/h (1 Bft) SW 224 0 min 0,000 mm 0,0 UV-I 65 W/m 16,6 C 17,4 C 6,4 km/h (2 Bft) 100,00 %
06.08.2017 09:08 17,4 C 26,1 C 95 % 1018,9 hPa 0,0 l/m 4,5 km/h (1 Bft) S-SW 207 0 min 0,000 mm 0,0 UV-I 59 W/m 16,6 C 17,4 C 8,0 km/h (2 Bft) 97,87 %
06.08.2017 09:10 17,3 C 26,1 C 95 % 1018,9 hPa 0,0 l/m 4,3 km/h (1 Bft) W-SW 242 0 min 0,000 mm 0,0 UV-I 59 W/m 16,5 C 17,3 C 6,4 km/h (2 Bft) 97,92 %
06.08.2017 09:12 17,3 C 26,1 C 95 % 1018,9 hPa 0,0 l/m 3,7 km/h (1 Bft) W-SW 241 0 min 0,000 mm 0,0 UV-I 67 W/m 16,5 C 17,3 C 6,4 km/h (2 Bft) 97,87 %
06.08.2017 09:14 17,3 C 26,1 C 95 % 1018,8 hPa 0,0 l/m 5,2 km/h (1 Bft) SW 236 0 min 0,000 mm 0,1 UV-I 77 W/m 16,5 C 17,3 C 9,7 km/h (2 Bft) 95,83 %
06.08.2017 09:16 17,3 C 26,1 C 95 % 1018,8 hPa 0,0 l/m 1,9 km/h (1 Bft) SW 236 0 min 0,000 mm 0,5 UV-I 79 W/m 16,5 C 17,3 C 4,8 km/h (1 Bft) 100,00 %
06.08.2017 09:18 17,4 C 26,1 C 95 % 1018,8 hPa 0,0 l/m 2,8 km/h (1 Bft) SW 236 0 min 0,000 mm 0,5 UV-I 80 W/m 16,6 C 17,4 C 6,4 km/h (2 Bft) 95,74 %
06.08.2017 09:20 17,4 C 26,1 C 95 % 1018,8 hPa 0,0 l/m 3,1 km/h (1 Bft) W-SW 237 0 min 0,000 mm 0,5 UV-I 80 W/m 16,6 C 17,4 C 4,8 km/h (1 Bft) 97,87 %
06.08.2017 09:22 17,4 C 26,1 C 95 % 1018,9 hPa 0,0 l/m 3,9 km/h (1 Bft) W-SW 250 0 min 0,000 mm 0,1 UV-I 70 W/m 16,6 C 17,4 C 6,4 km/h (2 Bft) 98,00 %
06.08.2017 09:24 17,5 C 26,1 C 95 % 1018,9 hPa 0,2 l/m 1,9 km/h (1 Bft) W-SW 250 0 min 0,000 mm 0,0 UV-I 61 W/m 16,7 C 17,5 C 4,8 km/h (1 Bft) 97,87 %
06.08.2017 09:26 17,5 C 26,1 C 95 % 1018,9 hPa 0,0 l/m 3,5 km/h (1 Bft) SW 218 0 min 0,000 mm 0,0 UV-I 60 W/m 16,7 C 17,5 C 6,4 km/h (2 Bft) 97,87 %
06.08.2017 09:28 17,5 C 26,1 C 95 % 1019,0 hPa 0,0 l/m 4,5 km/h (1 Bft) W-SW 242 0 min 0,000 mm 0,0 UV-I 61 W/m 16,7 C 17,5 C 9,7 km/h (2 Bft) 97,87 %
06.08.2017 09:30 17,5 C 26,1 C 95 % 1019,0 hPa 0,0 l/m 3,5 km/h (1 Bft) W-SW 254 0 min 0,000 mm 0,0 UV-I 67 W/m 16,7 C 17,5 C 6,4 km/h (2 Bft) 97,87 %
06.08.2017 09:32 17,5 C 26,1 C 95 % 1019,1 hPa 0,0 l/m 4,3 km/h (1 Bft) W-SW 242 0 min 0,000 mm 0,0 UV-I 68 W/m 16,7 C 17,5 C 8,0 km/h (2 Bft) 97,87 %
06.08.2017 09:34 17,4 C 26,1 C 94 % 1019,1 hPa 0,0 l/m 6,6 km/h (2 Bft) W-SW 250 0 min 0,000 mm 0,0 UV-I 63 W/m 16,4 C 17,3 C 9,7 km/h (2 Bft) 95,74 %
06.08.2017 09:36 17,5 C 26,1 C 94 % 1019,1 hPa 0,0 l/m 5,2 km/h (1 Bft) W-SW 250 0 min 0,000 mm 0,0 UV-I 57 W/m 16,5 C 17,5 C 9,7 km/h (2 Bft) 97,87 %
06.08.2017 09:38 17,5 C 26,1 C 94 % 1019,1 hPa 0,0 l/m 4,4 km/h (1 Bft) SW 223 0 min 0,000 mm 0,0 UV-I 51 W/m 16,5 C 17,5 C 9,7 km/h (2 Bft) 95,74 %
06.08.2017 09:40 17,4 C 26,1 C 94 % 1019,1 hPa 0,0 l/m 4,5 km/h (1 Bft) SW 218 0 min 0,000 mm 0,0 UV-I 50 W/m 16,4 C 17,4 C 8,0 km/h (2 Bft) 97,87 %
06.08.2017 09:42 17,4 C 26,1 C 94 % 1019,0 hPa 0,0 l/m 7,4 km/h (2 Bft) W-SW 238 0 min 0,000 mm 0,0 UV-I 54 W/m 16,4 C 16,9 C 9,7 km/h (2 Bft) 100,00 %
06.08.2017 09:44 17,4 C 26,1 C 93 % 1019,0 hPa 0,0 l/m 5,3 km/h (1 Bft) W-SW 245 0 min 0,000 mm 0,0 UV-I 53 W/m 16,3 C 17,4 C 8,0 km/h (2 Bft) 100,00 %
06.08.2017 09:46 17,4 C 26,1 C 94 % 1019,0 hPa 0,0 l/m 4,1 km/h (1 Bft) SW 236 0 min 0,000 mm 0,0 UV-I 53 W/m 16,4 C 17,4 C 8,0 km/h (2 Bft) 100,00 %
06.08.2017 09:48 17,4 C 26,1 C 93 % 1019,0 hPa 0,0 l/m 5,6 km/h (1 Bft) W-SW 257 0 min 0,000 mm 0,1 UV-I 62 W/m 16,3 C 17,4 C 8,0 km/h (2 Bft) 100,00 %
06.08.2017 09:50 17,4 C 26,1 C 94 % 1019,0 hPa 0,0 l/m 4,8 km/h (1 Bft) W-SW 245 0 min 0,000 mm 0,5 UV-I 74 W/m 16,4 C 17,4 C 9,7 km/h (2 Bft) 97,50 %
06.08.2017 09:52 17,4 C 26,1 C 94 % 1019,0 hPa 0,0 l/m 4,0 km/h (1 Bft) W-SW 249 0 min 0,000 mm 0,6 UV-I 85 W/m 16,4 C 17,4 C 6,4 km/h (2 Bft) 95,74 %
06.08.2017 09:54 17,4 C 26,1 C 94 % 1019,0 hPa 0,0 l/m 2,9 km/h (1 Bft) W-SW 249 0 min 0,000 mm 0,6 UV-I 90 W/m 16,4 C 17,4 C 4,8 km/h (1 Bft) 100,00 %
06.08.2017 09:56 17,4 C 26,1 C 94 % 1019,1 hPa 0,0 l/m 4,2 km/h (1 Bft) SW 228 0 min 0,000 mm 0,5 UV-I 82 W/m 16,4 C 17,4 C 8,0 km/h (2 Bft) 100,00 %
06.08.2017 09:58 17,5 C 26,1 C 94 % 1019,1 hPa 0,0 l/m 4,0 km/h (1 Bft) SW 225 0 min 0,000 mm 0,5 UV-I 80 W/m 16,5 C 17,5 C 8,0 km/h (2 Bft) 97,87 %
06.08.2017 10:00 17,6 C 26,1 C 94 % 1019,1 hPa 0,0 l/m 4,0 km/h (1 Bft) SW 224 0 min 0,051 mm 0,7 UV-I 96 W/m 16,6 C 17,6 C 8,0 km/h (2 Bft) 100,00 %
06.08.2017 10:02 17,6 C 26,1 C 94 % 1019,1 hPa 0,0 l/m 5,8 km/h (2 Bft) SW 225 0 min 0,000 mm 0,8 UV-I 107 W/m 16,6 C 17,6 C 11,3 km/h (2 Bft) 100,00 %
06.08.2017 10:04 17,6 C 26,1 C 93 % 1019,2 hPa 0,0 l/m 7,0 km/h (2 Bft) SW 223 0 min 0,000 mm 0,8 UV-I 108 W/m 16,5 C 17,3 C 11,3 km/h (2 Bft) 100,00 %
06.08.2017 10:06 17,5 C 26,1 C 93 % 1019,1 hPa 0,0 l/m 5,2 km/h (1 Bft) W-SW 254 0 min 0,000 mm 1,0 UV-I 118 W/m 16,4 C 17,5 C 9,7 km/h (2 Bft) 97,87 %
06.08.2017 10:08 17,6 C 26,1 C 93 % 1019,1 hPa 0,0 l/m 4,7 km/h (1 Bft) SW 233 0 min 0,000 mm 1,0 UV-I 128 W/m 16,5 C 17,6 C 8,0 km/h (2 Bft) 100,00 %
06.08.2017 10:10 17,6 C 26,1 C 93 % 1019,1 hPa 0,0 l/m 5,3 km/h (1 Bft) SW 232 0 min 0,000 mm 1,1 UV-I 139 W/m 16,5 C 17,6 C 9,7 km/h (2 Bft) 97,92 %
06.08.2017 10:12 17,7 C 26,1 C 93 % 1019,1 hPa 0,0 l/m 6,4 km/h (2 Bft) SW 232 0 min 0,000 mm 1,2 UV-I 156 W/m 16,6 C 17,7 C 9,7 km/h (2 Bft) 97,87 %
06.08.2017 10:14 17,7 C 26,1 C 93 % 1019,1 hPa 0,0 l/m 6,3 km/h (2 Bft) SW 231 0 min 0,000 mm 1,3 UV-I 171 W/m 16,6 C 17,7 C 8,0 km/h (2 Bft) 97,87 %
06.08.2017 10:16 17,7 C 26,1 C 92 % 1019,1 hPa 0,0 l/m 5,1 km/h (1 Bft) SW 235 0 min 0,000 mm 1,2 UV-I 169 W/m 16,4 C 17,7 C 9,7 km/h (2 Bft) 100,00 %
06.08.2017 10:18 17,7 C 26,1 C 93 % 1019,1 hPa 0,0 l/m 7,3 km/h (2 Bft) W-SW 257 0 min 0,000 mm 1,3 UV-I 164 W/m 16,6 C 17,3 C 11,3 km/h (2 Bft) 97,37 %
06.08.2017 10:20 17,7 C 26,1 C 92 % 1019,0 hPa 0,0 l/m 5,3 km/h (1 Bft) SW 231 0 min 0,000 mm 1,3 UV-I 163 W/m 16,4 C 17,7 C 9,7 km/h (2 Bft) 97,92 %
06.08.2017 10:22 17,7 C 26,1 C 92 % 1019,1 hPa 0,0 l/m 7,0 km/h (2 Bft) SW 233 0 min 0,000 mm 1,3 UV-I 163 W/m 16,4 C 17,4 C 11,3 km/h (2 Bft) 97,92 %
06.08.2017 10:24 17,7 C 26,1 C 92 % 1019,1 hPa 0,0 l/m 7,6 km/h (2 Bft) W-SW 247 0 min 0,000 mm 1,3 UV-I 166 W/m 16,4 C 17,1 C 12,9 km/h (3 Bft) 100,00 %
06.08.2017 10:26 17,8 C 26,1 C 92 % 1019,1 hPa 0,0 l/m 6,4 km/h (2 Bft) W 267 0 min 0,000 mm 1,3 UV-I 162 W/m 16,5 C 17,8 C 11,3 km/h (2 Bft) 100,00 %
06.08.2017 10:28 17,8 C 26,1 C 91 % 1019,1 hPa 0,0 l/m 7,2 km/h (2 Bft) W-SW 239 0 min 0,000 mm 1,2 UV-I 155 W/m 16,3 C 17,4 C 11,3 km/h (2 Bft) 100,00 %
06.08.2017 10:30 17,8 C 26,1 C 92 % 1019,1 hPa 0,0 l/m 6,3 km/h (2 Bft) W-SW 245 0 min 0,000 mm 1,1 UV-I 146 W/m 16,5 C 17,8 C 11,3 km/h (2 Bft) 100,00 %
06.08.2017 10:32 17,8 C 26,1 C 92 % 1019,1 hPa 0,0 l/m 8,8 km/h (2 Bft) W-SW 255 0 min 0,000 mm 1,0 UV-I 139 W/m 16,5 C 16,7 C 12,9 km/h (3 Bft) 100,00 %
06.08.2017 10:34 17,8 C 26,1 C 92 % 1019,0 hPa 0,0 l/m 7,7 km/h (2 Bft) W-SW 254 0 min 0,000 mm 1,0 UV-I 145 W/m 16,5 C 17,2 C 12,9 km/h (3 Bft) 95,74 %
06.08.2017 10:36 17,7 C 26,1 C 91 % 1019,0 hPa 0,0 l/m 8,1 km/h (2 Bft) W-SW 240 0 min 0,000 mm 1,1 UV-I 149 W/m 16,2 C 16,9 C 12,9 km/h (3 Bft) 100,00 %
06.08.2017 10:38 17,7 C 26,1 C 90 % 1018,9 hPa 0,0 l/m 6,4 km/h (2 Bft) W-SW 240 0 min 0,000 mm 1,2 UV-I 159 W/m 16,0 C 17,7 C 8,0 km/h (2 Bft) 97,87 %
06.08.2017 10:40 17,8 C 26,1 C 91 % 1018,9 hPa 0,0 l/m 6,1 km/h (2 Bft) W-SW 250 0 min 0,000 mm 1,1 UV-I 161 W/m 16,3 C 17,8 C 8,0 km/h (2 Bft) 97,87 %
06.08.2017 10:42 17,8 C 26,1 C 90 % 1018,9 hPa 0,0 l/m 7,0 km/h (2 Bft) S-SW 208 0 min 0,000 mm 1,1 UV-I 157 W/m 16,1 C 17,5 C 11,3 km/h (2 Bft) 100,00 %
06.08.2017 10:44 17,8 C 26,1 C 90 % 1018,9 hPa 0,0 l/m 5,6 km/h (1 Bft) SW 235 0 min 0,000 mm 1,1 UV-I 155 W/m 16,1 C 17,8 C 11,3 km/h (2 Bft) 100,00 %
06.08.2017 10:46 17,8 C 26,1 C 90 % 1018,8 hPa 0,0 l/m 4,0 km/h (1 Bft) SW 223 0 min 0,000 mm 1,1 UV-I 151 W/m 16,1 C 17,8 C 8,0 km/h (2 Bft) 100,00 %
06.08.2017 10:48 17,8 C 26,1 C 90 % 1018,9 hPa 0,0 l/m 3,6 km/h (1 Bft) S 191 0 min 0,000 mm 1,0 UV-I 138 W/m 16,1 C 17,8 C 6,4 km/h (2 Bft) 100,00 %
06.08.2017 10:50 17,8 C 26,1 C 89 % 1018,9 hPa 0,0 l/m 5,0 km/h (1 Bft) W 270 0 min 0,000 mm 0,9 UV-I 123 W/m 16,0 C 17,8 C 9,7 km/h (2 Bft) 98,00 %
06.08.2017 10:52 17,8 C 26,1 C 88 % 1018,9 hPa 0,0 l/m 6,1 km/h (2 Bft) W 262 0 min 0,000 mm 1,0 UV-I 129 W/m 15,8 C 17,8 C 9,7 km/h (2 Bft) 100,00 %
06.08.2017 10:54 17,8 C 26,1 C 89 % 1018,9 hPa 0,0 l/m 4,8 km/h (1 Bft) W 278 0 min 0,000 mm 1,2 UV-I 156 W/m 16,0 C 17,8 C 9,7 km/h (2 Bft) 100,00 %
06.08.2017 10:56 17,8 C 26,1 C 88 % 1018,9 hPa 0,0 l/m 2,4 km/h (1 Bft) W 278 0 min 0,000 mm 1,4 UV-I 188 W/m 15,8 C 17,8 C 6,4 km/h (2 Bft) 100,00 %
06.08.2017 10:58 17,8 C 26,1 C 90 % 1018,9 hPa 0,0 l/m 3,8 km/h (1 Bft) W-SW 252 0 min 0,000 mm 1,5 UV-I 197 W/m 16,1 C 17,8 C 6,4 km/h (2 Bft) 93,62 %
06.08.2017 11:00 17,8 C 26,1 C 89 % 1018,9 hPa 0,0 l/m 3,4 km/h (1 Bft) W 269 0 min 0,101 mm 1,3 UV-I 180 W/m 16,0 C 17,8 C 6,4 km/h (2 Bft) 100,00 %
06.08.2017 11:02 17,8 C 26,1 C 89 % 1018,9 hPa 0,0 l/m 4,1 km/h (1 Bft) W 268 0 min 0,000 mm 1,3 UV-I 166 W/m 16,0 C 17,8 C 6,4 km/h (2 Bft) 97,87 %
06.08.2017 11:04 17,8 C 26,1 C 89 % 1019,0 hPa 0,0 l/m 5,2 km/h (1 Bft) W 263 0 min 0,000 mm 1,2 UV-I 166 W/m 16,0 C 17,8 C 9,7 km/h (2 Bft) 100,00 %
06.08.2017 11:06 17,8 C 26,1 C 89 % 1018,9 hPa 0,0 l/m 5,3 km/h (1 Bft) W 260 0 min 0,000 mm 1,3 UV-I 180 W/m 16,0 C 17,8 C 9,7 km/h (2 Bft) 100,00 %
06.08.2017 11:08 17,8 C 26,1 C 89 % 1018,9 hPa 0,0 l/m 5,9 km/h (2 Bft) W 269 0 min 0,000 mm 1,4 UV-I 204 W/m 16,0 C 17,8 C 11,3 km/h (2 Bft) 95,74 %
06.08.2017 11:10 17,8 C 26,1 C 88 % 1018,9 hPa 0,0 l/m 4,7 km/h (1 Bft) W-SW 248 0 min 0,000 mm 1,5 UV-I 217 W/m 15,8 C 17,8 C 11,3 km/h (2 Bft) 97,87 %
06.08.2017 11:12 17,8 C 26,1 C 88 % 1018,9 hPa 0,0 l/m 10,1 km/h (2 Bft) W 267 0 min 0,000 mm 1,4 UV-I 196 W/m 15,8 C 16,2 C 14,5 km/h (3 Bft) 98,00 %
06.08.2017 11:14 17,8 C 26,1 C 88 % 1019,0 hPa 0,0 l/m 4,7 km/h (1 Bft) W-SW 246 0 min 0,000 mm 1,1 UV-I 149 W/m 15,8 C 17,8 C 9,7 km/h (2 Bft) 97,37 %
06.08.2017 11:16 17,8 C 26,1 C 89 % 1019,1 hPa 0,0 l/m 3,2 km/h (1 Bft) W-SW 257 0 min 0,000 mm 0,9 UV-I 126 W/m 16,0 C 17,8 C 6,4 km/h (2 Bft) 95,74 %
06.08.2017 11:18 17,7 C 26,1 C 89 % 1019,1 hPa 0,0 l/m 6,3 km/h (2 Bft) W-NW 285 0 min 0,000 mm 0,9 UV-I 114 W/m 15,9 C 17,7 C 11,3 km/h (2 Bft) 95,74 %
06.08.2017 11:20 17,7 C 26,1 C 89 % 1019,2 hPa 0,0 l/m 4,9 km/h (1 Bft) W 265 0 min 0,000 mm 0,8 UV-I 96 W/m 15,9 C 17,7 C 9,7 km/h (2 Bft) 91,49 %
06.08.2017 11:22 17,7 C 26,1 C 90 % 1019,2 hPa 0,0 l/m 4,4 km/h (1 Bft) W 274 0 min 0,000 mm 0,6 UV-I 85 W/m 16,0 C 17,7 C 9,7 km/h (2 Bft) 93,62 %
06.08.2017 11:24 17,6 C 26,1 C 90 % 1019,2 hPa 0,0 l/m 6,0 km/h (2 Bft) W 273 0 min 0,000 mm 0,6 UV-I 82 W/m 15,9 C 17,6 C 9,7 km/h (2 Bft) 96,00 %
06.08.2017 11:26 17,6 C 26,1 C 90 % 1019,1 hPa 0,0 l/m 6,8 km/h (2 Bft) W 265 0 min 0,000 mm 0,7 UV-I 85 W/m 15,9 C 17,4 C 16,1 km/h (3 Bft) 96,00 %
06.08.2017 11:28 17,6 C 26,1 C 90 % 1019,1 hPa 0,0 l/m 5,4 km/h (1 Bft) NW 311 0 min 0,000 mm 0,7 UV-I 88 W/m 15,9 C 17,6 C 12,9 km/h (3 Bft) 95,74 %
06.08.2017 11:30 17,5 C 26,1 C 91 % 1019,1 hPa 0,0 l/m 4,1 km/h (1 Bft) W-SW 252 0 min 0,000 mm 0,7 UV-I 85 W/m 16,0 C 17,5 C 6,4 km/h (2 Bft) 96,00 %
06.08.2017 11:32 17,5 C 26,1 C 91 % 1019,1 hPa 0,0 l/m 5,1 km/h (1 Bft) W-SW 239 0 min 0,000 mm 0,7 UV-I 84 W/m 16,0 C 17,5 C 9,7 km/h (2 Bft) 91,43 %
06.08.2017 11:34 17,5 C 26,1 C 91 % 1019,2 hPa 0,0 l/m 4,5 km/h (1 Bft) W 271 0 min 0,000 mm 0,7 UV-I 88 W/m 16,0 C 17,5 C 6,4 km/h (2 Bft) 95,74 %
06.08.2017 11:36 17,5 C 26,1 C 91 % 1019,2 hPa 0,0 l/m 2,6 km/h (1 Bft) W 269 0 min 0,000 mm 0,7 UV-I 90 W/m 16,0 C 17,5 C 6,4 km/h (2 Bft) 94,00 %
06.08.2017 11:38 17,5 C 26,1 C 91 % 1019,2 hPa 0,0 l/m 3,8 km/h (1 Bft) W 272 0 min 0,000 mm 0,7 UV-I 93 W/m 16,0 C 17,5 C 9,7 km/h (2 Bft) 95,74 %
06.08.2017 11:40 17,5 C 26,1 C 92 % 1019,2 hPa 0,0 l/m 6,3 km/h (2 Bft) W-SW 256 0 min 0,000 mm 0,7 UV-I 87 W/m 16,2 C 17,5 C 9,7 km/h (2 Bft) 92,00 %
06.08.2017 11:42 17,6 C 26,1 C 91 % 1019,3 hPa 0,0 l/m 4,4 km/h (1 Bft) W 263 0 min 0,000 mm 0,6 UV-I 82 W/m 16,1 C 17,6 C 8,0 km/h (2 Bft) 94,00 %
06.08.2017 11:44 17,5 C 26,1 C 91 % 1019,3 hPa 0,0 l/m 0,6 km/h (0 Bft) W 263 0 min 0,000 mm 0,6 UV-I 79 W/m 16,0 C 17,5 C 3,2 km/h (1 Bft) 97,87 %
06.08.2017 11:46 17,5 C 26,1 C 91 % 1019,2 hPa 0,0 l/m 0,7 km/h (0 Bft) W 263 0 min 0,000 mm 0,6 UV-I 80 W/m 16,0 C 17,5 C 3,2 km/h (1 Bft) 97,87 %
06.08.2017 11:48 17,5 C 26,1 C 92 % 1019,1 hPa 0,0 l/m 0,5 km/h (0 Bft) W 263 0 min 0,000 mm 0,6 UV-I 78 W/m 16,2 C 17,5 C 3,2 km/h (1 Bft) 97,92 %
06.08.2017 11:50 17,5 C 26,1 C 92 % 1019,1 hPa 0,0 l/m 0,8 km/h (0 Bft) W 263 0 min 0,000 mm 0,5 UV-I 72 W/m 16,2 C 17,5 C 3,2 km/h (1 Bft) 93,62 %
06.08.2017 11:53 17,5 C 26,1 C 91 % 1019,0 hPa 0,0 l/m 0,4 km/h (0 Bft) W 263 0 min 0,000 mm 0,1 UV-I 60 W/m 16,0 C 17,5 C 3,2 km/h (1 Bft) 97,14 %
06.08.2017 11:54 17,5 C 26,1 C 91 % 1019,0 hPa 0,0 l/m 0,5 km/h (0 Bft) W 263 0 min 0,000 mm 0,0 UV-I 53 W/m 16,0 C 17,5 C 1,6 km/h (1 Bft) 100,00 %
06.08.2017 11:56 17,6 C 26,1 C 91 % 1019,1 hPa 0,0 l/m 0,1 km/h (0 Bft) W 263 0 min 0,000 mm 0,0 UV-I 51 W/m 16,1 C 17,6 C 1,6 km/h (1 Bft) 94,29 %
06.08.2017 11:58 17,6 C 26,1 C 90 % 1019,0 hPa 0,0 l/m 0,6 km/h (0 Bft) W 263 0 min 0,000 mm 0,0 UV-I 54 W/m 15,9 C 17,6 C 1,6 km/h (1 Bft) 95,74 %
06.08.2017 12:00 17,6 C 26,1 C 90 % 1019,1 hPa 0,0 l/m 0,1 km/h (0 Bft) W 263 0 min 0,077 mm 0,0 UV-I 58 W/m 15,9 C 17,6 C 1,6 km/h (1 Bft) 95,74 %
06.08.2017 12:02 17,6 C 26,1 C 90 % 1019,2 hPa 0,0 l/m 1,1 km/h (1 Bft) W 263 0 min 0,000 mm 0,5 UV-I 65 W/m 15,9 C 17,6 C 3,2 km/h (1 Bft) 95,74 %
06.08.2017 12:04 17,6 C 26,1 C 90 % 1019,2 hPa 0,0 l/m 0,0 km/h (0 Bft) W 263 0 min 0,000 mm 0,6 UV-I 74 W/m 15,9 C 17,6 C 1,6 km/h (1 Bft) 95,74 %
06.08.2017 12:06 17,6 C 26,1 C 90 % 1019,2 hPa 0,0 l/m 1,2 km/h (1 Bft) W 263 0 min 0,000 mm 0,7 UV-I 86 W/m 15,9 C 17,6 C 3,2 km/h (1 Bft) 93,62 %
06.08.2017 12:08 17,7 C 26,1 C 90 % 1019,1 hPa 0,0 l/m 3,2 km/h (1 Bft) W 263 0 min 0,000 mm 0,8 UV-I 99 W/m 16,0 C 17,7 C 4,8 km/h (1 Bft) 95,74 %
06.08.2017 12:10 17,7 C 26,1 C 90 % 1019,2 hPa 0,2 l/m 3,7 km/h (1 Bft) W 263 0 min 0,000 mm 0,9 UV-I 106 W/m 16,0 C 17,7 C 4,8 km/h (1 Bft) 95,74 %
06.08.2017 12:12 17,7 C 26,1 C 90 % 1019,2 hPa 0,2 l/m 4,0 km/h (1 Bft) W 268 0 min 0,000 mm 0,9 UV-I 102 W/m 16,0 C 17,7 C 6,4 km/h (2 Bft) 93,62 %
06.08.2017 12:14 17,7 C 26,1 C 91 % 1019,2 hPa 0,0 l/m 5,5 km/h (1 Bft) W-SW 252 0 min 0,000 mm 0,8 UV-I 85 W/m 16,2 C 17,7 C 9,7 km/h (2 Bft) 97,87 %
06.08.2017 12:16 17,6 C 26,1 C 91 % 1019,2 hPa 0,0 l/m 5,5 km/h (1 Bft) W 263 0 min 0,000 mm 0,6 UV-I 77 W/m 16,1 C 17,6 C 9,7 km/h (2 Bft) 95,74 %
06.08.2017 12:18 17,4 C 26,1 C 91 % 1019,2 hPa 0,0 l/m 4,5 km/h (1 Bft) W-NW 287 0 min 0,000 mm 0,7 UV-I 83 W/m 15,9 C 17,4 C 11,3 km/h (2 Bft) 97,87 %
06.08.2017 12:20 17,4 C 26,1 C 91 % 1019,2 hPa 0,0 l/m 4,9 km/h (1 Bft) W 265 0 min 0,000 mm 0,7 UV-I 83 W/m 15,9 C 17,4 C 6,4 km/h (2 Bft) 97,92 %
06.08.2017 12:22 17,3 C 26,1 C 92 % 1019,3 hPa 0,0 l/m 4,9 km/h (1 Bft) W-SW 246 0 min 0,000 mm 0,6 UV-I 73 W/m 16,0 C 17,3 C 11,3 km/h (2 Bft) 98,00 %
06.08.2017 12:24 17,2 C 26,1 C 92 % 1019,3 hPa 0,2 l/m 6,4 km/h (2 Bft) SW 227 0 min 0,000 mm 0,5 UV-I 69 W/m 15,9 C 17,2 C 12,9 km/h (3 Bft) 97,87 %
06.08.2017 12:26 17,1 C 26,1 C 92 % 1019,2 hPa 0,4 l/m 4,3 km/h (1 Bft) W 261 0 min 0,000 mm 0,6 UV-I 72 W/m 15,8 C 17,1 C 11,3 km/h (2 Bft) 98,00 %
06.08.2017 12:28 17,1 C 26,1 C 92 % 1019,2 hPa 0,0 l/m 4,3 km/h (1 Bft) W-NW 294 0 min 0,000 mm 0,6 UV-I 78 W/m 15,8 C 17,1 C 11,3 km/h (2 Bft) 100,00 %
06.08.2017 12:30 16,9 C 26,1 C 93 % 1019,2 hPa 0,2 l/m 3,3 km/h (1 Bft) W 261 0 min 0,000 mm 0,7 UV-I 82 W/m 15,8 C 16,9 C 6,4 km/h (2 Bft) 97,87 %
06.08.2017 12:32 16,9 C 26,1 C 93 % 1019,3 hPa 0,0 l/m 4,1 km/h (1 Bft) W-SW 250 0 min 0,000 mm 0,7 UV-I 81 W/m 15,8 C 16,9 C 6,4 km/h (2 Bft) 100,00 %
06.08.2017 12:34 16,8 C 26,1 C 93 % 1019,3 hPa 0,0 l/m 6,0 km/h (2 Bft) W-NW 284 0 min 0,000 mm 0,6 UV-I 78 W/m 15,7 C 16,8 C 11,3 km/h (2 Bft) 100,00 %
06.08.2017 12:36 16,8 C 26,1 C 93 % 1019,3 hPa 0,4 l/m 4,9 km/h (1 Bft) W-SW 244 0 min 0,000 mm 0,6 UV-I 77 W/m 15,7 C 16,8 C 9,7 km/h (2 Bft) 100,00 %
06.08.2017 12:38 16,7 C 26,1 C 93 % 1019,1 hPa 0,2 l/m 2,0 km/h (1 Bft) W-SW 257 0 min 0,000 mm 0,6 UV-I 78 W/m 15,6 C 16,7 C 4,8 km/h (1 Bft) 100,00 %
06.08.2017 12:40 16,7 C 26,1 C 94 % 1019,1 hPa 0,4 l/m 1,8 km/h (1 Bft) W 264 0 min 0,000 mm 0,7 UV-I 85 W/m 15,7 C 16,7 C 3,2 km/h (1 Bft) 97,87 %
06.08.2017 12:46 16,6 C 26,1 C 94 % 1019,2 hPa 0,2 l/m 2,0 km/h (1 Bft) W 265 0 min 0,000 mm 0,8 UV-I 92 W/m 15,6 C 16,6 C 4,8 km/h (1 Bft) 100,00 %
06.08.2017 12:48 16,6 C 26,1 C 94 % 1019,2 hPa 0,0 l/m 3,1 km/h (1 Bft) W 264 0 min 0,000 mm 0,8 UV-I 90 W/m 15,6 C 16,6 C 4,8 km/h (1 Bft) 100,00 %
06.08.2017 12:50 16,7 C 26,1 C 95 % 1019,2 hPa 0,0 l/m 1,3 km/h (1 Bft) W 264 0 min 0,000 mm 0,7 UV-I 88 W/m 15,9 C 16,7 C 3,2 km/h (1 Bft) 100,00 %
06.08.2017 12:52 16,7 C 26,1 C 95 % 1019,3 hPa 0,0 l/m 2,6 km/h (1 Bft) W 265 0 min 0,000 mm 0,7 UV-I 81 W/m 15,9 C 16,7 C 4,8 km/h (1 Bft) 100,00 %
06.08.2017 12:54 16,7 C 26,1 C 94 % 1019,3 hPa 0,0 l/m 2,6 km/h (1 Bft) W 265 0 min 0,000 mm 0,7 UV-I 78 W/m 15,7 C 16,7 C 4,8 km/h (1 Bft) 100,00 %
06.08.2017 12:56 16,7 C 26,1 C 94 % 1019,2 hPa 0,0 l/m 2,9 km/h (1 Bft) W 265 0 min 0,000 mm 0,6 UV-I 75 W/m 15,7 C 16,7 C 4,8 km/h (1 Bft) 100,00 %
06.08.2017 12:58 16,7 C 26,1 C 94 % 1019,2 hPa 0,0 l/m 2,1 km/h (1 Bft) W 265 0 min 0,000 mm 0,6 UV-I 66 W/m 15,7 C 16,7 C 3,2 km/h (1 Bft) 100,00 %
06.08.2017 13:00 16,7 C 26,1 C 94 % 1019,2 hPa 0,0 l/m 3,0 km/h (1 Bft) W 265 0 min 0,000 mm 0,1 UV-I 53 W/m 15,7 C 16,7 C 6,4 km/h (2 Bft) 100,00 %
06.08.2017 13:02 16,7 C 26,1 C 93 % 1019,3 hPa 0,0 l/m 3,3 km/h (1 Bft) W 264 0 min 0,050 mm 0,0 UV-I 47 W/m 15,6 C 16,7 C 6,4 km/h (2 Bft) 100,00 %
06.08.2017 13:04 16,7 C 26,1 C 93 % 1019,2 hPa 0,0 l/m 1,8 km/h (1 Bft) W 264 0 min 0,000 mm 0,0 UV-I 52 W/m 15,6 C 16,7 C 3,2 km/h (1 Bft) 100,00 %
06.08.2017 13:06 16,6 C 26,1 C 93 % 1019,1 hPa 0,0 l/m 2,2 km/h (1 Bft) W 265 0 min 0,000 mm 0,5 UV-I 67 W/m 15,5 C 16,6 C 4,8 km/h (1 Bft) 100,00 %
06.08.2017 13:08 16,6 C 26,1 C 93 % 1019,1 hPa 0,0 l/m 2,3 km/h (1 Bft) W 265 0 min 0,000 mm 0,8 UV-I 92 W/m 15,5 C 16,6 C 4,8 km/h (1 Bft) 97,37 %
06.08.2017 13:10 16,6 C 26,1 C 93 % 1019,1 hPa 0,2 l/m 0,2 km/h (0 Bft) W 265 0 min 0,000 mm 1,0 UV-I 114 W/m 15,5 C 16,6 C 1,6 km/h (1 Bft) 95,74 %
06.08.2017 13:12 16,6 C 26,1 C 93 % 1019,2 hPa 0,2 l/m 0,0 km/h (0 Bft) W 265 0 min 0,000 mm 1,0 UV-I 113 W/m 15,5 C 16,6 C 1,6 km/h (1 Bft) 97,87 %
06.08.2017 13:14 16,6 C 26,1 C 93 % 1019,2 hPa 0,2 l/m 2,0 km/h (1 Bft) W 265 0 min 0,000 mm 0,9 UV-I 101 W/m 15,5 C 16,6 C 4,8 km/h (1 Bft) 98,00 %
06.08.2017 13:16 16,7 C 26,1 C 94 % 1019,3 hPa 0,0 l/m 1,5 km/h (1 Bft) W 265 0 min 0,000 mm 0,7 UV-I 87 W/m 15,7 C 16,7 C 3,2 km/h (1 Bft) 97,22 %
06.08.2017 13:18 16,7 C 26,1 C 93 % 1019,4 hPa 0,0 l/m 0,2 km/h (0 Bft) W 265 0 min 0,000 mm 0,7 UV-I 82 W/m 15,6 C 16,7 C 1,6 km/h (1 Bft) 96,88 %
06.08.2017 13:20 16,8 C 26,1 C 93 % 1019,4 hPa 0,2 l/m 0,8 km/h (0 Bft) W 265 0 min 0,000 mm 0,7 UV-I 83 W/m 15,7 C 16,8 C 3,2 km/h (1 Bft) 97,87 %
06.08.2017 13:22 16,8 C 26,1 C 93 % 1019,4 hPa 0,0 l/m 3,3 km/h (1 Bft) W 266 0 min 0,000 mm 0,7 UV-I 87 W/m 15,7 C 16,8 C 4,8 km/h (1 Bft) 95,74 %
06.08.2017 13:24 16,7 C 26,1 C 92 % 1019,4 hPa 0,0 l/m 2,8 km/h (1 Bft) W 266 0 min 0,000 mm 0,8 UV-I 93 W/m 15,4 C 16,7 C 4,8 km/h (1 Bft) 97,44 %
06.08.2017 13:26 16,7 C 26,1 C 92 % 1019,4 hPa 0,0 l/m 2,6 km/h (1 Bft) W 266 0 min 0,000 mm 0,8 UV-I 98 W/m 15,4 C 16,7 C 4,8 km/h (1 Bft) 94,00 %
06.08.2017 13:28 16,7 C 26,1 C 92 % 1019,4 hPa 0,0 l/m 2,7 km/h (1 Bft) W-NW 292 0 min 0,000 mm 0,9 UV-I 103 W/m 15,4 C 16,7 C 4,8 km/h (1 Bft) 97,73 %
06.08.2017 13:30 16,7 C 26,1 C 92 % 1019,4 hPa 0,0 l/m 2,4 km/h (1 Bft) W-NW 292 0 min 0,000 mm 0,9 UV-I 102 W/m 15,4 C 16,7 C 4,8 km/h (1 Bft) 98,00 %
06.08.2017 13:32 16,8 C 26,1 C 93 % 1019,4 hPa 0,0 l/m 1,7 km/h (1 Bft) W-NW 292 0 min 0,000 mm 0,8 UV-I 97 W/m 15,7 C 16,8 C 4,8 km/h (1 Bft) 98,00 %
06.08.2017 13:34 16,7 C 26,1 C 93 % 1019,4 hPa 0,0 l/m 1,0 km/h (0 Bft) W-NW 292 0 min 0,000 mm 0,7 UV-I 83 W/m 15,6 C 16,7 C 3,2 km/h (1 Bft) 97,56 %
06.08.2017 13:36 16,7 C 26,1 C 94 % 1019,3 hPa 0,0 l/m 0,1 km/h (0 Bft) W-NW 292 0 min 0,000 mm 0,6 UV-I 70 W/m 15,7 C 16,7 C 1,6 km/h (1 Bft) 100,00 %
06.08.2017 13:38 16,7 C 26,1 C 94 % 1019,3 hPa 0,0 l/m 0,7 km/h (0 Bft) NW 325 0 min 0,000 mm 0,6 UV-I 69 W/m 15,7 C 16,7 C 4,8 km/h (1 Bft) 95,74 %
06.08.2017 13:40 16,6 C 26,1 C 94 % 1019,4 hPa 0,0 l/m 0,0 km/h (0 Bft) NW 325 0 min 0,000 mm 0,6 UV-I 73 W/m 15,6 C 16,6 C 1,6 km/h (1 Bft) 98,00 %
06.08.2017 13:42 16,6 C 26,1 C 93 % 1019,4 hPa 0,0 l/m 0,0 km/h (0 Bft) NW 325 0 min 0,000 mm 0,6 UV-I 75 W/m 15,5 C 16,6 C 0,0 km/h (0 Bft) 97,87 %
06.08.2017 13:44 16,6 C 26,1 C 93 % 1019,4 hPa 0,0 l/m 1,3 km/h (1 Bft) NW 325 0 min 0,000 mm 0,7 UV-I 82 W/m 15,5 C 16,6 C 3,2 km/h (1 Bft) 100,00 %
06.08.2017 13:46 16,6 C 26,1 C 93 % 1019,4 hPa 0,0 l/m 0,8 km/h (0 Bft) NW 325 0 min 0,000 mm 0,7 UV-I 91 W/m 15,5 C 16,6 C 3,2 km/h (1 Bft) 100,00 %
06.08.2017 13:48 16,7 C 26,1 C 94 % 1019,4 hPa 0,0 l/m 1,9 km/h (1 Bft) NW 325 0 min 0,000 mm 0,8 UV-I 97 W/m 15,7 C 16,7 C 3,2 km/h (1 Bft) 100,00 %
06.08.2017 13:52 16,7 C 26,1 C 94 % 1019,5 hPa 0,0 l/m 1,3 km/h (1 Bft) W-NW 296 0 min 0,000 mm 0,9 UV-I 109 W/m 15,7 C 16,7 C 4,8 km/h (1 Bft) 99,12 %
06.08.2017 13:54 16,8 C 26,1 C 93 % 1019,5 hPa 0,0 l/m 0,1 km/h (0 Bft) W-NW 296 0 min 0,000 mm 0,8 UV-I 103 W/m 15,7 C 16,8 C 1,6 km/h (1 Bft) 100,00 %
06.08.2017 13:56 16,8 C 26,1 C 93 % 1019,5 hPa 0,0 l/m 0,2 km/h (0 Bft) W-NW 296 0 min 0,000 mm 0,7 UV-I 86 W/m 15,7 C 16,8 C 1,6 km/h (1 Bft) 100,00 %
06.08.2017 13:58 16,8 C 26,1 C 92 % 1019,5 hPa 0,0 l/m 2,8 km/h (1 Bft) W-NW 293 0 min 0,000 mm 0,6 UV-I 70 W/m 15,5 C 16,8 C 4,8 km/h (1 Bft) 97,87 %
06.08.2017 14:00 16,7 C 26,1 C 92 % 1019,5 hPa 0,0 l/m 0,6 km/h (0 Bft) W-NW 292 0 min 0,051 mm 0,2 UV-I 61 W/m 15,4 C 16,7 C 3,2 km/h (1 Bft) 96,30 %
06.08.2017 14:02 16,8 C 26,1 C 92 % 1019,5 hPa 0,0 l/m 0,0 km/h (0 Bft) W-NW 292 0 min 0,000 mm 0,0 UV-I 59 W/m 15,5 C 16,8 C 0,0 km/h (0 Bft) 100,00 %
06.08.2017 14:04 16,8 C 26,1 C 92 % 1019,6 hPa 0,0 l/m 1,2 km/h (1 Bft) W-NW 292 0 min 0,000 mm 0,4 UV-I 62 W/m 15,5 C 16,8 C 3,2 km/h (1 Bft) 100,00 %
06.08.2017 14:06 16,8 C 26,1 C 91 % 1019,6 hPa 0,0 l/m 0,4 km/h (0 Bft) W-NW 292 0 min 0,000 mm 0,5 UV-I 63 W/m 15,3 C 16,8 C 1,6 km/h (1 Bft) 100,00 %
06.08.2017 14:09 16,8 C 26,1 C 91 % 1019,6 hPa 0,0 l/m 0,9 km/h (0 Bft) W-NW 292 0 min 0,000 mm 0,2 UV-I 62 W/m 15,3 C 16,8 C 3,2 km/h (1 Bft) 97,26 %
06.08.2017 14:10 16,8 C 26,1 C 91 % 1019,6 hPa 0,0 l/m 0,0 km/h (0 Bft) W-NW 292 0 min 0,000 mm 0,5 UV-I 63 W/m 15,3 C 16,8 C 0,0 km/h (0 Bft) 95,83 %
06.08.2017 14:12 16,9 C 26,1 C 91 % 1019,7 hPa 0,0 l/m 1,3 km/h (1 Bft) W-NW 292 0 min 0,000 mm 0,5 UV-I 65 W/m 15,4 C 16,9 C 3,2 km/h (1 Bft) 100,00 %
06.08.2017 14:14 16,9 C 26,1 C 91 % 1019,9 hPa 0,0 l/m 1,8 km/h (1 Bft) W-NW 292 0 min 0,000 mm 0,1 UV-I 59 W/m 15,4 C 16,9 C 3,2 km/h (1 Bft) 100,00 %
06.08.2017 14:16 16,9 C 26,1 C 91 % 1019,9 hPa 0,0 l/m 2,5 km/h (1 Bft) W-NW 292 0 min 0,000 mm 0,0 UV-I 51 W/m 15,4 C 16,9 C 4,8 km/h (1 Bft) 100,00 %
06.08.2017 14:18 16,9 C 26,1 C 92 % 1020,1 hPa 0,2 l/m 1,6 km/h (1 Bft) W-NW 292 0 min 0,000 mm 0,0 UV-I 46 W/m 15,6 C 16,9 C 3,2 km/h (1 Bft) 98,11 %
06.08.2017 14:20 16,9 C 26,1 C 92 % 1020,1 hPa 0,0 l/m 1,6 km/h (1 Bft) W-NW 292 0 min 0,000 mm 0,0 UV-I 47 W/m 15,6 C 16,9 C 3,2 km/h (1 Bft) 100,00 %
06.08.2017 14:22 16,8 C 26,1 C 92 % 1020,1 hPa 0,2 l/m 2,4 km/h (1 Bft) W-NW 286 0 min 0,000 mm 0,0 UV-I 49 W/m 15,5 C 16,8 C 4,8 km/h (1 Bft) 100,00 %
06.08.2017 14:24 16,8 C 26,1 C 92 % 1020,2 hPa 0,2 l/m 2,1 km/h (1 Bft) SW 219 0 min 0,000 mm 0,0 UV-I 45 W/m 15,5 C 16,8 C 4,8 km/h (1 Bft) 94,29 %
06.08.2017 14:26 16,7 C 26,1 C 92 % 1020,1 hPa 0,2 l/m 2,8 km/h (1 Bft) SW 219 0 min 0,000 mm 0,0 UV-I 40 W/m 15,4 C 16,7 C 4,8 km/h (1 Bft) 100,00 %
06.08.2017 14:28 16,7 C 26,1 C 92 % 1020,1 hPa 0,0 l/m 1,8 km/h (1 Bft) SW 219 0 min 0,000 mm 0,0 UV-I 39 W/m 15,4 C 16,7 C 3,2 km/h (1 Bft) 100,00 %
06.08.2017 14:30 16,6 C 26,1 C 92 % 1020,1 hPa 0,4 l/m 0,3 km/h (0 Bft) SW 219 0 min 0,000 mm 0,0 UV-I 37 W/m 15,3 C 16,6 C 1,6 km/h (1 Bft) 100,00 %
06.08.2017 14:32 16,6 C 26,1 C 92 % 1020,0 hPa 0,2 l/m 1,5 km/h (1 Bft) SW 219 0 min 0,000 mm 0,0 UV-I 35 W/m 15,3 C 16,6 C 3,2 km/h (1 Bft) 98,11 %
06.08.2017 14:34 16,6 C 26,1 C 92 % 1020,1 hPa 0,2 l/m 1,8 km/h (1 Bft) SW 219 0 min 0,000 mm 0,0 UV-I 34 W/m 15,3 C 16,6 C 3,2 km/h (1 Bft) 100,00 %
06.08.2017 14:36 16,6 C 26,1 C 92 % 1020,0 hPa 0,0 l/m 0,1 km/h (0 Bft) SW 219 0 min 0,000 mm 0,0 UV-I 33 W/m 15,3 C 16,6 C 1,6 km/h (1 Bft) 100,00 %
06.08.2017 14:38 16,5 C 26,1 C 92 % 1020,0 hPa 0,6 l/m 2,3 km/h (1 Bft) SW 215 0 min 0,000 mm 0,0 UV-I 35 W/m 15,2 C 16,5 C 8,0 km/h (2 Bft) 98,51 %
06.08.2017 14:40 16,4 C 26,1 C 91 % 1020,0 hPa 0,6 l/m 3,3 km/h (1 Bft) SW 215 0 min 0,000 mm 0,0 UV-I 39 W/m 14,9 C 16,4 C 4,8 km/h (1 Bft) 100,00 %
06.08.2017 14:42 16,4 C 26,1 C 91 % 1019,9 hPa 0,4 l/m 0,8 km/h (0 Bft) SW 215 0 min 0,000 mm 0,0 UV-I 42 W/m 14,9 C 16,4 C 3,2 km/h (1 Bft) 100,00 %
06.08.2017 14:44 16,3 C 26,1 C 90 % 1020,0 hPa 0,4 l/m 2,5 km/h (1 Bft) W-SW 237 0 min 0,000 mm 0,0 UV-I 46 W/m 14,7 C 16,3 C 4,8 km/h (1 Bft) 95,74 %
06.08.2017 14:46 16,2 C 26,1 C 91 % 1020,0 hPa 0,4 l/m 4,1 km/h (1 Bft) W 266 0 min 0,000 mm 0,0 UV-I 47 W/m 14,7 C 16,2 C 4,8 km/h (1 Bft) 100,00 %
06.08.2017 14:48 16,2 C 26,1 C 91 % 1020,0 hPa 0,4 l/m 2,5 km/h (1 Bft) W 267 0 min 0,000 mm 0,0 UV-I 47 W/m 14,7 C 16,2 C 4,8 km/h (1 Bft) 100,00 %
06.08.2017 14:50 16,2 C 26,1 C 92 % 1020,1 hPa 0,6 l/m 3,1 km/h (1 Bft) W 272 0 min 0,000 mm 0,0 UV-I 46 W/m 14,9 C 16,2 C 6,4 km/h (2 Bft) 100,00 %
06.08.2017 14:52 16,1 C 26,1 C 92 % 1020,1 hPa 0,4 l/m 4,4 km/h (1 Bft) W-SW 242 0 min 0,000 mm 0,0 UV-I 46 W/m 14,8 C 16,1 C 8,0 km/h (2 Bft) 97,87 %
06.08.2017 14:54 16,0 C 26,1 C 92 % 1020,1 hPa 0,4 l/m 4,7 km/h (1 Bft) W-SW 256 0 min 0,000 mm 0,0 UV-I 46 W/m 14,7 C 16,0 C 6,4 km/h (2 Bft) 97,73 %
06.08.2017 14:56 16,0 C 26,1 C 93 % 1020,1 hPa 0,2 l/m 4,2 km/h (1 Bft) W-SW 252 0 min 0,000 mm 0,0 UV-I 48 W/m 14,9 C 16,0 C 6,4 km/h (2 Bft) 100,00 %
06.08.2017 14:58 15,9 C 25,6 C 93 % 1020,1 hPa 0,2 l/m 6,3 km/h (2 Bft) W 275 0 min 0,000 mm 0,0 UV-I 54 W/m 14,8 C 15,9 C 12,9 km/h (3 Bft) 100,00 %
06.08.2017 15:00 15,9 C 25,6 C 94 % 1020,0 hPa 0,2 l/m 2,7 km/h (1 Bft) W-NW 284 0 min 0,026 mm 0,0 UV-I 59 W/m 14,9 C 15,9 C 6,4 km/h (2 Bft) 100,00 %
06.08.2017 15:02 15,8 C 25,6 C 94 % 1020,1 hPa 0,2 l/m 2,5 km/h (1 Bft) W-SW 244 0 min 0,000 mm 0,0 UV-I 63 W/m 14,8 C 15,8 C 6,4 km/h (2 Bft) 100,00 %
06.08.2017 15:04 15,8 C 25,6 C 94 % 1020,2 hPa 0,0 l/m 4,6 km/h (1 Bft) W 279 0 min 0,000 mm 0,0 UV-I 62 W/m 14,8 C 15,8 C 11,3 km/h (2 Bft) 100,00 %
06.08.2017 15:06 15,8 C 25,6 C 94 % 1020,2 hPa 0,2 l/m 5,9 km/h (2 Bft) W-SW 237 0 min 0,000 mm 0,0 UV-I 57 W/m 14,8 C 15,8 C 11,3 km/h (2 Bft) 98,11 %
06.08.2017 15:08 15,8 C 25,6 C 94 % 1020,2 hPa 0,0 l/m 6,9 km/h (2 Bft) SW 234 0 min 0,000 mm 0,0 UV-I 54 W/m 14,8 C 15,5 C 9,7 km/h (2 Bft) 100,00 %
06.08.2017 15:10 15,8 C 25,6 C 94 % 1020,1 hPa 0,0 l/m 6,2 km/h (2 Bft) S-SW 201 0 min 0,000 mm 0,0 UV-I 51 W/m 14,8 C 15,8 C 11,3 km/h (2 Bft) 96,00 %
06.08.2017 15:12 15,8 C 25,6 C 94 % 1020,1 hPa 0,2 l/m 5,8 km/h (2 Bft) W-SW 245 0 min 0,000 mm 0,0 UV-I 47 W/m 14,8 C 15,8 C 11,3 km/h (2 Bft) 95,12 %
06.08.2017 15:14 15,8 C 25,6 C 94 % 1020,1 hPa 0,0 l/m 5,2 km/h (1 Bft) W-SW 240 0 min 0,000 mm 0,0 UV-I 45 W/m 14,8 C 15,8 C 8,0 km/h (2 Bft) 94,87 %
06.08.2017 15:16 15,9 C 25,6 C 94 % 1020,2 hPa 0,0 l/m 3,7 km/h (1 Bft) W-SW 246 0 min 0,000 mm 0,0 UV-I 44 W/m 14,9 C 15,9 C 6,4 km/h (2 Bft) 96,23 %
06.08.2017 15:18 15,9 C 25,6 C 94 % 1020,3 hPa 0,0 l/m 6,0 km/h (2 Bft) SW 219 0 min 0,000 mm 0,0 UV-I 43 W/m 14,9 C 15,9 C 9,7 km/h (2 Bft) 95,45 %
06.08.2017 15:20 15,9 C 25,6 C 94 % 1020,4 hPa 0,0 l/m 5,9 km/h (2 Bft) SW 223 0 min 0,000 mm 0,0 UV-I 41 W/m 14,9 C 15,9 C 8,0 km/h (2 Bft) 92,45 %
06.08.2017 15:22 15,9 C 25,6 C 94 % 1020,4 hPa 0,0 l/m 6,7 km/h (2 Bft) S-SW 205 0 min 0,000 mm 0,0 UV-I 40 W/m 14,9 C 15,7 C 11,3 km/h (2 Bft) 95,74 %
06.08.2017 15:24 15,9 C 25,6 C 94 % 1020,4 hPa 0,0 l/m 6,9 km/h (2 Bft) S-SW 205 0 min 0,000 mm 0,0 UV-I 45 W/m 14,9 C 15,6 C 11,3 km/h (2 Bft) 94,74 %
06.08.2017 15:26 15,9 C 25,6 C 94 % 1020,4 hPa 0,2 l/m 7,4 km/h (2 Bft) S-SW 209 0 min 0,000 mm 0,0 UV-I 55 W/m 14,9 C 15,4 C 11,3 km/h (2 Bft) 96,43 %
06.08.2017 15:28 15,8 C 25,6 C 94 % 1020,4 hPa 0,2 l/m 9,1 km/h (2 Bft) SW 220 0 min 0,000 mm 0,0 UV-I 58 W/m 14,8 C 14,4 C 12,9 km/h (3 Bft) 94,74 %
06.08.2017 15:30 15,8 C 25,6 C 93 % 1020,4 hPa 0,2 l/m 11,2 km/h (2 Bft) W-SW 254 0 min 0,000 mm 0,0 UV-I 59 W/m 14,7 C 13,5 C 16,1 km/h (3 Bft) 96,43 %
06.08.2017 15:32 15,7 C 25,6 C 93 % 1020,4 hPa 0,0 l/m 7,6 km/h (2 Bft) SW 223 0 min 0,000 mm 0,0 UV-I 61 W/m 14,6 C 15,0 C 11,3 km/h (2 Bft) 95,12 %
06.08.2017 15:34 15,6 C 25,6 C 93 % 1020,4 hPa 0,2 l/m 7,5 km/h (2 Bft) SW 229 0 min 0,000 mm 0,0 UV-I 63 W/m 14,5 C 15,0 C 12,9 km/h (3 Bft) 96,00 %
06.08.2017 15:36 15,6 C 25,6 C 94 % 1020,4 hPa 0,0 l/m 5,8 km/h (2 Bft) W-SW 248 0 min 0,000 mm 0,0 UV-I 65 W/m 14,6 C 15,6 C 11,3 km/h (2 Bft) 97,87 %
06.08.2017 15:38 15,6 C 25,6 C 94 % 1020,3 hPa 0,2 l/m 9,9 km/h (2 Bft) W-SW 248 0 min 0,000 mm 0,0 UV-I 65 W/m 14,6 C 13,8 C 14,5 km/h (3 Bft) 92,45 %
06.08.2017 15:40 15,6 C 25,6 C 94 % 1020,1 hPa 0,0 l/m 7,1 km/h (2 Bft) W-SW 237 0 min 0,000 mm 0,0 UV-I 63 W/m 14,6 C 15,2 C 12,9 km/h (3 Bft) 95,12 %
06.08.2017 15:42 15,6 C 25,6 C 94 % 1020,2 hPa 0,2 l/m 8,3 km/h (2 Bft) W-SW 238 0 min 0,000 mm 0,0 UV-I 62 W/m 14,6 C 14,6 C 11,3 km/h (2 Bft) 95,12 %
06.08.2017 15:44 15,6 C 25,6 C 94 % 1020,2 hPa 0,0 l/m 6,1 km/h (2 Bft) W-SW 246 0 min 0,000 mm 0,0 UV-I 62 W/m 14,6 C 15,6 C 9,7 km/h (2 Bft) 98,11 %
06.08.2017 15:46 15,5 C 25,6 C 94 % 1020,2 hPa 0,0 l/m 8,1 km/h (2 Bft) W-SW 237 0 min 0,000 mm 0,0 UV-I 60 W/m 14,5 C 14,6 C 12,9 km/h (3 Bft) 97,56 %
06.08.2017 15:48 15,5 C 25,6 C 94 % 1020,1 hPa 0,2 l/m 4,6 km/h (1 Bft) SW 225 0 min 0,000 mm 0,0 UV-I 60 W/m 14,5 C 15,5 C 8,0 km/h (2 Bft) 98,21 %
06.08.2017 15:50 15,5 C 25,6 C 94 % 1020,1 hPa 0,0 l/m 3,9 km/h (1 Bft) W-SW 250 0 min 0,000 mm 0,0 UV-I 60 W/m 14,5 C 15,5 C 6,4 km/h (2 Bft) 97,87 %
06.08.2017 15:52 15,5 C 25,6 C 94 % 1020,1 hPa 0,2 l/m 4,4 km/h (1 Bft) SW 228 0 min 0,000 mm 0,0 UV-I 60 W/m 14,5 C 15,5 C 8,0 km/h (2 Bft) 94,74 %
06.08.2017 15:54 15,4 C 25,6 C 94 % 1020,0 hPa 0,0 l/m 6,0 km/h (2 Bft) SW 227 0 min 0,000 mm 0,0 UV-I 58 W/m 14,4 C 15,4 C 9,7 km/h (2 Bft) 98,21 %
06.08.2017 15:56 15,4 C 25,6 C 93 % 1020,1 hPa 0,0 l/m 5,2 km/h (1 Bft) SW 227 0 min 0,000 mm 0,0 UV-I 55 W/m 14,3 C 15,4 C 8,0 km/h (2 Bft) 97,87 %
06.08.2017 15:58 15,4 C 25,6 C 93 % 1020,1 hPa 0,2 l/m 4,5 km/h (1 Bft) W-SW 248 0 min 0,000 mm 0,0 UV-I 53 W/m 14,3 C 15,4 C 6,4 km/h (2 Bft) 94,44 %
06.08.2017 16:00 15,4 C 25,6 C 93 % 1020,1 hPa 0,2 l/m 4,5 km/h (1 Bft) W 260 0 min 0,025 mm 0,0 UV-I 51 W/m 14,3 C 15,4 C 6,4 km/h (2 Bft) 96,36 %
06.08.2017 16:02 15,3 C 25,6 C 93 % 1020,1 hPa 0,0 l/m 3,1 km/h (1 Bft) W-SW 252 0 min 0,000 mm 0,0 UV-I 49 W/m 14,2 C 15,3 C 4,8 km/h (1 Bft) 96,00 %
06.08.2017 16:04 15,4 C 25,6 C 94 % 1020,2 hPa 0,2 l/m 3,7 km/h (1 Bft) SW 231 0 min 0,000 mm 0,0 UV-I 44 W/m 14,4 C 15,4 C 6,4 km/h (2 Bft) 97,44 %
06.08.2017 16:06 15,4 C 25,6 C 94 % 1020,3 hPa 0,0 l/m 3,5 km/h (1 Bft) SW 230 0 min 0,000 mm 0,0 UV-I 36 W/m 14,4 C 15,4 C 4,8 km/h (1 Bft) 98,11 %
06.08.2017 16:08 15,4 C 25,6 C 94 % 1020,3 hPa 0,2 l/m 3,5 km/h (1 Bft) SW 230 0 min 0,000 mm 0,0 UV-I 36 W/m 14,4 C 15,4 C 4,8 km/h (1 Bft) 97,96 %
06.08.2017 16:10 15,4 C 25,6 C 94 % 1020,3 hPa 0,2 l/m 3,6 km/h (1 Bft) SW 231 0 min 0,000 mm 0,0 UV-I 36 W/m 14,4 C 15,4 C 4,8 km/h (1 Bft) 95,74 %
06.08.2017 16:12 15,5 C 25,6 C 94 % 1020,4 hPa 0,0 l/m 2,8 km/h (1 Bft) SW 231 0 min 0,000 mm 0,0 UV-I 33 W/m 14,5 C 15,5 C 3,2 km/h (1 Bft) 97,73 %
06.08.2017 16:14 15,4 C 25,6 C 94 % 1020,4 hPa 0,2 l/m 1,9 km/h (1 Bft) SW 231 0 min 0,000 mm 0,0 UV-I 32 W/m 14,4 C 15,4 C 3,2 km/h (1 Bft) 100,00 %
06.08.2017 16:16 15,4 C 25,6 C 94 % 1020,4 hPa 0,2 l/m 4,3 km/h (1 Bft) SW 231 0 min 0,000 mm 0,0 UV-I 28 W/m 14,4 C 15,4 C 6,4 km/h (2 Bft) 95,74 %
06.08.2017 16:18 15,4 C 25,6 C 94 % 1020,4 hPa 0,0 l/m 3,6 km/h (1 Bft) SW 231 0 min 0,000 mm 0,0 UV-I 22 W/m 14,4 C 15,4 C 6,4 km/h (2 Bft) 98,11 %
06.08.2017 16:20 15,4 C 25,6 C 94 % 1020,4 hPa 0,2 l/m 2,5 km/h (1 Bft) SW 231 0 min 0,000 mm 0,0 UV-I 19 W/m 14,4 C 15,4 C 4,8 km/h (1 Bft) 100,00 %
06.08.2017 16:22 15,4 C 25,6 C 95 % 1020,4 hPa 0,2 l/m 2,2 km/h (1 Bft) SW 231 0 min 0,000 mm 0,0 UV-I 18 W/m 14,6 C 15,4 C 4,8 km/h (1 Bft) 100,00 %
06.08.2017 16:24 15,4 C 25,6 C 95 % 1020,4 hPa 0,0 l/m 2,6 km/h (1 Bft) SW 231 0 min 0,000 mm 0,0 UV-I 16 W/m 14,6 C 15,4 C 4,8 km/h (1 Bft) 100,00 %
06.08.2017 16:26 15,4 C 25,6 C 95 % 1020,4 hPa 0,2 l/m 2,5 km/h (1 Bft) W-SW 252 0 min 0,000 mm 0,0 UV-I 18 W/m 14,6 C 15,4 C 6,4 km/h (2 Bft) 100,00 %
06.08.2017 16:28 15,4 C 25,6 C 95 % 1020,4 hPa 0,0 l/m 4,6 km/h (1 Bft) W-SW 241 0 min 0,000 mm 0,0 UV-I 19 W/m 14,6 C 15,4 C 14,5 km/h (3 Bft) 100,00 %
06.08.2017 16:30 15,4 C 25,6 C 95 % 1020,3 hPa 0,2 l/m 7,5 km/h (2 Bft) W 259 0 min 0,000 mm 0,0 UV-I 21 W/m 14,6 C 14,8 C 14,5 km/h (3 Bft) 97,56 %
06.08.2017 16:32 15,3 C 25,6 C 95 % 1020,3 hPa 0,2 l/m 7,2 km/h (2 Bft) W-SW 252 0 min 0,000 mm 0,0 UV-I 23 W/m 14,5 C 14,9 C 12,9 km/h (3 Bft) 100,00 %
06.08.2017 16:34 15,3 C 25,6 C 95 % 1020,3 hPa 0,0 l/m 9,1 km/h (2 Bft) W-SW 258 0 min 0,000 mm 0,0 UV-I 27 W/m 14,5 C 13,9 C 12,9 km/h (3 Bft) 100,00 %
06.08.2017 16:36 15,3 C 25,6 C 95 % 1020,2 hPa 0,2 l/m 7,9 km/h (2 Bft) W-SW 252 0 min 0,000 mm 0,0 UV-I 32 W/m 14,5 C 14,5 C 12,9 km/h (3 Bft) 100,00 %
06.08.2017 16:38 15,3 C 25,6 C 95 % 1020,3 hPa 0,2 l/m 6,6 km/h (2 Bft) W 269 0 min 0,000 mm 0,0 UV-I 28 W/m 14,5 C 15,2 C 11,3 km/h (2 Bft) 100,00 %
06.08.2017 16:40 15,3 C 25,6 C 95 % 1020,3 hPa 0,0 l/m 4,9 km/h (1 Bft) W-SW 254 0 min 0,000 mm 0,0 UV-I 19 W/m 14,5 C 15,3 C 6,4 km/h (2 Bft) 100,00 %
06.08.2017 16:42 15,3 C 25,6 C 95 % 1020,3 hPa 0,2 l/m 3,6 km/h (1 Bft) W-SW 254 0 min 0,000 mm 0,0 UV-I 23 W/m 14,5 C 15,3 C 4,8 km/h (1 Bft) 97,92 %
06.08.2017 16:44 15,3 C 25,6 C 95 % 1020,4 hPa 0,0 l/m 5,5 km/h (1 Bft) W 265 0 min 0,000 mm 0,0 UV-I 30 W/m 14,5 C 15,3 C 12,9 km/h (3 Bft) 100,00 %
06.08.2017 16:46 15,3 C 25,6 C 95 % 1020,4 hPa 0,2 l/m 6,6 km/h (2 Bft) SW 217 0 min 0,000 mm 0,0 UV-I 36 W/m 14,5 C 15,2 C 12,9 km/h (3 Bft) 100,00 %
06.08.2017 16:48 15,3 C 25,6 C 95 % 1020,5 hPa 0,0 l/m 5,8 km/h (2 Bft) W 259 0 min 0,000 mm 0,0 UV-I 40 W/m 14,5 C 15,3 C 9,7 km/h (2 Bft) 100,00 %
06.08.2017 16:50 15,3 C 25,6 C 95 % 1020,5 hPa 0,2 l/m 4,9 km/h (1 Bft) W-SW 257 0 min 0,000 mm 0,0 UV-I 36 W/m 14,5 C 15,3 C 11,3 km/h (2 Bft) 97,87 %
06.08.2017 16:52 15,3 C 25,6 C 95 % 1020,5 hPa 0,0 l/m 3,4 km/h (1 Bft) W-SW 248 0 min 0,000 mm 0,0 UV-I 38 W/m 14,5 C 15,3 C 6,4 km/h (2 Bft) 100,00 %
06.08.2017 16:54 15,3 C 25,6 C 95 % 1020,5 hPa 0,0 l/m 3,3 km/h (1 Bft) W-SW 249 0 min 0,000 mm 0,0 UV-I 44 W/m 14,5 C 15,3 C 4,8 km/h (1 Bft) 100,00 %
06.08.2017 16:56 15,3 C 25,6 C 95 % 1020,5 hPa 0,2 l/m 1,5 km/h (1 Bft) W-SW 249 0 min 0,000 mm 0,0 UV-I 46 W/m 14,5 C 15,3 C 3,2 km/h (1 Bft) 98,00 %
06.08.2017 16:58 15,3 C 25,6 C 95 % 1020,5 hPa 0,0 l/m 1,9 km/h (1 Bft) SW 227 0 min 0,000 mm 0,0 UV-I 44 W/m 14,5 C 15,3 C 6,4 km/h (2 Bft) 98,11 %
06.08.2017 17:00 15,2 C 25,6 C 95 % 1020,5 hPa 0,0 l/m 1,8 km/h (1 Bft) S-SW 202 0 min 0,025 mm 0,0 UV-I 42 W/m 14,4 C 15,2 C 4,8 km/h (1 Bft) 100,00 %
06.08.2017 17:02 15,3 C 25,6 C 95 % 1020,5 hPa 0,0 l/m 2,1 km/h (1 Bft) S 176 0 min 0,000 mm 0,0 UV-I 42 W/m 14,5 C 15,3 C 4,8 km/h (1 Bft) 100,00 %
06.08.2017 17:04 15,2 C 25,6 C 95 % 1020,4 hPa 0,2 l/m 1,9 km/h (1 Bft) S 175 0 min 0,000 mm 0,0 UV-I 44 W/m 14,4 C 15,2 C 3,2 km/h (1 Bft) 95,83 %
06.08.2017 17:06 15,3 C 25,6 C 95 % 1020,5 hPa 0,0 l/m 0,7 km/h (0 Bft) S 175 0 min 0,000 mm 0,0 UV-I 43 W/m 14,5 C 15,3 C 4,8 km/h (1 Bft) 100,00 %
06.08.2017 17:08 15,3 C 25,6 C 95 % 1020,6 hPa 0,0 l/m 2,4 km/h (1 Bft) S 175 0 min 0,000 mm 0,0 UV-I 37 W/m 14,5 C 15,3 C 4,8 km/h (1 Bft) 95,74 %
06.08.2017 17:10 15,3 C 25,6 C 95 % 1020,6 hPa 0,2 l/m 2,4 km/h (1 Bft) S 175 0 min 0,000 mm 0,0 UV-I 31 W/m 14,5 C 15,3 C 4,8 km/h (1 Bft) 98,00 %
06.08.2017 17:12 15,3 C 25,6 C 96 % 1020,7 hPa 0,0 l/m 3,4 km/h (1 Bft) S 176 0 min 0,000 mm 0,0 UV-I 28 W/m 14,7 C 15,3 C 8,0 km/h (2 Bft) 97,87 %
06.08.2017 17:14 15,3 C 25,6 C 96 % 1020,8 hPa 0,0 l/m 3,2 km/h (1 Bft) S-SW 207 0 min 0,000 mm 0,0 UV-I 26 W/m 14,7 C 15,3 C 8,0 km/h (2 Bft) 97,62 %
06.08.2017 17:16 15,3 C 25,6 C 96 % 1020,7 hPa 0,0 l/m 3,2 km/h (1 Bft) S-SW 207 0 min 0,000 mm 0,0 UV-I 27 W/m 14,7 C 15,3 C 6,4 km/h (2 Bft) 96,36 %
06.08.2017 17:18 15,3 C 25,6 C 96 % 1020,8 hPa 0,0 l/m 2,7 km/h (1 Bft) S-SW 206 0 min 0,000 mm 0,0 UV-I 27 W/m 14,7 C 15,3 C 4,8 km/h (1 Bft) 97,44 %
06.08.2017 17:20 15,3 C 25,6 C 95 % 1020,8 hPa 0,2 l/m 3,4 km/h (1 Bft) S 190 0 min 0,000 mm 0,0 UV-I 23 W/m 14,5 C 15,3 C 6,4 km/h (2 Bft) 96,23 %
06.08.2017 17:22 15,3 C 25,6 C 96 % 1020,9 hPa 0,0 l/m 3,8 km/h (1 Bft) S 191 0 min 0,000 mm 0,0 UV-I 18 W/m 14,7 C 15,3 C 6,4 km/h (2 Bft) 95,74 %
06.08.2017 17:24 15,3 C 25,6 C 96 % 1020,9 hPa 0,2 l/m 4,3 km/h (1 Bft) S-SW 212 0 min 0,000 mm 0,0 UV-I 16 W/m 14,7 C 15,3 C 8,0 km/h (2 Bft) 94,74 %
06.08.2017 17:26 15,3 C 25,6 C 96 % 1020,8 hPa 0,0 l/m 4,8 km/h (1 Bft) W-SW 240 0 min 0,000 mm 0,0 UV-I 18 W/m 14,7 C 15,3 C 9,7 km/h (2 Bft) 98,00 %
06.08.2017 17:28 15,3 C 25,6 C 96 % 1020,9 hPa 0,2 l/m 5,5 km/h (1 Bft) SW 234 0 min 0,000 mm 0,0 UV-I 19 W/m 14,7 C 15,3 C 8,0 km/h (2 Bft) 97,73 %
06.08.2017 17:30 15,3 C 25,6 C 96 % 1020,8 hPa 0,0 l/m 6,1 km/h (2 Bft) W-SW 258 0 min 0,000 mm 0,0 UV-I 19 W/m 14,7 C 15,3 C 9,7 km/h (2 Bft) 94,34 %
06.08.2017 17:32 15,2 C 25,6 C 96 % 1020,8 hPa 0,2 l/m 8,5 km/h (2 Bft) SW 231 0 min 0,000 mm 0,0 UV-I 20 W/m 14,6 C 14,1 C 16,1 km/h (3 Bft) 97,87 %
06.08.2017 17:34 15,2 C 25,6 C 96 % 1020,8 hPa 0,0 l/m 4,6 km/h (1 Bft) SW 225 0 min 0,000 mm 0,0 UV-I 21 W/m 14,6 C 15,2 C 8,0 km/h (2 Bft) 97,87 %
06.08.2017 17:36 15,2 C 25,6 C 96 % 1020,8 hPa 0,2 l/m 6,5 km/h (2 Bft) SW 232 0 min 0,000 mm 0,0 UV-I 21 W/m 14,6 C 15,2 C 11,3 km/h (2 Bft) 98,00 %
06.08.2017 17:38 15,2 C 25,6 C 96 % 1020,8 hPa 0,0 l/m 8,1 km/h (2 Bft) SW 217 0 min 0,000 mm 0,0 UV-I 21 W/m 14,6 C 14,3 C 12,9 km/h (3 Bft) 97,56 %
06.08.2017 17:40 15,1 C 25,6 C 96 % 1020,7 hPa 0,2 l/m 10,2 km/h (2 Bft) W-SW 250 0 min 0,000 mm 0,0 UV-I 21 W/m 14,5 C 13,1 C 17,7 km/h (3 Bft) 96,23 %
06.08.2017 17:42 15,1 C 25,6 C 95 % 1020,6 hPa 0,0 l/m 10,8 km/h (2 Bft) W-SW 250 0 min 0,000 mm 0,0 UV-I 21 W/m 14,3 C 12,9 C 16,1 km/h (3 Bft) 100,00 %
06.08.2017 17:44 15,0 C 25,6 C 95 % 1020,6 hPa 0,2 l/m 8,5 km/h (2 Bft) W-SW 240 0 min 0,000 mm 0,0 UV-I 21 W/m 14,2 C 13,8 C 16,1 km/h (3 Bft) 100,00 %
06.08.2017 17:46 15,0 C 25,6 C 95 % 1020,6 hPa 0,0 l/m 8,4 km/h (2 Bft) S-SW 213 0 min 0,000 mm 0,0 UV-I 21 W/m 14,2 C 13,9 C 14,5 km/h (3 Bft) 100,00 %
06.08.2017 17:48 14,9 C 25,6 C 95 % 1020,7 hPa 0,2 l/m 8,3 km/h (2 Bft) W-SW 245 0 min 0,000 mm 0,0 UV-I 19 W/m 14,1 C 13,8 C 12,9 km/h (3 Bft) 100,00 %
06.08.2017 17:50 15,0 C 25,6 C 95 % 1020,7 hPa 0,0 l/m 8,1 km/h (2 Bft) W-SW 240 0 min 0,000 mm 0,0 UV-I 19 W/m 14,2 C 14,0 C 12,9 km/h (3 Bft) 98,21 %
06.08.2017 17:52 14,9 C 25,6 C 95 % 1020,6 hPa 0,0 l/m 8,0 km/h (2 Bft) W 265 0 min 0,000 mm 0,0 UV-I 18 W/m 14,1 C 14,0 C 12,9 km/h (3 Bft) 97,73 %
06.08.2017 17:54 14,9 C 25,6 C 95 % 1020,6 hPa 0,2 l/m 7,4 km/h (2 Bft) SW 225 0 min 0,000 mm 0,0 UV-I 18 W/m 14,1 C 14,3 C 12,9 km/h (3 Bft) 97,62 %
06.08.2017 17:56 14,9 C 25,6 C 95 % 1020,6 hPa 0,0 l/m 10,0 km/h (2 Bft) W-SW 244 0 min 0,000 mm 0,0 UV-I 16 W/m 14,1 C 13,0 C 14,5 km/h (3 Bft) 100,00 %
06.08.2017 17:58 14,9 C 25,6 C 95 % 1020,8 hPa 0,0 l/m 8,4 km/h (2 Bft) W-SW 253 0 min 0,000 mm 0,0 UV-I 16 W/m 14,1 C 13,8 C 19,3 km/h (3 Bft) 100,00 %
06.08.2017 18:00 14,8 C 25,6 C 95 % 1020,8 hPa 0,2 l/m 12,2 km/h (2 Bft) W 259 0 min 0,026 mm 0,0 UV-I 14 W/m 14,0 C 12,0 C 19,3 km/h (3 Bft) 97,87 %
06.08.2017 18:02 14,8 C 25,6 C 95 % 1020,9 hPa 0,0 l/m 9,8 km/h (2 Bft) SW 236 0 min 0,000 mm 0,0 UV-I 14 W/m 14,0 C 13,0 C 14,5 km/h (3 Bft) 100,00 %
06.08.2017 18:04 14,8 C 25,6 C 95 % 1020,9 hPa 0,2 l/m 7,3 km/h (2 Bft) W-SW 254 0 min 0,000 mm 0,0 UV-I 14 W/m 14,0 C 14,3 C 11,3 km/h (2 Bft) 100,00 %
06.08.2017 18:06 14,8 C 25,6 C 95 % 1021,0 hPa 0,0 l/m 5,0 km/h (1 Bft) W-SW 251 0 min 0,000 mm 0,0 UV-I 14 W/m 14,0 C 14,8 C 8,0 km/h (2 Bft) 100,00 %
06.08.2017 18:08 14,7 C 25,6 C 95 % 1021,0 hPa 0,2 l/m 4,0 km/h (1 Bft) W-SW 246 0 min 0,000 mm 0,0 UV-I 13 W/m 13,9 C 14,7 C 4,8 km/h (1 Bft) 100,00 %
06.08.2017 18:10 14,7 C 25,6 C 95 % 1021,0 hPa 0,0 l/m 4,6 km/h (1 Bft) SW 230 0 min 0,000 mm 0,0 UV-I 12 W/m 13,9 C 14,7 C 8,0 km/h (2 Bft) 98,00 %
06.08.2017 18:12 14,7 C 25,0 C 95 % 1021,0 hPa 0,2 l/m 5,9 km/h (2 Bft) SW 228 0 min 0,000 mm 0,0 UV-I 12 W/m 13,9 C 14,7 C 9,7 km/h (2 Bft) 100,00 %
06.08.2017 18:14 14,7 C 25,0 C 95 % 1021,0 hPa 0,2 l/m 7,6 km/h (2 Bft) W-SW 241 0 min 0,000 mm 0,0 UV-I 12 W/m 13,9 C 14,0 C 12,9 km/h (3 Bft) 100,00 %
06.08.2017 18:16 14,7 C 25,0 C 95 % 1021,1 hPa 0,0 l/m 8,7 km/h (2 Bft) S-SW 205 0 min 0,000 mm 0,0 UV-I 11 W/m 13,9 C 13,4 C 12,9 km/h (3 Bft) 100,00 %
06.08.2017 18:18 14,7 C 25,0 C 95 % 1021,1 hPa 0,2 l/m 7,6 km/h (2 Bft) SW 219 0 min 0,000 mm 0,0 UV-I 11 W/m 13,9 C 14,0 C 14,5 km/h (3 Bft) 100,00 %
06.08.2017 18:20 14,7 C 25,0 C 95 % 1021,1 hPa 0,0 l/m 6,3 km/h (2 Bft) SW 218 0 min 0,000 mm 0,0 UV-I 11 W/m 13,9 C 14,7 C 12,9 km/h (3 Bft) 98,11 %
06.08.2017 18:22 14,7 C 25,0 C 95 % 1021,2 hPa 0,2 l/m 8,3 km/h (2 Bft) W-SW 242 0 min 0,000 mm 0,0 UV-I 11 W/m 13,9 C 13,6 C 14,5 km/h (3 Bft) 97,56 %
06.08.2017 18:24 14,7 C 25,0 C 95 % 1021,2 hPa 0,2 l/m 11,4 km/h (2 Bft) SW 221 0 min 0,000 mm 0,0 UV-I 11 W/m 13,9 C 12,2 C 20,9 km/h (4 Bft) 100,00 %
06.08.2017 18:26 14,7 C 25,0 C 95 % 1021,3 hPa 0,2 l/m 9,9 km/h (2 Bft) W-SW 248 0 min 0,000 mm 0,0 UV-I 11 W/m 13,9 C 12,8 C 14,5 km/h (3 Bft) 100,00 %
06.08.2017 18:28 14,6 C 25,0 C 95 % 1021,2 hPa 0,2 l/m 9,0 km/h (2 Bft) S 185 0 min 0,000 mm 0,0 UV-I 11 W/m 13,8 C 13,2 C 14,5 km/h (3 Bft) 100,00 %
06.08.2017 18:30 14,6 C 25,0 C 95 % 1021,2 hPa 0,2 l/m 8,0 km/h (2 Bft) SW 236 0 min 0,000 mm 0,0 UV-I 11 W/m 13,8 C 13,7 C 11,3 km/h (2 Bft) 98,21 %
06.08.2017 18:32 14,6 C 25,0 C 95 % 1021,3 hPa 0,0 l/m 5,8 km/h (2 Bft) SW 225 0 min 0,000 mm 0,0 UV-I 11 W/m 13,8 C 14,6 C 11,3 km/h (2 Bft) 97,44 %
06.08.2017 18:34 14,6 C 25,0 C 95 % 1021,2 hPa 0,2 l/m 6,6 km/h (2 Bft) SW 225 0 min 0,000 mm 0,0 UV-I 11 W/m 13,8 C 14,5 C 11,3 km/h (2 Bft) 100,00 %
06.08.2017 18:36 14,6 C 25,0 C 95 % 1021,1 hPa 0,2 l/m 5,7 km/h (1 Bft) W-SW 248 0 min 0,000 mm 0,0 UV-I 11 W/m 13,8 C 14,6 C 9,7 km/h (2 Bft) 100,00 %
06.08.2017 18:38 14,6 C 25,0 C 95 % 1021,1 hPa 0,2 l/m 6,1 km/h (2 Bft) SW 214 0 min 0,000 mm 0,0 UV-I 11 W/m 13,8 C 14,6 C 9,7 km/h (2 Bft) 100,00 %
06.08.2017 18:40 14,6 C 25,0 C 95 % 1021,1 hPa 0,2 l/m 7,3 km/h (2 Bft) SW 236 0 min 0,000 mm 0,0 UV-I 11 W/m 13,8 C 14,1 C 12,9 km/h (3 Bft) 97,56 %
06.08.2017 18:42 14,6 C 25,0 C 95 % 1021,0 hPa 0,0 l/m 5,6 km/h (1 Bft) S-SO 163 0 min 0,000 mm 0,0 UV-I 11 W/m 13,8 C 14,6 C 11,3 km/h (2 Bft) 98,11 %
06.08.2017 18:44 14,6 C 25,0 C 95 % 1020,9 hPa 0,2 l/m 4,0 km/h (1 Bft) S-SW 205 0 min 0,000 mm 0,0 UV-I 11 W/m 13,8 C 14,6 C 6,4 km/h (2 Bft) 100,00 %
06.08.2017 18:46 14,7 C 25,0 C 95 % 1020,9 hPa 0,2 l/m 4,1 km/h (1 Bft) SW 234 0 min 0,000 mm 0,0 UV-I 11 W/m 13,9 C 14,7 C 6,4 km/h (2 Bft) 100,00 %
06.08.2017 18:48 14,7 C 25,0 C 95 % 1021,0 hPa 0,0 l/m 4,2 km/h (1 Bft) S-SW 200 0 min 0,000 mm 0,0 UV-I 11 W/m 13,9 C 14,7 C 8,0 km/h (2 Bft) 97,87 %
06.08.2017 18:50 14,6 C 25,0 C 95 % 1020,9 hPa 0,2 l/m 4,7 km/h (1 Bft) SW 236 0 min 0,000 mm 0,0 UV-I 11 W/m 13,8 C 14,6 C 6,4 km/h (2 Bft) 100,00 %
06.08.2017 18:52 14,7 C 25,0 C 95 % 1020,9 hPa 0,2 l/m 3,8 km/h (1 Bft) SW 228 0 min 0,000 mm 0,0 UV-I 12 W/m 13,9 C 14,7 C 6,4 km/h (2 Bft) 100,00 %
06.08.2017 18:54 14,7 C 25,0 C 95 % 1020,9 hPa 0,2 l/m 4,0 km/h (1 Bft) W-SW 242 0 min 0,000 mm 0,0 UV-I 12 W/m 13,9 C 14,7 C 6,4 km/h (2 Bft) 96,00 %
06.08.2017 18:56 14,7 C 25,0 C 96 % 1020,8 hPa 0,2 l/m 2,9 km/h (1 Bft) W-SW 251 0 min 0,000 mm 0,0 UV-I 13 W/m 14,1 C 14,7 C 8,0 km/h (2 Bft) 95,12 %
06.08.2017 18:58 14,6 C 25,0 C 95 % 1020,8 hPa 0,0 l/m 7,3 km/h (2 Bft) SW 231 0 min 0,000 mm 0,0 UV-I 14 W/m 13,8 C 14,1 C 12,9 km/h (3 Bft) 98,00 %
06.08.2017 19:00 14,6 C 25,0 C 95 % 1020,8 hPa 0,2 l/m 7,9 km/h (2 Bft) SW 220 0 min 0,000 mm 0,0 UV-I 16 W/m 13,8 C 13,7 C 11,3 km/h (2 Bft) 97,87 %
06.08.2017 19:02 14,6 C 25,0 C 95 % 1020,8 hPa 0,2 l/m 7,8 km/h (2 Bft) W-SW 238 0 min 0,000 mm 0,0 UV-I 18 W/m 13,8 C 13,8 C 9,7 km/h (2 Bft) 98,00 %
06.08.2017 19:04 14,6 C 25,0 C 95 % 1020,8 hPa 0,0 l/m 7,3 km/h (2 Bft) SW 235 0 min 0,000 mm 0,0 UV-I 19 W/m 13,8 C 14,1 C 11,3 km/h (2 Bft) 96,23 %
06.08.2017 19:06 14,6 C 25,0 C 95 % 1020,8 hPa 0,2 l/m 8,0 km/h (2 Bft) SW 222 0 min 0,000 mm 0,0 UV-I 22 W/m 13,8 C 13,7 C 11,3 km/h (2 Bft) 95,12 %
06.08.2017 19:08 14,6 C 25,0 C 96 % 1020,8 hPa 0,2 l/m 8,5 km/h (2 Bft) W-SW 240 0 min 0,000 mm 0,0 UV-I 25 W/m 14,0 C 13,4 C 12,9 km/h (3 Bft) 96,00 %
06.08.2017 19:10 14,6 C 25,0 C 96 % 1020,7 hPa 0,0 l/m 6,4 km/h (2 Bft) W-SW 239 0 min 0,000 mm 0,0 UV-I 30 W/m 14,0 C 14,6 C 11,3 km/h (2 Bft) 95,12 %
06.08.2017 19:12 14,6 C 25,0 C 96 % 1020,8 hPa 0,2 l/m 5,4 km/h (1 Bft) SW 215 0 min 0,000 mm 0,0 UV-I 33 W/m 14,0 C 14,6 C 9,7 km/h (2 Bft) 92,00 %
06.08.2017 19:14 14,6 C 25,0 C 96 % 1020,8 hPa 0,0 l/m 6,1 km/h (2 Bft) W-SW 241 0 min 0,000 mm 0,0 UV-I 36 W/m 14,0 C 14,6 C 9,7 km/h (2 Bft) 96,23 %
06.08.2017 19:16 14,6 C 25,0 C 96 % 1020,8 hPa 0,2 l/m 5,7 km/h (1 Bft) SW 236 0 min 0,000 mm 0,0 UV-I 40 W/m 14,0 C 14,6 C 9,7 km/h (2 Bft) 92,86 %
06.08.2017 19:18 14,6 C 25,0 C 95 % 1020,9 hPa 0,0 l/m 6,0 km/h (2 Bft) SW 219 0 min 0,000 mm 0,0 UV-I 40 W/m 13,8 C 14,6 C 9,7 km/h (2 Bft) 95,12 %
06.08.2017 19:20 14,6 C 25,0 C 96 % 1020,9 hPa 0,2 l/m 4,3 km/h (1 Bft) SW 234 0 min 0,000 mm 0,0 UV-I 39 W/m 14,0 C 14,6 C 8,0 km/h (2 Bft) 94,34 %
06.08.2017 19:22 14,6 C 25,0 C 96 % 1020,8 hPa 0,2 l/m 5,8 km/h (2 Bft) SW 228 0 min 0,000 mm 0,0 UV-I 37 W/m 14,0 C 14,6 C 8,0 km/h (2 Bft) 94,00 %
06.08.2017 19:24 14,6 C 25,0 C 96 % 1020,9 hPa 0,0 l/m 5,6 km/h (1 Bft) SW 232 0 min 0,000 mm 0,0 UV-I 37 W/m 14,0 C 14,6 C 8,0 km/h (2 Bft) 97,37 %
06.08.2017 19:26 14,6 C 25,0 C 96 % 1020,9 hPa 0,2 l/m 3,0 km/h (1 Bft) S-SW 200 0 min 0,000 mm 0,0 UV-I 35 W/m 14,0 C 14,6 C 4,8 km/h (1 Bft) 92,45 %
06.08.2017 19:28 14,6 C 25,0 C 96 % 1021,0 hPa 0,0 l/m 3,4 km/h (1 Bft) SW 224 0 min 0,000 mm 0,0 UV-I 35 W/m 14,0 C 14,6 C 6,4 km/h (2 Bft) 96,00 %
06.08.2017 19:30 14,6 C 25,0 C 96 % 1020,9 hPa 0,0 l/m 2,8 km/h (1 Bft) SW 224 0 min 0,000 mm 0,0 UV-I 37 W/m 14,0 C 14,6 C 4,8 km/h (1 Bft) 95,12 %
06.08.2017 19:32 14,7 C 25,0 C 96 % 1020,9 hPa 0,2 l/m 4,8 km/h (1 Bft) S-SW 213 0 min 0,000 mm 0,0 UV-I 37 W/m 14,1 C 14,7 C 6,4 km/h (2 Bft) 96,00 %
06.08.2017 19:34 14,7 C 25,0 C 96 % 1020,9 hPa 0,0 l/m 5,1 km/h (1 Bft) S-SW 202 0 min 0,000 mm 0,0 UV-I 37 W/m 14,1 C 14,7 C 9,7 km/h (2 Bft) 93,62 %
06.08.2017 19:36 14,6 C 25,0 C 96 % 1020,9 hPa 0,0 l/m 4,5 km/h (1 Bft) SW 217 0 min 0,000 mm 0,0 UV-I 35 W/m 14,0 C 14,6 C 6,4 km/h (2 Bft) 97,37 %
06.08.2017 19:38 14,6 C 25,0 C 96 % 1020,8 hPa 0,0 l/m 4,4 km/h (1 Bft) W-SW 242 0 min 0,000 mm 0,0 UV-I 35 W/m 14,0 C 14,6 C 6,4 km/h (2 Bft) 91,53 %
06.08.2017 19:40 14,7 C 25,0 C 96 % 1020,8 hPa 0,0 l/m 5,9 km/h (2 Bft) SW 220 0 min 0,000 mm 0,0 UV-I 35 W/m 14,1 C 14,7 C 8,0 km/h (2 Bft) 97,37 %
06.08.2017 19:42 14,7 C 25,0 C 96 % 1020,8 hPa 0,0 l/m 3,8 km/h (1 Bft) SW 215 0 min 0,000 mm 0,0 UV-I 34 W/m 14,1 C 14,7 C 6,4 km/h (2 Bft) 98,21 %
06.08.2017 19:44 14,7 C 25,0 C 96 % 1020,9 hPa 0,0 l/m 4,5 km/h (1 Bft) SW 232 0 min 0,000 mm 0,0 UV-I 33 W/m 14,1 C 14,7 C 9,7 km/h (2 Bft) 97,14 %
06.08.2017 19:46 14,7 C 25,0 C 96 % 1020,8 hPa 0,2 l/m 5,8 km/h (2 Bft) W-SW 238 0 min 0,000 mm 0,0 UV-I 31 W/m 14,1 C 14,7 C 11,3 km/h (2 Bft) 98,00 %
06.08.2017 19:48 14,7 C 25,0 C 96 % 1020,7 hPa 0,0 l/m 4,7 km/h (1 Bft) W-SW 253 0 min 0,000 mm 0,0 UV-I 30 W/m 14,1 C 14,7 C 8,0 km/h (2 Bft) 95,24 %
06.08.2017 19:50 14,7 C 25,0 C 96 % 1020,6 hPa 0,0 l/m 3,5 km/h (1 Bft) W 263 0 min 0,000 mm 0,0 UV-I 29 W/m 14,1 C 14,7 C 6,4 km/h (2 Bft) 98,08 %
06.08.2017 19:53 14,6 C 25,0 C 96 % 1020,6 hPa 0,0 l/m 3,6 km/h (1 Bft) W 263 0 min 0,000 mm 0,0 UV-I 26 W/m 14,0 C 14,6 C 6,4 km/h (2 Bft) 97,40 %
06.08.2017 19:54 14,6 C 25,0 C 96 % 1020,6 hPa 0,0 l/m 4,4 km/h (1 Bft) W 263 0 min 0,000 mm 0,0 UV-I 23 W/m 14,0 C 14,6 C 6,4 km/h (2 Bft) 100,00 %
06.08.2017 19:56 14,6 C 25,0 C 96 % 1020,6 hPa 0,0 l/m 2,8 km/h (1 Bft) W 263 0 min 0,000 mm 0,0 UV-I 19 W/m 14,0 C 14,6 C 4,8 km/h (1 Bft) 98,00 %
06.08.2017 19:58 14,6 C 25,0 C 96 % 1020,7 hPa 0,0 l/m 2,9 km/h (1 Bft) W 263 0 min 0,000 mm 0,0 UV-I 14 W/m 14,0 C 14,6 C 4,8 km/h (1 Bft) 96,23 %
06.08.2017 20:00 14,6 C 25,0 C 96 % 1020,6 hPa 0,0 l/m 3,1 km/h (1 Bft) W 263 0 min 0,025 mm 0,0 UV-I 12 W/m 14,0 C 14,6 C 4,8 km/h (1 Bft) 100,00 %
06.08.2017 20:02 14,6 C 25,0 C 96 % 1020,5 hPa 0,0 l/m 2,0 km/h (1 Bft) W 263 0 min 0,000 mm 0,0 UV-I 11 W/m 14,0 C 14,6 C 4,8 km/h (1 Bft) 96,55 %
06.08.2017 20:04 14,6 C 25,0 C 96 % 1020,6 hPa 0,0 l/m 1,6 km/h (1 Bft) W 263 0 min 0,000 mm 0,0 UV-I 10 W/m 14,0 C 14,6 C 3,2 km/h (1 Bft) 98,46 %
06.08.2017 20:06 14,6 C 25,0 C 96 % 1020,6 hPa 0,0 l/m 2,8 km/h (1 Bft) W 263 0 min 0,000 mm 0,0 UV-I 8 W/m 14,0 C 14,6 C 4,8 km/h (1 Bft) 97,56 %
06.08.2017 20:08 14,6 C 25,0 C 96 % 1020,8 hPa 0,0 l/m 3,6 km/h (1 Bft) W 261 0 min 0,000 mm 0,0 UV-I 7 W/m 14,0 C 14,6 C 4,8 km/h (1 Bft) 100,00 %
06.08.2017 20:10 14,6 C 25,0 C 96 % 1020,9 hPa 0,0 l/m 4,9 km/h (1 Bft) SW 231 0 min 0,000 mm 0,0 UV-I 6 W/m 14,0 C 14,6 C 6,4 km/h (2 Bft) 100,00 %
06.08.2017 20:12 14,6 C 25,0 C 96 % 1021,0 hPa 0,0 l/m 5,7 km/h (1 Bft) SW 230 0 min 0,000 mm 0,0 UV-I 5 W/m 14,0 C 14,6 C 11,3 km/h (2 Bft) 100,00 %
06.08.2017 20:14 14,6 C 25,0 C 96 % 1021,1 hPa 0,0 l/m 4,1 km/h (1 Bft) W 270 0 min 0,000 mm 0,0 UV-I 5 W/m 14,0 C 14,6 C 6,4 km/h (2 Bft) 97,87 %
06.08.2017 20:16 14,6 C 25,0 C 96 % 1021,1 hPa 0,0 l/m 5,3 km/h (1 Bft) SW 230 0 min 0,000 mm 0,0 UV-I 5 W/m 14,0 C 14,6 C 6,4 km/h (2 Bft) 98,00 %
06.08.2017 20:18 14,6 C 25,0 C 96 % 1021,2 hPa 0,0 l/m 3,6 km/h (1 Bft) SW 231 0 min 0,000 mm 0,0 UV-I 5 W/m 14,0 C 14,6 C 6,4 km/h (2 Bft) 96,23 %
06.08.2017 20:20 14,6 C 25,0 C 96 % 1021,2 hPa 0,0 l/m 3,5 km/h (1 Bft) SW 232 0 min 0,000 mm 0,0 UV-I 5 W/m 14,0 C 14,6 C 4,8 km/h (1 Bft) 100,00 %
06.08.2017 20:22 14,6 C 25,0 C 96 % 1021,3 hPa 0,0 l/m 4,2 km/h (1 Bft) W-SW 240 0 min 0,000 mm 0,0 UV-I 3 W/m 14,0 C 14,6 C 8,0 km/h (2 Bft) 100,00 %
06.08.2017 20:24 14,6 C 25,0 C 96 % 1021,3 hPa 0,0 l/m 4,8 km/h (1 Bft) W-SW 257 0 min 0,000 mm 0,0 UV-I 0 W/m 14,0 C 14,6 C 6,4 km/h (2 Bft) 98,11 %
06.08.2017 20:26 14,6 C 25,0 C 96 % 1021,3 hPa 0,0 l/m 4,9 km/h (1 Bft) W-SW 244 0 min 0,000 mm 0,0 UV-I 0 W/m 14,0 C 14,6 C 6,4 km/h (2 Bft) 97,37 %
06.08.2017 20:28 14,7 C 25,0 C 96 % 1021,3 hPa 0,0 l/m 4,0 km/h (1 Bft) W-SW 244 0 min 0,000 mm 0,0 UV-I 4 W/m 14,1 C 14,7 C 6,4 km/h (2 Bft) 100,00 %
06.08.2017 20:30 14,7 C 25,0 C 96 % 1021,4 hPa 0,0 l/m 4,9 km/h (1 Bft) W-SW 238 0 min 0,000 mm 0,0 UV-I 5 W/m 14,1 C 14,7 C 9,7 km/h (2 Bft) 100,00 %
06.08.2017 20:32 14,7 C 25,0 C 96 % 1021,4 hPa 0,0 l/m 5,2 km/h (1 Bft) W-SW 258 0 min 0,000 mm 0,0 UV-I 5 W/m 14,1 C 14,7 C 8,0 km/h (2 Bft) 97,22 %
06.08.2017 20:34 14,7 C 25,0 C 96 % 1021,4 hPa 0,0 l/m 6,6 km/h (2 Bft) W-SW 250 0 min 0,000 mm 0,0 UV-I 5 W/m 14,1 C 14,6 C 11,3 km/h (2 Bft) 100,00 %
06.08.2017 20:36 14,7 C 25,0 C 96 % 1021,4 hPa 0,0 l/m 3,5 km/h (1 Bft) W 269 0 min 0,000 mm 0,0 UV-I 5 W/m 14,1 C 14,7 C 6,4 km/h (2 Bft) 97,14 %
06.08.2017 20:38 14,7 C 25,0 C 96 % 1021,4 hPa 0,0 l/m 1,8 km/h (1 Bft) SW 223 0 min 0,000 mm 0,0 UV-I 4 W/m 14,1 C 14,7 C 6,4 km/h (2 Bft) 98,53 %
06.08.2017 20:40 14,7 C 25,0 C 96 % 1021,4 hPa 0,0 l/m 3,4 km/h (1 Bft) W-SW 253 0 min 0,000 mm 0,0 UV-I 0 W/m 14,1 C 14,7 C 6,4 km/h (2 Bft) 97,87 %
06.08.2017 20:42 14,7 C 25,0 C 96 % 1021,4 hPa 0,0 l/m 4,9 km/h (1 Bft) W-SW 244 0 min 0,000 mm 0,0 UV-I 0 W/m 14,1 C 14,7 C 8,0 km/h (2 Bft) 95,65 %
06.08.2017 20:44 14,7 C 25,0 C 96 % 1021,5 hPa 0,0 l/m 5,3 km/h (1 Bft) W 264 0 min 0,000 mm 0,0 UV-I 0 W/m 14,1 C 14,7 C 9,7 km/h (2 Bft) 100,00 %
06.08.2017 20:46 14,7 C 25,0 C 96 % 1021,5 hPa 0,0 l/m 4,2 km/h (1 Bft) W 264 0 min 0,000 mm 0,0 UV-I 0 W/m 14,1 C 14,7 C 6,4 km/h (2 Bft) 97,37 %
06.08.2017 20:48 14,7 C 25,0 C 96 % 1021,5 hPa 0,2 l/m 4,1 km/h (1 Bft) W 259 0 min 0,000 mm 0,0 UV-I 0 W/m 14,1 C 14,7 C 6,4 km/h (2 Bft) 100,00 %
06.08.2017 20:50 14,7 C 25,0 C 96 % 1021,6 hPa 0,0 l/m 5,5 km/h (1 Bft) W-SW 244 0 min 0,000 mm 0,0 UV-I 0 W/m 14,1 C 14,7 C 11,3 km/h (2 Bft) 100,00 %
06.08.2017 20:52 14,7 C 25,0 C 96 % 1021,6 hPa 0,0 l/m 4,6 km/h (1 Bft) W-SW 251 0 min 0,000 mm 0,0 UV-I 0 W/m 14,1 C 14,7 C 8,0 km/h (2 Bft) 98,11 %
06.08.2017 20:54 14,7 C 25,0 C 96 % 1021,6 hPa 0,0 l/m 4,3 km/h (1 Bft) W-SW 255 0 min 0,000 mm 0,0 UV-I 0 W/m 14,1 C 14,7 C 6,4 km/h (2 Bft) 100,00 %
06.08.2017 20:56 14,7 C 25,0 C 96 % 1021,6 hPa 0,0 l/m 6,1 km/h (2 Bft) W-SW 250 0 min 0,000 mm 0,0 UV-I 0 W/m 14,1 C 14,7 C 9,7 km/h (2 Bft) 100,00 %
06.08.2017 20:58 14,7 C 25,0 C 96 % 1021,7 hPa 0,0 l/m 5,6 km/h (1 Bft) W 267 0 min 0,000 mm 0,0 UV-I 0 W/m 14,1 C 14,7 C 9,7 km/h (2 Bft) 100,00 %
06.08.2017 21:00 14,7 C 25,0 C 96 % 1021,8 hPa 0,0 l/m 4,1 km/h (1 Bft) W 259 0 min 0,000 mm 0,0 UV-I 0 W/m 14,1 C 14,7 C 8,0 km/h (2 Bft) 100,00 %
06.08.2017 21:02 14,7 C 25,0 C 96 % 1021,8 hPa 0,0 l/m 5,7 km/h (1 Bft) W 267 0 min 0,000 mm 0,0 UV-I 0 W/m 14,1 C 14,7 C 8,0 km/h (2 Bft) 97,37 %
06.08.2017 21:04 14,7 C 25,0 C 96 % 1021,9 hPa 0,0 l/m 4,8 km/h (1 Bft) W 259 0 min 0,000 mm 0,0 UV-I 0 W/m 14,1 C 14,7 C 6,4 km/h (2 Bft) 100,00 %
06.08.2017 21:06 14,7 C 25,0 C 96 % 1021,9 hPa 0,0 l/m 4,4 km/h (1 Bft) W 259 0 min 0,000 mm 0,0 UV-I 0 W/m 14,1 C 14,7 C 8,0 km/h (2 Bft) 97,87 %
06.08.2017 21:08 14,7 C 25,0 C 96 % 1021,9 hPa 0,0 l/m 3,5 km/h (1 Bft) W-SW 252 0 min 0,000 mm 0,0 UV-I 0 W/m 14,1 C 14,7 C 4,8 km/h (1 Bft) 100,00 %
06.08.2017 21:10 14,7 C 25,0 C 96 % 1022,0 hPa 0,0 l/m 4,1 km/h (1 Bft) SW 236 0 min 0,000 mm 0,0 UV-I 0 W/m 14,1 C 14,7 C 6,4 km/h (2 Bft) 94,23 %
06.08.2017 21:12 14,7 C 25,0 C 96 % 1022,1 hPa 0,0 l/m 3,9 km/h (1 Bft) SW 236 0 min 0,000 mm 0,0 UV-I 0 W/m 14,1 C 14,7 C 6,4 km/h (2 Bft) 97,22 %
06.08.2017 21:14 14,7 C 25,0 C 96 % 1022,1 hPa 0,0 l/m 4,8 km/h (1 Bft) SW 236 0 min 0,000 mm 0,0 UV-I 0 W/m 14,1 C 14,7 C 8,0 km/h (2 Bft) 98,31 %
06.08.2017 21:16 14,7 C 25,0 C 96 % 1022,2 hPa 0,0 l/m 5,0 km/h (1 Bft) SW 236 0 min 0,000 mm 0,0 UV-I 0 W/m 14,1 C 14,7 C 8,0 km/h (2 Bft) 97,56 %
06.08.2017 21:18 14,7 C 25,0 C 96 % 1022,3 hPa 0,0 l/m 6,8 km/h (2 Bft) W-SW 239 0 min 0,000 mm 0,0 UV-I 0 W/m 14,1 C 14,5 C 8,0 km/h (2 Bft) 96,23 %
06.08.2017 21:20 14,7 C 25,0 C 96 % 1022,2 hPa 0,0 l/m 6,5 km/h (2 Bft) SW 226 0 min 0,000 mm 0,0 UV-I 0 W/m 14,1 C 14,7 C 9,7 km/h (2 Bft) 98,00 %
06.08.2017 21:22 14,6 C 25,0 C 96 % 1022,2 hPa 0,0 l/m 6,4 km/h (2 Bft) SW 230 0 min 0,000 mm 0,0 UV-I 0 W/m 14,0 C 14,6 C 9,7 km/h (2 Bft) 97,37 %
06.08.2017 21:24 14,6 C 25,0 C 96 % 1022,2 hPa 0,0 l/m 5,7 km/h (1 Bft) W-SW 242 0 min 0,000 mm 0,0 UV-I 0 W/m 14,0 C 14,6 C 8,0 km/h (2 Bft) 98,00 %
06.08.2017 21:26 14,6 C 25,0 C 96 % 1022,2 hPa 0,0 l/m 4,8 km/h (1 Bft) S-SW 209 0 min 0,000 mm 0,0 UV-I 0 W/m 14,0 C 14,6 C 9,7 km/h (2 Bft) 96,00 %
06.08.2017 21:28 14,6 C 25,0 C 96 % 1022,2 hPa 0,0 l/m 6,3 km/h (2 Bft) SW 224 0 min 0,000 mm 0,0 UV-I 0 W/m 14,0 C 14,6 C 9,7 km/h (2 Bft) 97,56 %
06.08.2017 21:30 14,6 C 25,0 C 96 % 1022,2 hPa 0,0 l/m 5,7 km/h (1 Bft) SW 229 0 min 0,000 mm 0,0 UV-I 0 W/m 14,0 C 14,6 C 8,0 km/h (2 Bft) 97,56 %
06.08.2017 21:32 14,6 C 25,0 C 96 % 1022,2 hPa 0,0 l/m 3,1 km/h (1 Bft) SW 229 0 min 0,000 mm 0,0 UV-I 0 W/m 14,0 C 14,6 C 6,4 km/h (2 Bft) 98,39 %
06.08.2017 21:34 14,7 C 25,0 C 96 % 1022,2 hPa 0,0 l/m 3,0 km/h (1 Bft) SW 229 0 min 0,000 mm 0,0 UV-I 0 W/m 14,1 C 14,7 C 4,8 km/h (1 Bft) 96,15 %
06.08.2017 21:36 14,7 C 25,0 C 96 % 1022,2 hPa 0,0 l/m 4,2 km/h (1 Bft) SW 229 0 min 0,000 mm 0,0 UV-I 0 W/m 14,1 C 14,7 C 6,4 km/h (2 Bft) 96,92 %
06.08.2017 21:38 14,7 C 25,0 C 96 % 1022,2 hPa 0,0 l/m 3,0 km/h (1 Bft) SW 229 0 min 0,000 mm 0,0 UV-I 0 W/m 14,1 C 14,7 C 4,8 km/h (1 Bft) 95,74 %
06.08.2017 21:40 14,7 C 25,0 C 96 % 1022,2 hPa 0,0 l/m 3,1 km/h (1 Bft) SW 229 0 min 0,000 mm 0,0 UV-I 0 W/m 14,1 C 14,7 C 6,4 km/h (2 Bft) 100,00 %
06.08.2017 21:42 14,7 C 25,0 C 96 % 1022,2 hPa 0,0 l/m 2,0 km/h (1 Bft) SW 229 0 min 0,000 mm 0,0 UV-I 0 W/m 14,1 C 14,7 C 6,4 km/h (2 Bft) 100,00 %
06.08.2017 21:44 14,7 C 25,0 C 96 % 1022,3 hPa 0,0 l/m 4,0 km/h (1 Bft) SW 229 0 min 0,000 mm 0,0 UV-I 0 W/m 14,1 C 14,7 C 6,4 km/h (2 Bft) 100,00 %
06.08.2017 21:46 14,7 C 25,0 C 96 % 1022,3 hPa 0,0 l/m 2,9 km/h (1 Bft) SW 229 0 min 0,000 mm 0,0 UV-I 0 W/m 14,1 C 14,7 C 4,8 km/h (1 Bft) 100,00 %
06.08.2017 21:48 14,7 C 25,0 C 96 % 1022,2 hPa 0,0 l/m 2,9 km/h (1 Bft) SW 229 0 min 0,000 mm 0,0 UV-I 0 W/m 14,1 C 14,7 C 4,8 km/h (1 Bft) 100,00 %
06.08.2017 21:50 14,7 C 25,0 C 96 % 1022,2 hPa 0,0 l/m 3,5 km/h (1 Bft) SW 231 0 min 0,000 mm 0,0 UV-I 0 W/m 14,1 C 14,7 C 6,4 km/h (2 Bft) 100,00 %
06.08.2017 21:52 14,7 C 25,0 C 96 % 1022,0 hPa 0,0 l/m 1,5 km/h (1 Bft) SW 231 0 min 0,000 mm 0,0 UV-I 0 W/m 14,1 C 14,7 C 3,2 km/h (1 Bft) 100,00 %
06.08.2017 21:54 14,7 C 25,0 C 96 % 1021,9 hPa 0,0 l/m 1,0 km/h (0 Bft) SW 231 0 min 0,000 mm 0,0 UV-I 0 W/m 14,1 C 14,7 C 1,6 km/h (1 Bft) 100,00 %
06.08.2017 21:56 14,7 C 25,0 C 96 % 1021,9 hPa 0,0 l/m 2,7 km/h (1 Bft) SW 231 0 min 0,000 mm 0,0 UV-I 0 W/m 14,1 C 14,7 C 4,8 km/h (1 Bft) 100,00 %
06.08.2017 21:58 14,7 C 25,0 C 96 % 1021,9 hPa 0,0 l/m 2,6 km/h (1 Bft) SW 231 0 min 0,000 mm 0,0 UV-I 0 W/m 14,1 C 14,7 C 4,8 km/h (1 Bft) 97,87 %
06.08.2017 22:00 14,7 C 25,0 C 96 % 1021,9 hPa 0,0 l/m 1,3 km/h (1 Bft) SW 231 0 min 0,000 mm 0,0 UV-I 0 W/m 14,1 C 14,7 C 3,2 km/h (1 Bft) 97,73 %
06.08.2017 22:02 14,7 C 25,0 C 96 % 1021,9 hPa 0,0 l/m 1,6 km/h (1 Bft) SW 231 0 min 0,000 mm 0,0 UV-I 0 W/m 14,1 C 14,7 C 3,2 km/h (1 Bft) 100,00 %
06.08.2017 22:04 14,7 C 25,0 C 96 % 1021,8 hPa 0,0 l/m 3,7 km/h (1 Bft) W 265 0 min 0,000 mm 0,0 UV-I 0 W/m 14,1 C 14,7 C 6,4 km/h (2 Bft) 100,00 %
06.08.2017 22:06 14,7 C 25,0 C 96 % 1021,8 hPa 0,0 l/m 2,3 km/h (1 Bft) W 265 0 min 0,000 mm 0,0 UV-I 0 W/m 14,1 C 14,7 C 4,8 km/h (1 Bft) 98,39 %
06.08.2017 22:08 14,7 C 25,0 C 96 % 1021,8 hPa 0,0 l/m 3,4 km/h (1 Bft) W 265 0 min 0,000 mm 0,0 UV-I 0 W/m 14,1 C 14,7 C 4,8 km/h (1 Bft) 100,00 %
06.08.2017 22:10 14,7 C 25,0 C 96 % 1021,8 hPa 0,0 l/m 2,5 km/h (1 Bft) W 265 0 min 0,000 mm 0,0 UV-I 0 W/m 14,1 C 14,7 C 4,8 km/h (1 Bft) 100,00 %
06.08.2017 22:12 14,7 C 25,0 C 96 % 1021,8 hPa 0,0 l/m 3,2 km/h (1 Bft) W 264 0 min 0,000 mm 0,0 UV-I 0 W/m 14,1 C 14,7 C 4,8 km/h (1 Bft) 100,00 %
06.08.2017 22:14 14,7 C 25,0 C 96 % 1021,8 hPa 0,0 l/m 3,1 km/h (1 Bft) W 264 0 min 0,000 mm 0,0 UV-I 0 W/m 14,1 C 14,7 C 4,8 km/h (1 Bft) 100,00 %
06.08.2017 22:16 14,7 C 25,0 C 96 % 1021,9 hPa 0,0 l/m 1,9 km/h (1 Bft) W 265 0 min 0,000 mm 0,0 UV-I 0 W/m 14,1 C 14,7 C 3,2 km/h (1 Bft) 100,00 %
06.08.2017 22:18 14,7 C 25,0 C 96 % 1021,9 hPa 0,0 l/m 3,5 km/h (1 Bft) W 265 0 min 0,000 mm 0,0 UV-I 0 W/m 14,1 C 14,7 C 6,4 km/h (2 Bft) 94,74 %
06.08.2017 22:20 14,7 C 24,4 C 96 % 1021,8 hPa 0,0 l/m 4,1 km/h (1 Bft) W 264 0 min 0,000 mm 0,0 UV-I 0 W/m 14,1 C 14,7 C 6,4 km/h (2 Bft) 97,87 %
06.08.2017 22:22 14,7 C 25,0 C 96 % 1021,7 hPa 0,0 l/m 2,3 km/h (1 Bft) W 264 0 min 0,000 mm 0,0 UV-I 0 W/m 14,1 C 14,7 C 4,8 km/h (1 Bft) 100,00 %
06.08.2017 22:24 14,7 C 25,0 C 96 % 1021,6 hPa 0,0 l/m 1,7 km/h (1 Bft) W 264 0 min 0,000 mm 0,0 UV-I 0 W/m 14,1 C 14,7 C 3,2 km/h (1 Bft) 100,00 %
06.08.2017 22:26 14,7 C 24,4 C 96 % 1021,6 hPa 0,0 l/m 3,1 km/h (1 Bft) W 264 0 min 0,000 mm 0,0 UV-I 0 W/m 14,1 C 14,7 C 4,8 km/h (1 Bft) 100,00 %
06.08.2017 22:28 14,7 C 24,4 C 96 % 1021,5 hPa 0,0 l/m 3,0 km/h (1 Bft) W 264 0 min 0,000 mm 0,0 UV-I 0 W/m 14,1 C 14,7 C 4,8 km/h (1 Bft) 100,00 %
06.08.2017 22:30 14,7 C 24,4 C 96 % 1021,5 hPa 0,0 l/m 4,9 km/h (1 Bft) W-SW 254 0 min 0,000 mm 0,0 UV-I 0 W/m 14,1 C 14,7 C 8,0 km/h (2 Bft) 100,00 %
06.08.2017 22:32 14,7 C 24,4 C 96 % 1021,5 hPa 0,0 l/m 4,4 km/h (1 Bft) W-SW 253 0 min 0,000 mm 0,0 UV-I 0 W/m 14,1 C 14,7 C 6,4 km/h (2 Bft) 100,00 %
06.08.2017 22:34 14,7 C 24,4 C 96 % 1021,4 hPa 0,0 l/m 4,7 km/h (1 Bft) SW 229 0 min 0,000 mm 0,0 UV-I 0 W/m 14,1 C 14,7 C 8,0 km/h (2 Bft) 100,00 %
06.08.2017 22:36 14,7 C 24,4 C 96 % 1021,4 hPa 0,0 l/m 4,3 km/h (1 Bft) S-SW 211 0 min 0,000 mm 0,0 UV-I 0 W/m 14,1 C 14,7 C 9,7 km/h (2 Bft) 100,00 %
06.08.2017 22:38 14,7 C 24,4 C 96 % 1021,3 hPa 0,0 l/m 3,8 km/h (1 Bft) S-SW 211 0 min 0,000 mm 0,0 UV-I 0 W/m 14,1 C 14,7 C 4,8 km/h (1 Bft) 100,00 %
06.08.2017 22:40 14,7 C 24,4 C 96 % 1021,3 hPa 0,0 l/m 3,5 km/h (1 Bft) SW 233 0 min 0,000 mm 0,0 UV-I 0 W/m 14,1 C 14,7 C 4,8 km/h (1 Bft) 98,11 %
06.08.2017 22:42 14,7 C 24,4 C 96 % 1021,3 hPa 0,0 l/m 3,6 km/h (1 Bft) W-SW 238 0 min 0,000 mm 0,0 UV-I 0 W/m 14,1 C 14,7 C 6,4 km/h (2 Bft) 96,15 %
06.08.2017 22:44 14,7 C 24,4 C 96 % 1021,3 hPa 0,0 l/m 3,4 km/h (1 Bft) SW 236 0 min 0,000 mm 0,0 UV-I 0 W/m 14,1 C 14,7 C 4,8 km/h (1 Bft) 98,46 %
06.08.2017 22:46 14,7 C 24,4 C 96 % 1021,3 hPa 0,0 l/m 2,3 km/h (1 Bft) SW 236 0 min 0,000 mm 0,0 UV-I 0 W/m 14,1 C 14,7 C 3,2 km/h (1 Bft) 97,56 %
06.08.2017 22:48 14,7 C 24,4 C 96 % 1021,4 hPa 0,0 l/m 4,0 km/h (1 Bft) W-SW 237 0 min 0,000 mm 0,0 UV-I 0 W/m 14,1 C 14,7 C 4,8 km/h (1 Bft) 96,00 %
06.08.2017 22:50 14,7 C 24,4 C 96 % 1021,4 hPa 0,0 l/m 2,6 km/h (1 Bft) W 260 0 min 0,000 mm 0,0 UV-I 0 W/m 14,1 C 14,7 C 4,8 km/h (1 Bft) 95,74 %
06.08.2017 22:52 14,7 C 24,4 C 96 % 1021,5 hPa 0,0 l/m 2,6 km/h (1 Bft) W 260 0 min 0,000 mm 0,0 UV-I 0 W/m 14,1 C 14,7 C 4,8 km/h (1 Bft) 98,11 %
06.08.2017 22:54 14,7 C 24,4 C 96 % 1021,5 hPa 0,0 l/m 4,3 km/h (1 Bft) W-SW 252 0 min 0,000 mm 0,0 UV-I 0 W/m 14,1 C 14,7 C 6,4 km/h (2 Bft) 97,87 %
06.08.2017 22:56 14,7 C 24,4 C 96 % 1021,6 hPa 0,0 l/m 4,8 km/h (1 Bft) W-SW 254 0 min 0,000 mm 0,0 UV-I 0 W/m 14,1 C 14,7 C 8,0 km/h (2 Bft) 97,87 %
06.08.2017 22:58 14,7 C 24,4 C 96 % 1021,6 hPa 0,0 l/m 3,9 km/h (1 Bft) W-SW 249 0 min 0,000 mm 0,0 UV-I 0 W/m 14,1 C 14,7 C 6,4 km/h (2 Bft) 97,56 %
06.08.2017 23:00 14,7 C 24,4 C 96 % 1021,7 hPa 0,0 l/m 2,5 km/h (1 Bft) W-SW 249 0 min 0,000 mm 0,0 UV-I 0 W/m 14,1 C 14,7 C 4,8 km/h (1 Bft) 97,87 %
06.08.2017 23:02 14,7 C 24,4 C 96 % 1021,8 hPa 0,0 l/m 2,9 km/h (1 Bft) W-SW 249 0 min 0,000 mm 0,0 UV-I 0 W/m 14,1 C 14,7 C 4,8 km/h (1 Bft) 95,45 %
06.08.2017 23:04 14,7 C 24,4 C 96 % 1021,9 hPa 0,0 l/m 3,3 km/h (1 Bft) W-SW 250 0 min 0,000 mm 0,0 UV-I 0 W/m 14,1 C 14,7 C 4,8 km/h (1 Bft) 98,11 %
06.08.2017 23:06 14,7 C 24,4 C 96 % 1022,0 hPa 0,0 l/m 4,5 km/h (1 Bft) W-SW 249 0 min 0,000 mm 0,0 UV-I 0 W/m 14,1 C 14,7 C 6,4 km/h (2 Bft) 93,62 %
06.08.2017 23:08 14,7 C 24,4 C 96 % 1022,0 hPa 0,0 l/m 3,5 km/h (1 Bft) W-SW 250 0 min 0,000 mm 0,0 UV-I 0 W/m 14,1 C 14,7 C 4,8 km/h (1 Bft) 95,74 %
06.08.2017 23:10 14,8 C 24,4 C 96 % 1022,0 hPa 0,0 l/m 3,1 km/h (1 Bft) W-SW 250 0 min 0,000 mm 0,0 UV-I 0 W/m 14,2 C 14,8 C 4,8 km/h (1 Bft) 94,87 %
06.08.2017 23:12 14,8 C 24,4 C 96 % 1022,0 hPa 0,0 l/m 2,9 km/h (1 Bft) W 268 0 min 0,000 mm 0,0 UV-I 0 W/m 14,2 C 14,8 C 4,8 km/h (1 Bft) 96,00 %
06.08.2017 23:14 14,8 C 24,4 C 96 % 1022,0 hPa 0,0 l/m 3,1 km/h (1 Bft) W-SW 250 0 min 0,000 mm 0,0 UV-I 0 W/m 14,2 C 14,8 C 6,4 km/h (2 Bft) 94,34 %
06.08.2017 23:16 14,8 C 24,4 C 96 % 1022,0 hPa 0,0 l/m 2,2 km/h (1 Bft) W-SW 250 0 min 0,000 mm 0,0 UV-I 0 W/m 14,2 C 14,8 C 4,8 km/h (1 Bft) 95,12 %
06.08.2017 23:18 14,7 C 24,4 C 96 % 1022,0 hPa 0,0 l/m 1,3 km/h (1 Bft) W-SW 250 0 min 0,000 mm 0,0 UV-I 0 W/m 14,1 C 14,7 C 3,2 km/h (1 Bft) 95,74 %
06.08.2017 23:20 14,8 C 24,4 C 96 % 1022,0 hPa 0,0 l/m 0,7 km/h (0 Bft) W-SW 250 0 min 0,000 mm 0,0 UV-I 0 W/m 14,2 C 14,8 C 1,6 km/h (1 Bft) 96,23 %
06.08.2017 23:22 14,8 C 24,4 C 96 % 1022,0 hPa 0,0 l/m 0,6 km/h (0 Bft) W-SW 250 0 min 0,000 mm 0,0 UV-I 0 W/m 14,2 C 14,8 C 1,6 km/h (1 Bft) 94,74 %
06.08.2017 23:24 14,8 C 24,4 C 96 % 1021,9 hPa 0,0 l/m 0,0 km/h (0 Bft) W-SW 250 0 min 0,000 mm 0,0 UV-I 0 W/m 14,2 C 14,8 C 0,0 km/h (0 Bft) 96,00 %
06.08.2017 23:26 14,8 C 24,4 C 96 % 1021,9 hPa 0,0 l/m 0,0 km/h (0 Bft) W-SW 250 0 min 0,000 mm 0,0 UV-I 0 W/m 14,2 C 14,8 C 0,0 km/h (0 Bft) 91,49 %
06.08.2017 23:28 14,8 C 24,4 C 96 % 1021,8 hPa 0,0 l/m 0,0 km/h (0 Bft) W-SW 250 0 min 0,000 mm 0,0 UV-I 0 W/m 14,2 C 14,8 C 0,0 km/h (0 Bft) 96,00 %
06.08.2017 23:30 14,8 C 24,4 C 96 % 1021,7 hPa 0,0 l/m 0,0 km/h (0 Bft) W-SW 250 0 min 0,000 mm 0,0 UV-I 0 W/m 14,2 C 14,8 C 0,0 km/h (0 Bft) 94,74 %
06.08.2017 23:32 14,8 C 24,4 C 96 % 1021,7 hPa 0,0 l/m 0,0 km/h (0 Bft) W-SW 250 0 min 0,000 mm 0,0 UV-I 0 W/m 14,2 C 14,8 C 0,0 km/h (0 Bft) 94,00 %
06.08.2017 23:34 14,8 C 24,4 C 96 % 1021,7 hPa 0,0 l/m 0,0 km/h (0 Bft) W-SW 250 0 min 0,000 mm 0,0 UV-I 0 W/m 14,2 C 14,8 C 0,0 km/h (0 Bft) 96,00 %
06.08.2017 23:36 14,8 C 24,4 C 96 % 1021,7 hPa 0,0 l/m 0,0 km/h (0 Bft) W-SW 250 0 min 0,000 mm 0,0 UV-I 0 W/m 14,2 C 14,8 C 0,0 km/h (0 Bft) 95,74 %
06.08.2017 23:38 14,8 C 24,4 C 96 % 1021,7 hPa 0,0 l/m 0,0 km/h (0 Bft) W-SW 250 0 min 0,000 mm 0,0 UV-I 0 W/m 14,2 C 14,8 C 0,0 km/h (0 Bft) 97,56 %
06.08.2017 23:40 14,8 C 24,4 C 96 % 1021,8 hPa 0,0 l/m 0,0 km/h (0 Bft) W-SW 250 0 min 0,000 mm 0,0 UV-I 0 W/m 14,2 C 14,8 C 0,0 km/h (0 Bft) 100,00 %
06.08.2017 23:42 14,8 C 24,4 C 96 % 1021,8 hPa 0,0 l/m 0,4 km/h (0 Bft) W-SW 250 0 min 0,000 mm 0,0 UV-I 0 W/m 14,2 C 14,8 C 1,6 km/h (1 Bft) 100,00 %
06.08.2017 23:44 14,8 C 24,4 C 96 % 1021,9 hPa 0,0 l/m 0,4 km/h (0 Bft) W-SW 250 0 min 0,000 mm 0,0 UV-I 0 W/m 14,2 C 14,8 C 1,6 km/h (1 Bft) 97,96 %
06.08.2017 23:46 14,8 C 24,4 C 96 % 1021,9 hPa 0,0 l/m 1,6 km/h (1 Bft) W-SW 250 0 min 0,000 mm 0,0 UV-I 0 W/m 14,2 C 14,8 C 3,2 km/h (1 Bft) 100,00 %
06.08.2017 23:48 14,8 C 24,4 C 96 % 1021,9 hPa 0,0 l/m 0,1 km/h (0 Bft) W-SW 250 0 min 0,000 mm 0,0 UV-I 0 W/m 14,2 C 14,8 C 1,6 km/h (1 Bft) 100,00 %
06.08.2017 23:50 14,8 C 24,4 C 96 % 1022,0 hPa 0,0 l/m 0,4 km/h (0 Bft) W-SW 250 0 min 0,000 mm 0,0 UV-I 0 W/m 14,2 C 14,8 C 1,6 km/h (1 Bft) 100,00 %
06.08.2017 23:52 14,8 C 24,4 C 96 % 1021,9 hPa 0,0 l/m 0,1 km/h (0 Bft) W-SW 250 0 min 0,000 mm 0,0 UV-I 0 W/m 14,2 C 14,8 C 1,6 km/h (1 Bft) 100,00 %
06.08.2017 23:54 14,8 C 24,4 C 96 % 1022,0 hPa 0,0 l/m 0,0 km/h (0 Bft) W-SW 250 0 min 0,000 mm 0,0 UV-I 0 W/m 14,2 C 14,8 C 0,0 km/h (0 Bft) 100,00 %
06.08.2017 23:56 14,8 C 24,4 C 96 % 1022,1 hPa 0,0 l/m 0,4 km/h (0 Bft) W-SW 250 0 min 0,000 mm 0,0 UV-I 0 W/m 14,2 C 14,8 C 1,6 km/h (1 Bft) 100,00 %
06.08.2017 23:58 14,8 C 24,4 C 96 % 1022,1 hPa 0,0 l/m 0,3 km/h (0 Bft) W-SW 250 0 min 0,000 mm 0,0 UV-I 0 W/m 14,2 C 14,8 C 1,6 km/h (1 Bft) 100,00 %
_ Min-Zeit 18:28 22:20 00:00 00:18 - 08:22 - - - - - - 18:28 18:00 08:22 11:32
Minimum _ 14,6 C 24,4 C 81 % 1012,1 hPa - 0,0 km/h (0 Bft) - - - - - - 13,8 C 12,0 C 0,0 km/h (0 Bft) 91,43 %
_ Max-Zeit 00:00 00:00 08:54 21:18 01:14 01:00 - - 00:00 11:00 10:58 11:10 00:38 00:04 01:06 00:34
Maximum _ 23,3 C 27,8 C 96 % 1022,3 hPa 3,0 l/m 23,1 km/h
W (4 Bft)
- - 0 min 0,101 mm 1,5 UV-I 217 W/m 20,1 C 23,2 C 40,2 km/h
W (6 Bft)
100,00 %
Durchschnitt _ 16,9 C 26,1 C 94 % 1018,7 hPa #55,6 l/m 5,8 km/h (2 Bft) W-SW - #0 min. #0,584 mm 0,8 UV-I 53 W/m 15,9 C 16,4 C 9,9 km/h (2 Bft) 97,91 %